Darstellungsparameter: Aktuell verwendete Einstellungen:
Skalierung der Graphiken ... ?
xyx+y,   Skalierungsfaktor:      Skalierung: Modus: x, Faktor: 1
Darstellungszeitraum ... ?
Vom - - bis: - -   Zeitraum: 06.06.2017 - 05.12.2017
Min/Max/Avg-Anzeige ... ?
Zeige MMA aktuell
Zeige MMA Monat
Zeige MMA alles
Zeige --A aktuell
Zeige --A Monat
Zeige --A alles
Keine MMA-Anzeige
MMA:
Keine MMA-Graphiken
MMA-Basis: 06.06.2017 - 05.12.2017
Quicknavigation für Darstellung... ?
Tage:      1T, 2T, 3T, 5T -1T -2T -3T -5T +1T +2T +3T +5T
Wochen: 1W, 2W, 3W -1W -2W -3W +1W +2W +3W
Monate: 1M, 3M, 6M -1M -3M -6M +1M +3M +6M
Jahre:    1J, 3J, 5J, 10J -1J -3J -5J -10J +1J +3J +5J +10J
Nutze für die Darstellung ... ?
Originaldaten oder Mittelwerte auf ...
Stundenbasis Tagesbasis Wochenbasis
Monatsbasis Jahresbasis      Datenbasis: Original-Daten
Darstellen als:
Statistik (Auto) Statistik J:M      Darstellung:
Zur Graphik,    zurück zur Übersicht aller Sensoren.
 
Tabellarische Datenbersicht: ?
 
Sensor: Nr:Datum:Temp:Abs-Feuchte:Windchill:Wind:
Aussen-T/F 1 06-06-2017 00:00:00 14.8 C 11.27 g/m*3 14.8 C 0 km/h
2 06-06-2017 00:05:00 14.8 C 11.27 g/m*3 14.8 C 0 km/h
3 06-06-2017 00:10:00 14.7 C 11.21 g/m*3 14.7 C 0 km/h
4 06-06-2017 00:15:00 14.7 C 11.21 g/m*3 14.7 C 0 km/h
5 06-06-2017 00:20:00 14.7 C 11.21 g/m*3 14.7 C 0 km/h
6 06-06-2017 00:25:00 14.7 C 11.21 g/m*3 14.7 C 0 km/h
7 06-06-2017 00:30:00 14.6 C 11.14 g/m*3 14.6 C 0 km/h
8 06-06-2017 00:35:00 14.6 C 11.14 g/m*3 14.6 C 0 km/h
9 06-06-2017 00:40:00 14.6 C 11.14 g/m*3 14.6 C 0 km/h
10 06-06-2017 00:45:00 14.6 C 11.14 g/m*3 14.6 C 0 km/h
11 06-06-2017 00:50:00 14.5 C 11.07 g/m*3 14.5 C 0 km/h
12 06-06-2017 00:55:00 14.5 C 11.07 g/m*3 14.5 C 0 km/h
13 06-06-2017 01:00:00 14.4 C 11 g/m*3 14.4 C 0 km/h
14 06-06-2017 01:05:00 14.4 C 11 g/m*3 14.4 C 0 km/h
15 06-06-2017 01:10:00 14.5 C 11.07 g/m*3 14.5 C 3.2 km/h
16 06-06-2017 01:15:00 14.6 C 11.01 g/m*3 14.6 C 3.2 km/h
17 06-06-2017 01:20:00 14.7 C 11.08 g/m*3 14.7 C 0 km/h
18 06-06-2017 01:25:00 14.6 C 10.89 g/m*3 14.6 C 0 km/h
19 06-06-2017 01:30:00 14.4 C 10.75 g/m*3 14.4 C 0 km/h
20 06-06-2017 01:35:00 14.3 C 10.81 g/m*3 14.3 C 0 km/h
21 06-06-2017 01:40:00 14.1 C 10.68 g/m*3 14.1 C 0 km/h
22 06-06-2017 01:45:00 14 C 10.61 g/m*3 14 C 0 km/h
23 06-06-2017 01:50:00 13.9 C 10.55 g/m*3 13.9 C 0 km/h
24 06-06-2017 01:55:00 13.8 C 10.6 g/m*3 13.8 C 0 km/h
25 06-06-2017 02:00:00 13.7 C 10.54 g/m*3 13.7 C 0 km/h
Sensor: Nr:Datum:Temp:Abs-Feuchte:Windchill:Wind:
Aussen-T/F 26 06-06-2017 02:05:00 13.6 C 10.47 g/m*3 13.6 C 0 km/h
27 06-06-2017 02:10:00 13.4 C 10.35 g/m*3 13.4 C 0 km/h
28 06-06-2017 02:15:00 13.3 C 10.4 g/m*3 13.3 C 0 km/h
29 06-06-2017 02:20:00 13.3 C 10.4 g/m*3 13.3 C 0 km/h
30 06-06-2017 02:25:00 13.2 C 10.33 g/m*3 13.2 C 0 km/h
31 06-06-2017 02:30:00 13.2 C 10.33 g/m*3 13.2 C 0 km/h
32 06-06-2017 02:35:00 13.1 C 10.27 g/m*3 13.1 C 1.6 km/h
33 06-06-2017 02:40:00 13.1 C 10.38 g/m*3 13.1 C 0 km/h
34 06-06-2017 02:45:00 13.1 C 10.38 g/m*3 13.1 C 0 km/h
35 06-06-2017 02:50:00 13.1 C 10.38 g/m*3 13.1 C 0 km/h
36 06-06-2017 02:55:00 13 C 10.32 g/m*3 13 C 0 km/h
37 06-06-2017 03:00:00 12.9 C 10.26 g/m*3 12.9 C 0 km/h
38 06-06-2017 03:05:00 12.9 C 10.26 g/m*3 12.9 C 0 km/h
39 06-06-2017 03:10:00 12.8 C 10.19 g/m*3 12.8 C 0 km/h
40 06-06-2017 03:15:00 12.8 C 10.19 g/m*3 12.8 C 0 km/h
41 06-06-2017 03:20:00 12.8 C 10.19 g/m*3 12.8 C 0 km/h
42 06-06-2017 03:25:00 12.8 C 10.3 g/m*3 12.8 C 0 km/h
43 06-06-2017 03:30:00 12.8 C 10.3 g/m*3 12.8 C 0 km/h
44 06-06-2017 03:35:00 12.8 C 10.3 g/m*3 12.8 C 0 km/h
45 06-06-2017 03:40:00 12.8 C 10.3 g/m*3 12.8 C 0 km/h
46 06-06-2017 03:45:00 12.8 C 10.3 g/m*3 12.8 C 0 km/h
47 06-06-2017 03:50:00 12.7 C 10.24 g/m*3 12.7 C 0 km/h
48 06-06-2017 03:55:00 12.7 C 10.24 g/m*3 12.7 C 0 km/h
49 06-06-2017 04:00:00 12.7 C 10.24 g/m*3 12.7 C 0 km/h
50 06-06-2017 04:05:00 12.7 C 10.24 g/m*3 12.7 C 0 km/h
Sensor: Nr:Datum:Temp:Abs-Feuchte:Windchill:Wind:
Aussen-T/F 51 06-06-2017 04:10:00 12.6 C 10.18 g/m*3 12.6 C 0 km/h
52 06-06-2017 04:15:00 12.6 C 10.18 g/m*3 12.6 C 0 km/h
53 06-06-2017 04:20:00 12.6 C 10.18 g/m*3 12.6 C 0 km/h
54 06-06-2017 04:25:00 12.6 C 10.18 g/m*3 12.6 C 0 km/h
55 06-06-2017 04:30:00 12.6 C 10.18 g/m*3 12.6 C 0 km/h
56 06-06-2017 04:35:00 12.5 C 10.11 g/m*3 12.5 C 0 km/h
57 06-06-2017 04:40:00 12.5 C 10.22 g/m*3 12.5 C 0 km/h
58 06-06-2017 04:45:00 12.5 C 10.22 g/m*3 12.5 C 0 km/h
59 06-06-2017 04:50:00 12.4 C 10.16 g/m*3 12.4 C 0 km/h
60 06-06-2017 04:55:00 12.4 C 10.16 g/m*3 12.4 C 0 km/h
61 06-06-2017 05:00:00 12.4 C 10.16 g/m*3 12.4 C 0 km/h
62 06-06-2017 05:05:00 12.4 C 10.16 g/m*3 12.4 C 0 km/h
63 06-06-2017 05:10:00 12.4 C 10.16 g/m*3 12.4 C 0 km/h
64 06-06-2017 05:15:00 12.4 C 10.16 g/m*3 12.4 C 0 km/h
65 06-06-2017 05:20:00 12.4 C 10.16 g/m*3 12.4 C 0 km/h
66 06-06-2017 05:25:00 12.4 C 10.16 g/m*3 12.4 C 0 km/h
67 06-06-2017 05:30:00 12.4 C 10.16 g/m*3 12.4 C 0 km/h
68 06-06-2017 05:35:00 12.4 C 10.16 g/m*3 12.4 C 0 km/h
69 06-06-2017 05:40:00 12.4 C 10.16 g/m*3 12.4 C 0 km/h
70 06-06-2017 05:45:00 12.5 C 10.22 g/m*3 12.5 C 3.2 km/h
71 06-06-2017 05:50:00 12.6 C 10.29 g/m*3 12.6 C 4.8 km/h
72 06-06-2017 05:55:00 12.6 C 10.29 g/m*3 12.6 C 0 km/h
73 06-06-2017 06:00:00 12.6 C 10.29 g/m*3 12.6 C 0 km/h
74 06-06-2017 06:05:00 12.6 C 10.29 g/m*3 12.6 C 0 km/h
75 06-06-2017 06:10:00 12.7 C 10.35 g/m*3 12.7 C 0 km/h
Sensor: Nr:Datum:Temp:Abs-Feuchte:Windchill:Wind:
Aussen-T/F 76 06-06-2017 06:15:00 12.7 C 10.35 g/m*3 12.7 C 0 km/h
77 06-06-2017 06:20:00 12.8 C 10.42 g/m*3 12.8 C 0 km/h
78 06-06-2017 06:25:00 12.8 C 10.42 g/m*3 12.8 C 0 km/h
79 06-06-2017 06:30:00 12.8 C 10.42 g/m*3 12.8 C 1.6 km/h
80 06-06-2017 06:35:00 12.9 C 10.48 g/m*3 12.9 C 3.2 km/h
81 06-06-2017 06:40:00 13.1 C 10.5 g/m*3 13.1 C 1.6 km/h
82 06-06-2017 06:45:00 13.3 C 10.63 g/m*3 13.3 C 6.4 km/h
83 06-06-2017 06:50:00 13.6 C 10.71 g/m*3 13.6 C 3.2 km/h
84 06-06-2017 06:55:00 13.8 C 10.72 g/m*3 13.8 C 3.2 km/h
85 06-06-2017 07:00:00 14.2 C 10.99 g/m*3 14.2 C 1.6 km/h
86 06-06-2017 07:05:00 14.3 C 11.06 g/m*3 14.3 C 1.6 km/h
87 06-06-2017 07:10:00 14.4 C 10.88 g/m*3 14.4 C 4.8 km/h
88 06-06-2017 07:15:00 14.6 C 11.01 g/m*3 14.6 C 4.8 km/h
89 06-06-2017 07:20:00 14.8 C 10.89 g/m*3 14.8 C 3.2 km/h
90 06-06-2017 07:25:00 15.1 C 10.97 g/m*3 15.1 C 4.8 km/h
91 06-06-2017 07:30:00 15.2 C 11.16 g/m*3 15.2 C 0 km/h
92 06-06-2017 07:35:00 15.4 C 11.3 g/m*3 15.4 C 1.6 km/h
93 06-06-2017 07:40:00 15.4 C 11.04 g/m*3 15.4 C 3.2 km/h
94 06-06-2017 07:45:00 15.6 C 11.3 g/m*3 15.6 C 1.6 km/h
95 06-06-2017 07:50:00 15.7 C 11.11 g/m*3 15.7 C 3.2 km/h
96 06-06-2017 07:55:00 15.8 C 11.17 g/m*3 15.8 C 6.4 km/h
97 06-06-2017 08:00:00 16 C 11.17 g/m*3 16 C 4.8 km/h
98 06-06-2017 08:05:00 16.2 C 11.31 g/m*3 16.2 C 6.4 km/h
99 06-06-2017 08:10:00 16.3 C 11.24 g/m*3 16.3 C 4.8 km/h
100 06-06-2017 08:15:00 16.3 C 11.24 g/m*3 16.3 C 3.2 km/h
Sensor: Nr:Datum:Temp:Abs-Feuchte:Windchill:Wind:
Aussen-T/F 101 06-06-2017 08:20:00 16.4 C 11.58 g/m*3 16.4 C 1.6 km/h
102 06-06-2017 08:25:00 16.3 C 11.52 g/m*3 16.3 C 1.6 km/h
103 06-06-2017 08:30:00 16.3 C 11.52 g/m*3 16.3 C 6.4 km/h
104 06-06-2017 08:35:00 16.3 C 11.52 g/m*3 16.3 C 1.6 km/h
105 06-06-2017 08:40:00 16.3 C 11.65 g/m*3 16.3 C 1.6 km/h
106 06-06-2017 08:45:00 16.3 C 11.65 g/m*3 16.3 C 0 km/h
107 06-06-2017 08:50:00 16.3 C 11.1 g/m*3 16.3 C 3.2 km/h
108 06-06-2017 08:55:00 16.4 C 10.89 g/m*3 16.4 C 8.1 km/h
109 06-06-2017 09:00:00 16.4 C 10.75 g/m*3 16.4 C 8.1 km/h
110 06-06-2017 09:05:00 16.5 C 10.67 g/m*3 16.5 C 3.2 km/h
111 06-06-2017 09:10:00 16.6 C 10.74 g/m*3 16.6 C 4.8 km/h
112 06-06-2017 09:15:00 16.5 C 10.67 g/m*3 16.5 C 6.4 km/h
113 06-06-2017 09:20:00 16.5 C 10.81 g/m*3 16.5 C 4.8 km/h
114 06-06-2017 09:25:00 16.6 C 10.88 g/m*3 16.6 C 9.7 km/h
115 06-06-2017 09:30:00 16.5 C 10.95 g/m*3 16.5 C 9.7 km/h
116 06-06-2017 09:35:00 16.6 C 11.02 g/m*3 16.6 C 4.8 km/h
117 06-06-2017 09:40:00 16.6 C 11.02 g/m*3 16.6 C 4.8 km/h
118 06-06-2017 09:45:00 16.7 C 10.94 g/m*3 16.7 C 11.3 km/h
119 06-06-2017 09:50:00 16.8 C 11.15 g/m*3 16.8 C 4.8 km/h
120 06-06-2017 09:55:00 16.9 C 10.79 g/m*3 16.9 C 8.1 km/h
121 06-06-2017 10:00:00 17 C 11.29 g/m*3 17 C 14.5 km/h
122 06-06-2017 10:05:00 17.1 C 11.06 g/m*3 17.1 C 4.8 km/h
123 06-06-2017 10:10:00 17.2 C 10.98 g/m*3 17.2 C 6.4 km/h
124 06-06-2017 10:15:00 17.3 C 10.9 g/m*3 17.3 C 8.1 km/h
125 06-06-2017 10:20:00 17.4 C 10.97 g/m*3 17.4 C 9.7 km/h
Sensor: Nr:Datum:Temp:Abs-Feuchte:Windchill:Wind:
Aussen-T/F 126 06-06-2017 10:25:00 17.4 C 10.97 g/m*3 17.4 C 8.1 km/h
127 06-06-2017 10:30:00 17.3 C 11.05 g/m*3 17.3 C 6.4 km/h
128 06-06-2017 10:35:00 17.2 C 11.13 g/m*3 17.2 C 9.7 km/h
129 06-06-2017 10:40:00 17.2 C 11.28 g/m*3 17.2 C 9.7 km/h
130 06-06-2017 10:45:00 17.1 C 11.06 g/m*3 17.1 C 9.7 km/h
131 06-06-2017 10:50:00 17.1 C 11.35 g/m*3 17.1 C 8.1 km/h
132 06-06-2017 10:55:00 17.2 C 11.28 g/m*3 17.2 C 11.3 km/h
133 06-06-2017 11:00:00 17.2 C 11.57 g/m*3 17.2 C 8.1 km/h
134 06-06-2017 11:05:00 17.1 C 11.65 g/m*3 17.1 C 4.8 km/h
135 06-06-2017 11:10:00 16.9 C 11.51 g/m*3 16.9 C 11.3 km/h
136 06-06-2017 11:15:00 16.8 C 11.44 g/m*3 16.8 C 11.3 km/h
137 06-06-2017 11:20:00 16.7 C 11.37 g/m*3 16.7 C 6.4 km/h
138 06-06-2017 11:25:00 16.9 C 11.79 g/m*3 16.9 C 11.3 km/h
139 06-06-2017 11:30:00 17.2 C 11.72 g/m*3 17.2 C 8.1 km/h
140 06-06-2017 11:35:00 17.6 C 12 g/m*3 17.6 C 9.7 km/h
141 06-06-2017 11:40:00 17.9 C 12.06 g/m*3 17.9 C 12.9 km/h
142 06-06-2017 11:45:00 18.1 C 11.9 g/m*3 18.1 C 19.3 km/h
143 06-06-2017 11:50:00 17.9 C 12.06 g/m*3 17.9 C 11.3 km/h
144 06-06-2017 11:55:00 17.8 C 11.84 g/m*3 17.8 C 4.8 km/h
145 06-06-2017 12:00:00 17.7 C 11.92 g/m*3 17.7 C 9.7 km/h
146 06-06-2017 12:05:00 17.7 C 11.92 g/m*3 17.7 C 14.5 km/h
147 06-06-2017 12:10:00 17.8 C 11.99 g/m*3 17.8 C 12.9 km/h
148 06-06-2017 12:15:00 17.9 C 11.91 g/m*3 17.9 C 16.1 km/h
149 06-06-2017 12:20:00 17.9 C 12.06 g/m*3 17.9 C 14.5 km/h
150 06-06-2017 12:25:00 18.1 C 12.05 g/m*3 18.1 C 9.7 km/h
Sensor: Nr:Datum:Temp:Abs-Feuchte:Windchill:Wind:
Aussen-T/F 151 06-06-2017 12:30:00 18.2 C 12.28 g/m*3 18.2 C 11.3 km/h
152 06-06-2017 12:35:00 18.1 C 12.05 g/m*3 18.1 C 17.7 km/h
153 06-06-2017 12:40:00 17.9 C 11.91 g/m*3 17.9 C 12.9 km/h
154 06-06-2017 12:45:00 17.8 C 12.45 g/m*3 17.8 C 9.7 km/h
155 06-06-2017 12:50:00 17.6 C 12 g/m*3 17.6 C 22.5 km/h
156 06-06-2017 12:55:00 17.6 C 11.85 g/m*3 17.6 C 16.1 km/h
157 06-06-2017 13:00:00 17.5 C 11.78 g/m*3 17.5 C 17.7 km/h
158 06-06-2017 13:05:00 17.7 C 11.62 g/m*3 17.7 C 25.7 km/h
159 06-06-2017 13:10:00 17.9 C 11.3 g/m*3 17.9 C 20.9 km/h
160 06-06-2017 13:15:00 17.8 C 10.78 g/m*3 17.8 C 24.1 km/h
161 06-06-2017 13:20:00 17.8 C 10.47 g/m*3 17.8 C 27.4 km/h
162 06-06-2017 13:25:00 17.8 C 10.17 g/m*3 17.8 C 25.7 km/h
163 06-06-2017 13:30:00 17.8 C 10.32 g/m*3 17.8 C 20.9 km/h
164 06-06-2017 13:35:00 17.8 C 10.32 g/m*3 17.8 C 17.7 km/h
165 06-06-2017 13:40:00 18 C 10.6 g/m*3 18 C 12.9 km/h
166 06-06-2017 13:45:00 18.1 C 10.35 g/m*3 18.1 C 22.5 km/h
167 06-06-2017 13:50:00 18.2 C 10.41 g/m*3 18.2 C 25.7 km/h
168 06-06-2017 13:55:00 18.3 C 10.16 g/m*3 18.3 C 27.4 km/h
169 06-06-2017 14:00:00 18.6 C 9.87 g/m*3 18.6 C 22.5 km/h
170 06-06-2017 14:05:00 18.7 C 9.45 g/m*3 18.7 C 29 km/h
171 06-06-2017 14:10:00 18.8 C 9.34 g/m*3 18.8 C 19.3 km/h
172 06-06-2017 14:15:00 18.8 C 9.18 g/m*3 18.8 C 25.7 km/h
173 06-06-2017 14:20:00 18.8 C 9.02 g/m*3 18.8 C 22.5 km/h
174 06-06-2017 14:25:00 18.7 C 9.29 g/m*3 18.7 C 40.2 km/h
175 06-06-2017 14:30:00 18.6 C 9.39 g/m*3 18.6 C 29 km/h
Sensor: Nr:Datum:Temp:Abs-Feuchte:Windchill:Wind:
Aussen-T/F 176 06-06-2017 14:35:00 18.3 C 8.76 g/m*3 18.3 C 29 km/h
177 06-06-2017 14:40:00 18.3 C 9.07 g/m*3 18.3 C 27.4 km/h
178 06-06-2017 14:45:00 18.5 C 9.33 g/m*3 18.5 C 20.9 km/h
179 06-06-2017 14:50:00 18.8 C 9.5 g/m*3 18.8 C 11.3 km/h
180 06-06-2017 14:55:00 19.1 C 8.85 g/m*3 19.1 C 22.5 km/h
181 06-06-2017 15:00:00 19.4 C 9.51 g/m*3 19.4 C 17.7 km/h
182 06-06-2017 15:05:00 19.6 C 9.45 g/m*3 19.6 C 25.7 km/h
183 06-06-2017 15:10:00 19.9 C 9.79 g/m*3 19.9 C 20.9 km/h
184 06-06-2017 15:15:00 20.3 C 9.15 g/m*3 20.3 C 14.5 km/h
185 06-06-2017 15:20:00 20.6 C 8.59 g/m*3 20.6 C 27.4 km/h
186 06-06-2017 15:25:00 20.4 C 8.49 g/m*3 20.4 C 29 km/h
187 06-06-2017 15:30:00 20.4 C 8.31 g/m*3 20.4 C 19.3 km/h
188 06-06-2017 15:35:00 20.4 C 8.31 g/m*3 20.4 C 16.1 km/h
189 06-06-2017 15:40:00 20.6 C 8.41 g/m*3 20.6 C 16.1 km/h
190 06-06-2017 15:45:00 20.4 C 8.85 g/m*3 20.4 C 8.1 km/h
191 06-06-2017 15:50:00 20.5 C 8.36 g/m*3 20.5 C 24.1 km/h
192 06-06-2017 15:55:00 20.4 C 8.49 g/m*3 20.4 C 16.1 km/h
193 06-06-2017 16:00:00 20.7 C 8.1 g/m*3 20.7 C 16.1 km/h
194 06-06-2017 16:05:00 20.4 C 8.14 g/m*3 20.4 C 19.3 km/h
195 06-06-2017 16:10:00 20.2 C 8.04 g/m*3 20.2 C 19.3 km/h
196 06-06-2017 16:15:00 20.1 C 8 g/m*3 20.1 C 16.1 km/h
197 06-06-2017 16:20:00 20.1 C 8.17 g/m*3 20.1 C 17.7 km/h
198 06-06-2017 16:25:00 19.6 C 8.27 g/m*3 19.6 C 11.3 km/h
199 06-06-2017 16:30:00 19.1 C 8.52 g/m*3 19.1 C 17.7 km/h
200 06-06-2017 16:35:00 19.3 C 9.29 g/m*3 19.3 C 8.1 km/h
Sensor: Nr:Datum:Temp:Abs-Feuchte:Windchill:Wind:
Aussen-T/F 201 06-06-2017 16:40:00 19.7 C 8.66 g/m*3 19.7 C 14.5 km/h
202 06-06-2017 16:45:00 19.6 C 9.28 g/m*3 19.6 C 11.3 km/h
203 06-06-2017 16:50:00 19.2 C 8.74 g/m*3 19.2 C 14.5 km/h
204 06-06-2017 16:55:00 18.6 C 8.44 g/m*3 18.6 C 27.4 km/h
205 06-06-2017 17:00:00 17.7 C 8.9 g/m*3 17.7 C 19.3 km/h
206 06-06-2017 17:05:00 17.1 C 8.88 g/m*3 17.1 C 14.5 km/h
207 06-06-2017 17:10:00 16.7 C 9.24 g/m*3 16.7 C 24.1 km/h
208 06-06-2017 17:15:00 16.2 C 9.65 g/m*3 16.2 C 14.5 km/h
209 06-06-2017 17:20:00 15.4 C 9.72 g/m*3 15.4 C 14.5 km/h
210 06-06-2017 17:25:00 14.8 C 9.75 g/m*3 14.8 C 3.2 km/h
211 06-06-2017 17:30:00 14.4 C 9.89 g/m*3 14.4 C 3.2 km/h
212 06-06-2017 17:35:00 14.2 C 10.01 g/m*3 14.2 C 3.2 km/h
213 06-06-2017 17:40:00 14.1 C 9.95 g/m*3 14.1 C 4.8 km/h
214 06-06-2017 17:45:00 14.4 C 10.26 g/m*3 14.4 C 16.1 km/h
215 06-06-2017 17:50:00 15.4 C 10.51 g/m*3 15.4 C 16.1 km/h
216 06-06-2017 17:55:00 16.6 C 10.17 g/m*3 16.6 C 16.1 km/h
217 06-06-2017 18:00:00 17.3 C 10.16 g/m*3 17.3 C 14.5 km/h
218 06-06-2017 18:05:00 17.8 C 9.71 g/m*3 17.8 C 16.1 km/h
219 06-06-2017 18:10:00 18.1 C 10.04 g/m*3 18.1 C 12.9 km/h
220 06-06-2017 18:15:00 17.8 C 9.41 g/m*3 17.8 C 14.5 km/h
221 06-06-2017 18:20:00 17.4 C 9.19 g/m*3 17.4 C 16.1 km/h
222 06-06-2017 18:25:00 17.5 C 9.54 g/m*3 17.5 C 9.7 km/h
223 06-06-2017 18:30:00 17.6 C 9.3 g/m*3 17.6 C 16.1 km/h
224 06-06-2017 18:35:00 17.2 C 8.93 g/m*3 17.2 C 19.3 km/h
225 06-06-2017 18:40:00 16.9 C 8.77 g/m*3 16.9 C 24.1 km/h
Sensor: Nr:Datum:Temp:Abs-Feuchte:Windchill:Wind:
Aussen-T/F 226 06-06-2017 18:45:00 17.4 C 9.19 g/m*3 17.4 C 12.9 km/h
227 06-06-2017 18:50:00 18.1 C 9.27 g/m*3 18.1 C 12.9 km/h
228 06-06-2017 18:55:00 18.3 C 8.91 g/m*3 18.3 C 14.5 km/h
229 06-06-2017 19:00:00 18.5 C 8.86 g/m*3 18.5 C 19.3 km/h
230 06-06-2017 19:05:00 18.5 C 8.7 g/m*3 18.5 C 16.1 km/h
231 06-06-2017 19:10:00 18.2 C 8.08 g/m*3 18.2 C 32.2 km/h
232 06-06-2017 19:15:00 17.8 C 8.04 g/m*3 17.8 C 22.5 km/h
233 06-06-2017 19:20:00 17.6 C 8.25 g/m*3 17.6 C 27.4 km/h
234 06-06-2017 19:25:00 17.3 C 8.1 g/m*3 17.3 C 20.9 km/h
235 06-06-2017 19:30:00 16.8 C 8.01 g/m*3 16.8 C 20.9 km/h
236 06-06-2017 19:35:00 16.4 C 8.23 g/m*3 16.4 C 16.1 km/h
237 06-06-2017 19:40:00 16.1 C 8.36 g/m*3 16.1 C 12.9 km/h
238 06-06-2017 19:45:00 15.8 C 8.21 g/m*3 15.8 C 14.5 km/h
239 06-06-2017 19:50:00 15.6 C 8.25 g/m*3 15.6 C 4.8 km/h
240 06-06-2017 19:55:00 15.4 C 8.15 g/m*3 15.4 C 9.7 km/h
241 06-06-2017 20:00:00 15.3 C 8.36 g/m*3 15.3 C 19.3 km/h
242 06-06-2017 20:05:00 15.1 C 8.39 g/m*3 15.1 C 16.1 km/h
243 06-06-2017 20:10:00 14.9 C 9.3 g/m*3 14.9 C 22.5 km/h
244 06-06-2017 20:15:00 13.8 C 8.7 g/m*3 13.8 C 11.3 km/h
245 06-06-2017 20:20:00 13 C 8.73 g/m*3 13 C 9.7 km/h
246 06-06-2017 20:25:00 12.4 C 8.74 g/m*3 12.4 C 3.2 km/h
247 06-06-2017 20:30:00 12.1 C 8.69 g/m*3 12.1 C 3.2 km/h
248 06-06-2017 20:35:00 11.8 C 8.74 g/m*3 11.8 C 0 km/h
249 06-06-2017 20:40:00 11.7 C 8.68 g/m*3 11.7 C 0 km/h
250 06-06-2017 20:45:00 11.4 C 8.42 g/m*3 11.4 C 9.7 km/h
Sensor: Nr:Datum:Temp:Abs-Feuchte:Windchill:Wind:
Aussen-T/F 251 06-06-2017 20:50:00 11.3 C 8.36 g/m*3 11.3 C 8.1 km/h
252 06-06-2017 20:55:00 11.2 C 8.41 g/m*3 11.2 C 6.4 km/h
253 06-06-2017 21:00:00 11.2 C 8.41 g/m*3 11.2 C 11.3 km/h
254 06-06-2017 21:05:00 11.1 C 8.26 g/m*3 11.1 C 8.1 km/h
255 06-06-2017 21:10:00 11.1 C 8.36 g/m*3 11.1 C 11.3 km/h
256 06-06-2017 21:15:00 11.1 C 8.36 g/m*3 11.1 C 9.7 km/h
257 06-06-2017 21:20:00 11.1 C 8.36 g/m*3 11.1 C 6.4 km/h
258 06-06-2017 21:25:00 11 C 8.31 g/m*3 11 C 4.8 km/h
259 06-06-2017 21:30:00 10.9 C 8.36 g/m*3 10.9 C 3.2 km/h
260 06-06-2017 21:35:00 10.8 C 8.3 g/m*3 10.8 C 1.6 km/h
261 06-06-2017 21:40:00 10.7 C 8.25 g/m*3 10.7 C 3.2 km/h
262 06-06-2017 21:45:00 10.6 C 8.3 g/m*3 9.69 C 8.1 km/h
263 06-06-2017 21:50:00 10.6 C 8.3 g/m*3 10.6 C 3.2 km/h
264 06-06-2017 21:55:00 10.5 C 8.24 g/m*3 10.5 C 4.8 km/h
265 06-06-2017 22:00:00 10.4 C 8.29 g/m*3 9.46 C 8.1 km/h
266 06-06-2017 22:05:00 10.4 C 8.29 g/m*3 9.83 C 6.4 km/h
267 06-06-2017 22:10:00 10.4 C 8.29 g/m*3 8.9 C 11.3 km/h
268 06-06-2017 22:15:00 10.3 C 8.24 g/m*3 10.3 C 1.6 km/h
269 06-06-2017 22:20:00 10.3 C 8.24 g/m*3 9.34 C 8.1 km/h
270 06-06-2017 22:25:00 10.3 C 8.24 g/m*3 9.34 C 8.1 km/h
271 06-06-2017 22:30:00 10.3 C 8.14 g/m*3 8.16 C 16.1 km/h
272 06-06-2017 22:35:00 10.4 C 8.19 g/m*3 9.83 C 6.4 km/h
273 06-06-2017 22:40:00 10.5 C 8.24 g/m*3 9.02 C 11.3 km/h
274 06-06-2017 22:45:00 10.6 C 8.3 g/m*3 9.4 C 9.7 km/h
275 06-06-2017 22:50:00 10.6 C 8.3 g/m*3 10.6 C 0 km/h
Sensor: Nr:Datum:Temp:Abs-Feuchte:Windchill:Wind:
Aussen-T/F 276 06-06-2017 22:55:00 10.6 C 8.3 g/m*3 10.6 C 0 km/h
277 06-06-2017 23:00:00 10.5 C 8.24 g/m*3 10.5 C 3.2 km/h
278 06-06-2017 23:05:00 10.4 C 8.19 g/m*3 9.83 C 6.4 km/h
279 06-06-2017 23:10:00 10.4 C 8.29 g/m*3 10.4 C 0 km/h
280 06-06-2017 23:15:00 10.4 C 8.29 g/m*3 10.4 C 1.6 km/h
281 06-06-2017 23:20:00 10.4 C 8.19 g/m*3 9.83 C 6.4 km/h
282 06-06-2017 23:25:00 10.4 C 8.19 g/m*3 10.4 C 1.6 km/h
283 06-06-2017 23:30:00 10.4 C 8.19 g/m*3 9.83 C 6.4 km/h
284 06-06-2017 23:35:00 10.4 C 8.1 g/m*3 10.4 C 1.6 km/h
285 06-06-2017 23:40:00 10.3 C 8.04 g/m*3 9.72 C 6.4 km/h
286 06-06-2017 23:45:00 10.3 C 8.14 g/m*3 10.3 C 4.8 km/h
287 06-06-2017 23:50:00 10.2 C 8.09 g/m*3 10.2 C 0 km/h
288 06-06-2017 23:55:00 10.2 C 8.09 g/m*3 10.2 C 4.8 km/h
289 07-06-2017 00:00:00 10.2 C 8.09 g/m*3 8.92 C 9.7 km/h
290 07-06-2017 00:05:00 10.3 C 8.04 g/m*3 9.34 C 8.1 km/h
291 07-06-2017 00:10:00 10.3 C 8.14 g/m*3 10.3 C 1.6 km/h
292 07-06-2017 00:15:00 10.2 C 7.99 g/m*3 10.2 C 0 km/h
293 07-06-2017 00:20:00 10.2 C 8.09 g/m*3 10.2 C 0 km/h
294 07-06-2017 00:25:00 10.1 C 8.04 g/m*3 10.1 C 0 km/h
295 07-06-2017 00:30:00 10 C 8.08 g/m*3 10 C 0 km/h
296 07-06-2017 00:35:00 9.9 C 8.03 g/m*3 9.9 C 0 km/h
297 07-06-2017 00:40:00 9.9 C 8.12 g/m*3 9.9 C 0 km/h
298 07-06-2017 00:45:00 9.8 C 8.07 g/m*3 9.8 C 3.2 km/h
299 07-06-2017 00:50:00 9.8 C 8.07 g/m*3 9.8 C 1.6 km/h
300 07-06-2017 00:55:00 9.9 C 8.22 g/m*3 9.9 C 3.2 km/h
Sensor: Nr:Datum:Temp:Abs-Feuchte:Windchill:Wind:
Aussen-T/F 301 07-06-2017 01:00:00 9.9 C 8.12 g/m*3 9.9 C 3.2 km/h
302 07-06-2017 01:05:00 10 C 8.17 g/m*3 10 C 1.6 km/h
303 07-06-2017 01:10:00 10.1 C 8.32 g/m*3 9.48 C 6.4 km/h
304 07-06-2017 01:15:00 10.2 C 8.28 g/m*3 9.6 C 6.4 km/h
305 07-06-2017 01:20:00 10.3 C 8.24 g/m*3 9.72 C 6.4 km/h
306 07-06-2017 01:25:00 10.4 C 8.19 g/m*3 8.67 C 12.9 km/h
307 07-06-2017 01:30:00 10.7 C 8.25 g/m*3 9.52 C 9.7 km/h
308 07-06-2017 01:35:00 10.8 C 8.2 g/m*3 8.96 C 14.5 km/h
309 07-06-2017 01:40:00 10.9 C 8.16 g/m*3 9.08 C 14.5 km/h
310 07-06-2017 01:45:00 11 C 8.21 g/m*3 10.52 C 6.4 km/h
311 07-06-2017 01:50:00 11 C 8.21 g/m*3 9.02 C 16.1 km/h
312 07-06-2017 01:55:00 11 C 8.21 g/m*3 9.02 C 16.1 km/h
313 07-06-2017 02:00:00 10.9 C 8.16 g/m*3 8.9 C 16.1 km/h
314 07-06-2017 02:05:00 10.8 C 8.11 g/m*3 9.93 C 8.1 km/h
315 07-06-2017 02:10:00 10.8 C 8.2 g/m*3 9.16 C 12.9 km/h
316 07-06-2017 02:15:00 10.7 C 8.05 g/m*3 9.26 C 11.3 km/h
317 07-06-2017 02:20:00 10.7 C 8.05 g/m*3 8.48 C 17.7 km/h
318 07-06-2017 02:25:00 10.7 C 8.05 g/m*3 9.52 C 9.7 km/h
319 07-06-2017 02:30:00 10.7 C 8.05 g/m*3 9.04 C 12.9 km/h
320 07-06-2017 02:35:00 10.6 C 8.1 g/m*3 9.14 C 11.3 km/h
321 07-06-2017 02:40:00 10.6 C 8.1 g/m*3 9.14 C 11.3 km/h
322 07-06-2017 02:45:00 10.4 C 8 g/m*3 10.4 C 4.8 km/h
323 07-06-2017 02:50:00 10.4 C 8 g/m*3 8.67 C 12.9 km/h
324 07-06-2017 02:55:00 10.4 C 8 g/m*3 9.83 C 6.4 km/h
325 07-06-2017 03:00:00 10.4 C 8 g/m*3 9.16 C 9.7 km/h
Sensor: Nr:Datum:Temp:Abs-Feuchte:Windchill:Wind:
Aussen-T/F 326 07-06-2017 03:05:00 10.4 C 8 g/m*3 9.83 C 6.4 km/h
327 07-06-2017 03:10:00 10.4 C 8.1 g/m*3 10.4 C 0 km/h
328 07-06-2017 03:15:00 10.3 C 8.04 g/m*3 10.3 C 4.8 km/h
329 07-06-2017 03:20:00 10.3 C 8.04 g/m*3 9.34 C 8.1 km/h
330 07-06-2017 03:25:00 10.1 C 7.94 g/m*3 10.1 C 4.8 km/h
331 07-06-2017 03:30:00 10 C 7.89 g/m*3 8.99 C 8.1 km/h
332 07-06-2017 03:35:00 10 C 7.89 g/m*3 10 C 3.2 km/h
333 07-06-2017 03:40:00 9.9 C 7.94 g/m*3 9.9 C 4.8 km/h
334 07-06-2017 03:45:00 9.9 C 7.94 g/m*3 9.9 C 0 km/h
335 07-06-2017 03:50:00 9.9 C 8.03 g/m*3 9.9 C 0 km/h
336 07-06-2017 03:55:00 9.9 C 8.03 g/m*3 9.25 C 6.4 km/h
337 07-06-2017 04:00:00 9.9 C 8.03 g/m*3 9.25 C 6.4 km/h
338 07-06-2017 04:05:00 10.1 C 8.13 g/m*3 10.1 C 4.8 km/h
339 07-06-2017 04:10:00 10.2 C 8.18 g/m*3 8.66 C 11.3 km/h
340 07-06-2017 04:15:00 10.4 C 8.19 g/m*3 7.95 C 19.3 km/h
341 07-06-2017 04:20:00 10.6 C 8.2 g/m*3 8.92 C 12.9 km/h
342 07-06-2017 04:25:00 10.7 C 8.25 g/m*3 9.26 C 11.3 km/h
343 07-06-2017 04:30:00 10.8 C 8.3 g/m*3 8.96 C 14.5 km/h
344 07-06-2017 04:35:00 10.8 C 8.2 g/m*3 9.93 C 8.1 km/h
345 07-06-2017 04:40:00 10.8 C 8.3 g/m*3 9.16 C 12.9 km/h
346 07-06-2017 04:45:00 10.8 C 8.3 g/m*3 8.96 C 14.5 km/h
347 07-06-2017 04:50:00 10.8 C 8.2 g/m*3 9.38 C 11.3 km/h
348 07-06-2017 04:55:00 10.9 C 8.36 g/m*3 9.08 C 14.5 km/h
349 07-06-2017 05:00:00 10.9 C 8.26 g/m*3 9.76 C 9.7 km/h
350 07-06-2017 05:05:00 10.9 C 8.26 g/m*3 8.9 C 16.1 km/h
Sensor: Nr:Datum:Temp:Abs-Feuchte:Windchill:Wind:
Aussen-T/F 351 07-06-2017 05:10:00 10.9 C 8.26 g/m*3 9.51 C 11.3 km/h
352 07-06-2017 05:15:00 10.9 C 8.26 g/m*3 9.51 C 11.3 km/h
353 07-06-2017 05:20:00 10.9 C 8.26 g/m*3 9.51 C 11.3 km/h
354 07-06-2017 05:25:00 10.9 C 8.16 g/m*3 9.51 C 11.3 km/h
355 07-06-2017 05:30:00 11 C 8.21 g/m*3 9.02 C 16.1 km/h
356 07-06-2017 05:35:00 11 C 8.21 g/m*3 9.63 C 11.3 km/h
357 07-06-2017 05:40:00 11 C 8.21 g/m*3 9.63 C 11.3 km/h
358 07-06-2017 05:45:00 11 C 8.31 g/m*3 8.7 C 19.3 km/h
359 07-06-2017 05:50:00 11 C 8.21 g/m*3 9.88 C 9.7 km/h
360 07-06-2017 05:55:00 11 C 8.21 g/m*3 9.02 C 16.1 km/h
361 07-06-2017 06:00:00 11 C 8.21 g/m*3 9.4 C 12.9 km/h
362 07-06-2017 06:05:00 10.9 C 8.26 g/m*3 9.51 C 11.3 km/h
363 07-06-2017 06:10:00 11 C 8.31 g/m*3 9.4 C 12.9 km/h
364 07-06-2017 06:15:00 11 C 8.21 g/m*3 9.21 C 14.5 km/h
365 07-06-2017 06:20:00 11.1 C 8.26 g/m*3 11.1 C 19.3 km/h
366 07-06-2017 06:25:00 11.2 C 8.31 g/m*3 11.2 C 6.4 km/h
367 07-06-2017 06:30:00 11.2 C 8.31 g/m*3 11.2 C 14.5 km/h
368 07-06-2017 06:35:00 11.2 C 8.31 g/m*3 11.2 C 20.9 km/h
369 07-06-2017 06:40:00 11.3 C 8.36 g/m*3 11.3 C 11.3 km/h
370 07-06-2017 06:45:00 11.3 C 8.36 g/m*3 11.3 C 16.1 km/h
371 07-06-2017 06:50:00 11.3 C 8.36 g/m*3 11.3 C 8.1 km/h
372 07-06-2017 06:55:00 11.3 C 8.26 g/m*3 11.3 C 12.9 km/h
373 07-06-2017 07:00:00 11.4 C 8.31 g/m*3 11.4 C 17.7 km/h
374 07-06-2017 07:05:00 11.4 C 8.31 g/m*3 11.4 C 14.5 km/h
375 07-06-2017 07:10:00 11.5 C 8.37 g/m*3 11.5 C 12.9 km/h
Sensor: Nr:Datum:Temp:Abs-Feuchte:Windchill:Wind:
Aussen-T/F 376 07-06-2017 07:15:00 11.5 C 8.26 g/m*3 11.5 C 14.5 km/h
377 07-06-2017 07:20:00 11.6 C 8.42 g/m*3 11.6 C 11.3 km/h
378 07-06-2017 07:25:00 11.6 C 8.42 g/m*3 11.6 C 8.1 km/h
379 07-06-2017 07:30:00 11.7 C 8.37 g/m*3 11.7 C 12.9 km/h
380 07-06-2017 07:35:00 11.7 C 8.37 g/m*3 11.7 C 16.1 km/h
381 07-06-2017 07:40:00 11.7 C 8.37 g/m*3 11.7 C 14.5 km/h
382 07-06-2017 07:45:00 11.7 C 8.26 g/m*3 11.7 C 12.9 km/h
383 07-06-2017 07:50:00 11.8 C 8.31 g/m*3 11.8 C 19.3 km/h
384 07-06-2017 07:55:00 11.8 C 8.31 g/m*3 11.8 C 19.3 km/h
385 07-06-2017 08:00:00 11.7 C 8.16 g/m*3 11.7 C 11.3 km/h
386 07-06-2017 08:05:00 11.7 C 8.26 g/m*3 11.7 C 17.7 km/h
387 07-06-2017 08:10:00 11.8 C 8.31 g/m*3 11.8 C 20.9 km/h
388 07-06-2017 08:15:00 11.9 C 8.26 g/m*3 11.9 C 14.5 km/h
389 07-06-2017 08:20:00 12.2 C 8.42 g/m*3 12.2 C 20.9 km/h
390 07-06-2017 08:25:00 12.4 C 8.41 g/m*3 12.4 C 20.9 km/h
391 07-06-2017 08:30:00 12.6 C 8.52 g/m*3 12.6 C 29 km/h
392 07-06-2017 08:35:00 12.6 C 8.63 g/m*3 12.6 C 14.5 km/h
393 07-06-2017 08:40:00 12.5 C 8.69 g/m*3 12.5 C 16.1 km/h
394 07-06-2017 08:45:00 12.4 C 8.63 g/m*3 12.4 C 12.9 km/h
395 07-06-2017 08:50:00 12.3 C 8.69 g/m*3 12.3 C 14.5 km/h
396 07-06-2017 08:55:00 12.2 C 8.85 g/m*3 12.2 C 9.7 km/h
397 07-06-2017 09:00:00 12.1 C 8.9 g/m*3 12.1 C 8.1 km/h
398 07-06-2017 09:05:00 11.8 C 8.84 g/m*3 11.8 C 9.7 km/h
399 07-06-2017 09:10:00 11.7 C 8.99 g/m*3 11.7 C 14.5 km/h
400 07-06-2017 09:15:00 11.7 C 9.1 g/m*3 11.7 C 8.1 km/h
Sensor: Nr:Datum:Temp:Abs-Feuchte:Windchill:Wind:
Aussen-T/F 401 07-06-2017 09:20:00 11.7 C 9.2 g/m*3 11.7 C 6.4 km/h
402 07-06-2017 09:25:00 11.7 C 9.31 g/m*3 11.7 C 8.1 km/h
403 07-06-2017 09:30:00 11.8 C 9.37 g/m*3 11.8 C 16.1 km/h
404 07-06-2017 09:35:00 11.8 C 9.26 g/m*3 11.8 C 11.3 km/h
405 07-06-2017 09:40:00 11.8 C 9.16 g/m*3 11.8 C 11.3 km/h
406 07-06-2017 09:45:00 11.8 C 9.16 g/m*3 11.8 C 11.3 km/h
407 07-06-2017 09:50:00 11.9 C 9.21 g/m*3 11.9 C 9.7 km/h
408 07-06-2017 09:55:00 12 C 9.06 g/m*3 12 C 17.7 km/h
409 07-06-2017 10:00:00 12.1 C 9.33 g/m*3 12.1 C 9.7 km/h
410 07-06-2017 10:05:00 12.1 C 9.44 g/m*3 12.1 C 8.1 km/h
411 07-06-2017 10:10:00 12.2 C 9.6 g/m*3 12.2 C 6.4 km/h
412 07-06-2017 10:15:00 12.4 C 9.62 g/m*3 12.4 C 20.9 km/h
413 07-06-2017 10:20:00 12.6 C 9.4 g/m*3 12.6 C 9.7 km/h
414 07-06-2017 10:25:00 12.4 C 9.29 g/m*3 12.4 C 9.7 km/h
415 07-06-2017 10:30:00 12.4 C 9.4 g/m*3 12.4 C 12.9 km/h
416 07-06-2017 10:35:00 12.6 C 9.74 g/m*3 12.6 C 8.1 km/h
417 07-06-2017 10:40:00 12.7 C 9.57 g/m*3 12.7 C 14.5 km/h
418 07-06-2017 10:45:00 12.9 C 9.47 g/m*3 12.9 C 27.4 km/h
419 07-06-2017 10:50:00 13.1 C 9.47 g/m*3 13.1 C 16.1 km/h
420 07-06-2017 10:55:00 13.3 C 9.47 g/m*3 13.3 C 19.3 km/h
421 07-06-2017 11:00:00 13.2 C 9.42 g/m*3 13.2 C 20.9 km/h
422 07-06-2017 11:05:00 12.9 C 9.02 g/m*3 12.9 C 11.3 km/h
423 07-06-2017 11:10:00 12.8 C 9.18 g/m*3 12.8 C 17.7 km/h
424 07-06-2017 11:15:00 12.7 C 9.24 g/m*3 12.7 C 16.1 km/h
425 07-06-2017 11:20:00 12.7 C 9.35 g/m*3 12.7 C 8.1 km/h
Sensor: Nr:Datum:Temp:Abs-Feuchte:Windchill:Wind:
Aussen-T/F 426 07-06-2017 11:25:00 12.8 C 9.52 g/m*3 12.8 C 6.4 km/h
427 07-06-2017 11:30:00 13.1 C 9.59 g/m*3 13.1 C 17.7 km/h
428 07-06-2017 11:35:00 13.4 C 9.53 g/m*3 13.4 C 24.1 km/h
429 07-06-2017 11:40:00 13.6 C 9.42 g/m*3 13.6 C 20.9 km/h
430 07-06-2017 11:45:00 13.8 C 9.65 g/m*3 13.8 C 17.7 km/h
431 07-06-2017 11:50:00 13.8 C 9.77 g/m*3 13.8 C 20.9 km/h
432 07-06-2017 11:55:00 13.8 C 9.53 g/m*3 13.8 C 16.1 km/h
433 07-06-2017 12:00:00 14 C 9.65 g/m*3 14 C 16.1 km/h
434 07-06-2017 12:05:00 14.1 C 9.34 g/m*3 14.1 C 16.1 km/h
435 07-06-2017 12:10:00 14.3 C 9.34 g/m*3 14.3 C 17.7 km/h
436 07-06-2017 12:15:00 14.6 C 9.64 g/m*3 14.6 C 9.7 km/h
437 07-06-2017 12:20:00 14.7 C 9.69 g/m*3 14.7 C 25.7 km/h
438 07-06-2017 12:25:00 14.4 C 10.01 g/m*3 14.4 C 9.7 km/h
439 07-06-2017 12:30:00 14.1 C 9.83 g/m*3 14.1 C 17.7 km/h
440 07-06-2017 12:35:00 14 C 9.77 g/m*3 14 C 11.3 km/h
441 07-06-2017 12:40:00 14.1 C 9.71 g/m*3 14.1 C 16.1 km/h
442 07-06-2017 12:45:00 14.2 C 9.52 g/m*3 14.2 C 14.5 km/h
443 07-06-2017 12:50:00 14.4 C 9.52 g/m*3 14.4 C 14.5 km/h
444 07-06-2017 12:55:00 14.5 C 9.58 g/m*3 14.5 C 20.9 km/h
445 07-06-2017 13:00:00 14.6 C 9.39 g/m*3 14.6 C 20.9 km/h
446 07-06-2017 13:05:00 14.8 C 9.63 g/m*3 14.8 C 19.3 km/h
447 07-06-2017 13:10:00 14.9 C 9.56 g/m*3 14.9 C 16.1 km/h
448 07-06-2017 13:15:00 15.2 C 9.61 g/m*3 15.2 C 17.7 km/h
449 07-06-2017 13:20:00 15.3 C 9.53 g/m*3 15.3 C 16.1 km/h
450 07-06-2017 13:25:00 15.6 C 9.71 g/m*3 15.6 C 17.7 km/h
Sensor: Nr:Datum:Temp:Abs-Feuchte:Windchill:Wind:
Aussen-T/F 451 07-06-2017 13:30:00 15.7 C 9.77 g/m*3 15.7 C 14.5 km/h
452 07-06-2017 13:35:00 15.8 C 9.69 g/m*3 15.8 C 14.5 km/h
453 07-06-2017 13:40:00 15.8 C 9.29 g/m*3 15.8 C 17.7 km/h
454 07-06-2017 13:45:00 15.9 C 9.48 g/m*3 15.9 C 14.5 km/h
455 07-06-2017 13:50:00 16 C 9.4 g/m*3 16 C 12.9 km/h
456 07-06-2017 13:55:00 15.9 C 9.62 g/m*3 15.9 C 12.9 km/h
457 07-06-2017 14:00:00 16.1 C 9.6 g/m*3 16.1 C 16.1 km/h
458 07-06-2017 14:05:00 16 C 9.26 g/m*3 16 C 20.9 km/h
459 07-06-2017 14:10:00 15.8 C 9.29 g/m*3 15.8 C 22.5 km/h
460 07-06-2017 14:15:00 15.6 C 9.18 g/m*3 15.6 C 17.7 km/h
461 07-06-2017 14:20:00 15.4 C 9.2 g/m*3 15.4 C 20.9 km/h
462 07-06-2017 14:25:00 15.4 C 9.72 g/m*3 15.4 C 22.5 km/h
463 07-06-2017 14:30:00 15.6 C 9.71 g/m*3 15.6 C 16.1 km/h
464 07-06-2017 14:35:00 15.9 C 9.48 g/m*3 15.9 C 19.3 km/h
465 07-06-2017 14:40:00 16 C 9.54 g/m*3 16 C 16.1 km/h
466 07-06-2017 14:45:00 16.2 C 9.52 g/m*3 16.2 C 16.1 km/h
467 07-06-2017 14:50:00 16.3 C 9.43 g/m*3 16.3 C 20.9 km/h
468 07-06-2017 14:55:00 16.3 C 9.57 g/m*3 16.3 C 14.5 km/h
469 07-06-2017 15:00:00 16.4 C 9.35 g/m*3 16.4 C 17.7 km/h
470 07-06-2017 15:05:00 16.5 C 9.27 g/m*3 16.5 C 19.3 km/h
471 07-06-2017 15:10:00 16.7 C 9.38 g/m*3 16.7 C 22.5 km/h
472 07-06-2017 15:15:00 16.8 C 9.44 g/m*3 16.8 C 14.5 km/h
473 07-06-2017 15:20:00 16.9 C 9.49 g/m*3 16.9 C 19.3 km/h
474 07-06-2017 15:25:00 17.1 C 9.75 g/m*3 17.1 C 14.5 km/h
475 07-06-2017 15:30:00 17.3 C 9.43 g/m*3 17.3 C 14.5 km/h
Sensor: Nr:Datum:Temp:Abs-Feuchte:Windchill:Wind:
Aussen-T/F 476 07-06-2017 15:35:00 17.3 C 9.28 g/m*3 17.3 C 14.5 km/h
477 07-06-2017 15:40:00 17.2 C 9.67 g/m*3 17.2 C 11.3 km/h
478 07-06-2017 15:45:00 16.8 C 9.15 g/m*3 16.8 C 11.3 km/h
479 07-06-2017 15:50:00 16.4 C 9.35 g/m*3 16.4 C 20.9 km/h
480 07-06-2017 15:55:00 16.2 C 9.1 g/m*3 16.2 C 17.7 km/h
481 07-06-2017 16:00:00 16.6 C 9.18 g/m*3 16.6 C 14.5 km/h
482 07-06-2017 16:05:00 17.3 C 9.43 g/m*3 17.3 C 17.7 km/h
483 07-06-2017 16:10:00 18 C 9.68 g/m*3 18 C 12.9 km/h
484 07-06-2017 16:15:00 18.6 C 10.03 g/m*3 18.6 C 12.9 km/h
485 07-06-2017 16:20:00 19.1 C 9.67 g/m*3 19.1 C 17.7 km/h
486 07-06-2017 16:25:00 19.2 C 9.73 g/m*3 19.2 C 16.1 km/h
487 07-06-2017 16:30:00 18.8 C 9.34 g/m*3 18.8 C 14.5 km/h
488 07-06-2017 16:35:00 18.3 C 9.85 g/m*3 18.3 C 11.3 km/h
489 07-06-2017 16:40:00 18.1 C 9.27 g/m*3 18.1 C 9.7 km/h
490 07-06-2017 16:45:00 17.8 C 9.56 g/m*3 17.8 C 3.2 km/h
491 07-06-2017 16:50:00 17.5 C 9.69 g/m*3 17.5 C 11.3 km/h
492 07-06-2017 16:55:00 17.2 C 9.08 g/m*3 17.2 C 17.7 km/h
493 07-06-2017 17:00:00 17.2 C 9.23 g/m*3 17.2 C 27.4 km/h
494 07-06-2017 17:05:00 17.2 C 9.23 g/m*3 17.2 C 19.3 km/h
495 07-06-2017 17:10:00 17.1 C 9.17 g/m*3 17.1 C 20.9 km/h
496 07-06-2017 17:15:00 16.8 C 9.15 g/m*3 16.8 C 17.7 km/h
497 07-06-2017 17:20:00 16.6 C 9.18 g/m*3 16.6 C 14.5 km/h
498 07-06-2017 17:25:00 16.3 C 9.3 g/m*3 16.3 C 16.1 km/h
499 07-06-2017 17:30:00 16.6 C 9.89 g/m*3 16.6 C 8.1 km/h
500 07-06-2017 17:35:00 16.8 C 9.72 g/m*3 16.8 C 20.9 km/h
Sensor: Nr:Datum:Temp:Abs-Feuchte:Windchill:Wind:
Aussen-T/F 501 07-06-2017 17:40:00 17.1 C 9.75 g/m*3 17.1 C 16.1 km/h
502 07-06-2017 17:45:00 17.5 C 10.14 g/m*3 17.5 C 9.7 km/h
503 07-06-2017 17:50:00 18.2 C 10.41 g/m*3 18.2 C 11.3 km/h
504 07-06-2017 17:55:00 18.8 C 10.63 g/m*3 18.8 C 8.1 km/h
505 07-06-2017 18:00:00 19.3 C 10.28 g/m*3 19.3 C 16.1 km/h
506 07-06-2017 18:05:00 19.6 C 10.13 g/m*3 19.6 C 20.9 km/h
507 07-06-2017 18:10:00 19.6 C 9.96 g/m*3 19.6 C 25.7 km/h
508 07-06-2017 18:15:00 19.1 C 9.84 g/m*3 19.1 C 19.3 km/h
509 07-06-2017 18:20:00 18.8 C 10.15 g/m*3 18.8 C 12.9 km/h
510 07-06-2017 18:25:00 19.1 C 10.49 g/m*3 19.1 C 11.3 km/h
511 07-06-2017 18:30:00 19.6 C 10.13 g/m*3 19.6 C 14.5 km/h
512 07-06-2017 18:35:00 19.6 C 10.13 g/m*3 19.6 C 11.3 km/h
513 07-06-2017 18:40:00 19.6 C 10.47 g/m*3 19.6 C 6.4 km/h
514 07-06-2017 18:45:00 19.3 C 10.28 g/m*3 19.3 C 6.4 km/h
515 07-06-2017 18:50:00 19.3 C 10.12 g/m*3 19.3 C 9.7 km/h
516 07-06-2017 18:55:00 19.6 C 10.64 g/m*3 19.6 C 9.7 km/h
517 07-06-2017 19:00:00 19.9 C 10.31 g/m*3 19.9 C 12.9 km/h
518 07-06-2017 19:05:00 20 C 10.2 g/m*3 20 C 6.4 km/h
519 07-06-2017 19:10:00 19.9 C 9.45 g/m*3 19.9 C 19.3 km/h
520 07-06-2017 19:15:00 19.7 C 9.34 g/m*3 19.7 C 19.3 km/h
521 07-06-2017 19:20:00 19.4 C 9.18 g/m*3 19.4 C 16.1 km/h
522 07-06-2017 19:25:00 19.2 C 9.23 g/m*3 19.2 C 19.3 km/h
523 07-06-2017 19:30:00 19 C 9.29 g/m*3 19 C 19.3 km/h
524 07-06-2017 19:35:00 18.8 C 9.34 g/m*3 18.8 C 16.1 km/h
525 07-06-2017 19:40:00 18.8 C 9.5 g/m*3 18.8 C 19.3 km/h
Sensor: Nr:Datum:Temp:Abs-Feuchte:Windchill:Wind:
Aussen-T/F 526 07-06-2017 19:45:00 18.7 C 9.45 g/m*3 18.7 C 11.3 km/h
527 07-06-2017 19:50:00 18.3 C 9.38 g/m*3 18.3 C 11.3 km/h
528 07-06-2017 19:55:00 17.9 C 9.47 g/m*3 17.9 C 9.7 km/h
529 07-06-2017 20:00:00 17.8 C 9.56 g/m*3 17.8 C 12.9 km/h
530 07-06-2017 20:05:00 17.9 C 9.31 g/m*3 17.9 C 9.7 km/h
531 07-06-2017 20:10:00 18.2 C 9.33 g/m*3 18.2 C 14.5 km/h
532 07-06-2017 20:15:00 18.2 C 9.17 g/m*3 18.2 C 14.5 km/h
533 07-06-2017 20:20:00 18.2 C 9.48 g/m*3 18.2 C 8.1 km/h
534 07-06-2017 20:25:00 18.3 C 9.54 g/m*3 18.3 C 11.3 km/h
535 07-06-2017 20:30:00 18.4 C 9.75 g/m*3 18.4 C 4.8 km/h
536 07-06-2017 20:35:00 18.5 C 9.49 g/m*3 18.5 C 12.9 km/h
537 07-06-2017 20:40:00 18.4 C 9.44 g/m*3 18.4 C 6.4 km/h
538 07-06-2017 20:45:00 18.2 C 9.33 g/m*3 18.2 C 11.3 km/h
539 07-06-2017 20:50:00 18.1 C 9.58 g/m*3 18.1 C 6.4 km/h
540 07-06-2017 20:55:00 17.7 C 9.51 g/m*3 17.7 C 9.7 km/h
541 07-06-2017 21:00:00 17.4 C 9.34 g/m*3 17.4 C 6.4 km/h
542 07-06-2017 21:05:00 17.2 C 9.23 g/m*3 17.2 C 11.3 km/h
543 07-06-2017 21:10:00 17 C 9.41 g/m*3 17 C 9.7 km/h
544 07-06-2017 21:15:00 16.8 C 9.15 g/m*3 16.8 C 6.4 km/h
545 07-06-2017 21:20:00 16.6 C 9.18 g/m*3 16.6 C 8.1 km/h
546 07-06-2017 21:25:00 16.4 C 8.93 g/m*3 16.4 C 12.9 km/h
547 07-06-2017 21:30:00 16.2 C 9.1 g/m*3 16.2 C 3.2 km/h
548 07-06-2017 21:35:00 16 C 9.26 g/m*3 16 C 0 km/h
549 07-06-2017 21:40:00 15.7 C 8.96 g/m*3 15.7 C 8.1 km/h
550 07-06-2017 21:45:00 15.6 C 9.31 g/m*3 15.6 C 4.8 km/h
Sensor: Nr:Datum:Temp:Abs-Feuchte:Windchill:Wind:
Aussen-T/F 551 07-06-2017 21:50:00 15.3 C 9.01 g/m*3 15.3 C 1.6 km/h
552 07-06-2017 21:55:00 15.2 C 9.09 g/m*3 15.2 C 4.8 km/h
553 07-06-2017 22:00:00 15 C 9.23 g/m*3 15 C 1.6 km/h
554 07-06-2017 22:05:00 14.9 C 9.18 g/m*3 14.9 C 3.2 km/h
555 07-06-2017 22:10:00 14.7 C 9.07 g/m*3 14.7 C 1.6 km/h
556 07-06-2017 22:15:00 14.6 C 9.01 g/m*3 14.6 C 3.2 km/h
557 07-06-2017 22:20:00 14.4 C 9.02 g/m*3 14.4 C 1.6 km/h
558 07-06-2017 22:25:00 14.3 C 8.97 g/m*3 14.3 C 3.2 km/h
559 07-06-2017 22:30:00 14.2 C 8.91 g/m*3 14.2 C 3.2 km/h
560 07-06-2017 22:35:00 14.2 C 8.91 g/m*3 14.2 C 1.6 km/h
561 07-06-2017 22:40:00 14.1 C 8.98 g/m*3 14.1 C 0 km/h
562 07-06-2017 22:45:00 13.9 C 8.87 g/m*3 13.9 C 0 km/h
563 07-06-2017 22:50:00 13.8 C 8.82 g/m*3 13.8 C 1.6 km/h
564 07-06-2017 22:55:00 13.7 C 8.88 g/m*3 13.7 C 0 km/h
565 07-06-2017 23:00:00 13.6 C 8.94 g/m*3 13.6 C 0 km/h
566 07-06-2017 23:05:00 13.4 C 8.95 g/m*3 13.4 C 0 km/h
567 07-06-2017 23:10:00 13.3 C 9.01 g/m*3 13.3 C 0 km/h
568 07-06-2017 23:15:00 13.1 C 8.9 g/m*3 13.1 C 0 km/h
569 07-06-2017 23:20:00 12.9 C 8.9 g/m*3 12.9 C 0 km/h
570 07-06-2017 23:25:00 12.7 C 8.79 g/m*3 12.7 C 0 km/h
571 07-06-2017 23:30:00 12.5 C 8.69 g/m*3 12.5 C 0 km/h
572 07-06-2017 23:35:00 12.4 C 8.74 g/m*3 12.4 C 0 km/h
573 07-06-2017 23:40:00 12.3 C 8.69 g/m*3 12.3 C 0 km/h
574 07-06-2017 23:45:00 12.3 C 8.8 g/m*3 12.3 C 0 km/h
575 07-06-2017 23:50:00 12.2 C 8.74 g/m*3 12.2 C 0 km/h
Sensor: Nr:Datum:Temp:Abs-Feuchte:Windchill:Wind:
Aussen-T/F 576 07-06-2017 23:55:00 12.1 C 8.79 g/m*3 12.1 C 0 km/h
577 08-06-2017 00:00:00 12 C 8.74 g/m*3 12 C 0 km/h
578 08-06-2017 00:05:00 11.9 C 8.58 g/m*3 11.9 C 0 km/h
579 08-06-2017 00:10:00 11.8 C 8.63 g/m*3 11.8 C 0 km/h
580 08-06-2017 00:15:00 11.7 C 8.58 g/m*3 11.7 C 0 km/h
581 08-06-2017 00:20:00 11.7 C 8.68 g/m*3 11.7 C 0 km/h
582 08-06-2017 00:25:00 11.6 C 8.63 g/m*3 11.6 C 0 km/h
583 08-06-2017 00:30:00 11.5 C 8.57 g/m*3 11.5 C 0 km/h
584 08-06-2017 00:35:00 11.4 C 8.52 g/m*3 11.4 C 0 km/h
585 08-06-2017 00:40:00 11.4 C 8.62 g/m*3 11.4 C 0 km/h
586 08-06-2017 00:45:00 11.3 C 8.57 g/m*3 11.3 C 0 km/h
587 08-06-2017 00:50:00 11.3 C 8.57 g/m*3 11.3 C 0 km/h
588 08-06-2017 00:55:00 11.3 C 8.57 g/m*3 11.3 C 1.6 km/h
589 08-06-2017 01:00:00 11.3 C 8.57 g/m*3 11.3 C 1.6 km/h
590 08-06-2017 01:05:00 11.3 C 8.57 g/m*3 11.3 C 0 km/h
591 08-06-2017 01:10:00 11.3 C 8.57 g/m*3 11.3 C 0 km/h
592 08-06-2017 01:15:00 11.2 C 8.51 g/m*3 11.2 C 0 km/h
593 08-06-2017 01:20:00 11.2 C 8.51 g/m*3 11.2 C 0 km/h
594 08-06-2017 01:25:00 11.3 C 8.57 g/m*3 11.3 C 3.2 km/h
595 08-06-2017 01:30:00 11.3 C 8.47 g/m*3 11.3 C 3.2 km/h
596 08-06-2017 01:35:00 11.4 C 8.52 g/m*3 11.4 C 1.6 km/h
597 08-06-2017 01:40:00 11.4 C 8.62 g/m*3 11.4 C 0 km/h
598 08-06-2017 01:45:00 11.5 C 8.57 g/m*3 11.5 C 1.6 km/h
599 08-06-2017 01:50:00 11.5 C 8.57 g/m*3 11.5 C 0 km/h
600 08-06-2017 01:55:00 11.5 C 8.57 g/m*3 11.5 C 0 km/h
Sensor: Nr:Datum:Temp:Abs-Feuchte:Windchill:Wind:
Aussen-T/F 601 08-06-2017 02:00:00 11.5 C 8.57 g/m*3 11.5 C 0 km/h
602 08-06-2017 02:05:00 11.5 C 8.57 g/m*3 11.5 C 0 km/h
603 08-06-2017 02:10:00 11.5 C 8.57 g/m*3 11.5 C 0 km/h
604 08-06-2017 02:15:00 11.5 C 8.57 g/m*3 11.5 C 0 km/h
605 08-06-2017 02:20:00 11.5 C 8.57 g/m*3 11.5 C 0 km/h
606 08-06-2017 02:25:00 11.5 C 8.57 g/m*3 11.5 C 3.2 km/h
607 08-06-2017 02:30:00 11.5 C 8.57 g/m*3 11.5 C 0 km/h
608 08-06-2017 02:35:00 11.4 C 8.52 g/m*3 11.4 C 0 km/h
609 08-06-2017 02:40:00 11.4 C 8.52 g/m*3 11.4 C 0 km/h
610 08-06-2017 02:45:00 11.3 C 8.57 g/m*3 11.3 C 0 km/h
611 08-06-2017 02:50:00 11.3 C 8.57 g/m*3 11.3 C 0 km/h
612 08-06-2017 02:55:00 11.3 C 8.57 g/m*3 11.3 C 0 km/h
613 08-06-2017 03:00:00 11.2 C 8.62 g/m*3 11.2 C 0 km/h
614 08-06-2017 03:05:00 11.2 C 8.62 g/m*3 11.2 C 0 km/h
615 08-06-2017 03:10:00 11.1 C 8.56 g/m*3 11.1 C 0 km/h
616 08-06-2017 03:15:00 11.1 C 8.56 g/m*3 11.1 C 1.6 km/h
617 08-06-2017 03:20:00 11.1 C 8.56 g/m*3 11.1 C 0 km/h
618 08-06-2017 03:25:00 11.1 C 8.56 g/m*3 11.1 C 0 km/h
619 08-06-2017 03:30:00 11.1 C 8.56 g/m*3 11.1 C 0 km/h
620 08-06-2017 03:35:00 11.1 C 8.56 g/m*3 11.1 C 0 km/h
621 08-06-2017 03:40:00 11.1 C 8.56 g/m*3 11.1 C 0 km/h
622 08-06-2017 03:45:00 11.1 C 8.56 g/m*3 11.1 C 0 km/h
623 08-06-2017 03:50:00 11.1 C 8.56 g/m*3 11.1 C 0 km/h
624 08-06-2017 03:55:00 11.1 C 8.56 g/m*3 11.1 C 0 km/h
625 08-06-2017 04:00:00 11.1 C 8.56 g/m*3 11.1 C 0 km/h
Sensor: Nr:Datum:Temp:Abs-Feuchte:Windchill:Wind:
Aussen-T/F 626 08-06-2017 04:05:00 11.2 C 8.62 g/m*3 11.2 C 0 km/h
627 08-06-2017 04:10:00 11.2 C 8.62 g/m*3 11.2 C 0 km/h
628 08-06-2017 04:15:00 11.2 C 8.72 g/m*3 11.2 C 0 km/h
629 08-06-2017 04:20:00 11.3 C 8.77 g/m*3 11.3 C 0 km/h
630 08-06-2017 04:25:00 11.3 C 8.77 g/m*3 11.3 C 0 km/h
631 08-06-2017 04:30:00 11.3 C 8.77 g/m*3 11.3 C 0 km/h
632 08-06-2017 04:35:00 11.3 C 8.77 g/m*3 11.3 C 0 km/h
633 08-06-2017 04:40:00 11.3 C 8.77 g/m*3 11.3 C 0 km/h
634 08-06-2017 04:45:00 11.3 C 8.77 g/m*3 11.3 C 0 km/h
635 08-06-2017 04:50:00 11.3 C 8.77 g/m*3 11.3 C 0 km/h
636 08-06-2017 04:55:00 11.3 C 8.77 g/m*3 11.3 C 0 km/h
637 08-06-2017 05:00:00 11.3 C 8.77 g/m*3 11.3 C 0 km/h
638 08-06-2017 05:05:00 11.4 C 8.93 g/m*3 11.4 C 0 km/h
639 08-06-2017 05:10:00 11.4 C 8.93 g/m*3 11.4 C 0 km/h
640 08-06-2017 05:15:00 11.4 C 8.83 g/m*3 11.4 C 0 km/h
641 08-06-2017 05:20:00 11.4 C 8.83 g/m*3 11.4 C 0 km/h
642 08-06-2017 05:25:00 11.4 C 8.93 g/m*3 11.4 C 0 km/h
643 08-06-2017 05:30:00 11.4 C 8.93 g/m*3 11.4 C 0 km/h
644 08-06-2017 05:35:00 11.4 C 8.93 g/m*3 11.4 C 0 km/h
645 08-06-2017 05:40:00 11.5 C 8.99 g/m*3 11.5 C 0 km/h
646 08-06-2017 05:45:00 11.6 C 9.04 g/m*3 11.6 C 0 km/h
647 08-06-2017 05:50:00 11.6 C 9.04 g/m*3 11.6 C 0 km/h
648 08-06-2017 05:55:00 11.6 C 9.04 g/m*3 11.6 C 0 km/h
649 08-06-2017 06:00:00 11.7 C 9.1 g/m*3 11.7 C 0 km/h
650 08-06-2017 06:05:00 11.7 C 9.1 g/m*3 11.7 C 0 km/h
Sensor: Nr:Datum:Temp:Abs-Feuchte:Windchill:Wind:
Aussen-T/F 651 08-06-2017 06:10:00 11.7 C 9.1 g/m*3 11.7 C 0 km/h
652 08-06-2017 06:15:00 11.7 C 9.1 g/m*3 11.7 C 0 km/h
653 08-06-2017 06:20:00 11.8 C 9.16 g/m*3 11.8 C 0 km/h
654 08-06-2017 06:25:00 11.8 C 9.16 g/m*3 11.8 C 0 km/h
655 08-06-2017 06:30:00 11.9 C 9.21 g/m*3 11.9 C 0 km/h
656 08-06-2017 06:35:00 11.9 C 9.21 g/m*3 11.9 C 0 km/h
657 08-06-2017 06:40:00 12 C 9.38 g/m*3 12 C 0 km/h
658 08-06-2017 06:45:00 12 C 9.38 g/m*3 12 C 0 km/h
659 08-06-2017 06:50:00 12.1 C 9.44 g/m*3 12.1 C 0 km/h
660 08-06-2017 06:55:00 12.1 C 9.54 g/m*3 12.1 C 0 km/h
661 08-06-2017 07:00:00 12.2 C 9.6 g/m*3 12.2 C 0 km/h
662 08-06-2017 07:05:00 12.3 C 9.77 g/m*3 12.3 C 0 km/h
663 08-06-2017 07:10:00 12.4 C 9.83 g/m*3 12.4 C 0 km/h
664 08-06-2017 07:15:00 12.6 C 9.96 g/m*3 12.6 C 0 km/h
665 08-06-2017 07:20:00 12.6 C 9.85 g/m*3 12.6 C 0 km/h
666 08-06-2017 07:25:00 12.6 C 9.85 g/m*3 12.6 C 0 km/h
667 08-06-2017 07:30:00 12.7 C 10.02 g/m*3 12.7 C 0 km/h
668 08-06-2017 07:35:00 12.8 C 10.08 g/m*3 12.8 C 0 km/h
669 08-06-2017 07:40:00 12.9 C 10.03 g/m*3 12.9 C 0 km/h
670 08-06-2017 07:45:00 13.1 C 10.04 g/m*3 13.1 C 0 km/h
671 08-06-2017 07:50:00 13.2 C 10.1 g/m*3 13.2 C 0 km/h
672 08-06-2017 07:55:00 13.3 C 9.94 g/m*3 13.3 C 1.6 km/h
673 08-06-2017 08:00:00 13.4 C 10 g/m*3 13.4 C 1.6 km/h
674 08-06-2017 08:05:00 13.6 C 10.12 g/m*3 13.6 C 3.2 km/h
675 08-06-2017 08:10:00 13.7 C 9.95 g/m*3 13.7 C 1.6 km/h
Sensor: Nr:Datum:Temp:Abs-Feuchte:Windchill:Wind:
Aussen-T/F 676 08-06-2017 08:15:00 13.9 C 10.07 g/m*3 13.9 C 3.2 km/h
677 08-06-2017 08:20:00 14.2 C 9.89 g/m*3 14.2 C 3.2 km/h
678 08-06-2017 08:25:00 14.4 C 10.14 g/m*3 14.4 C 0 km/h
679 08-06-2017 08:30:00 14.6 C 10.14 g/m*3 14.6 C 0 km/h
680 08-06-2017 08:35:00 14.8 C 10.39 g/m*3 14.8 C 1.6 km/h
681 08-06-2017 08:40:00 14.9 C 10.2 g/m*3 14.9 C 1.6 km/h
682 08-06-2017 08:45:00 15.2 C 10.25 g/m*3 15.2 C 3.2 km/h
683 08-06-2017 08:50:00 15.3 C 10.19 g/m*3 15.3 C 3.2 km/h
684 08-06-2017 08:55:00 15.5 C 10.57 g/m*3 15.5 C 1.6 km/h
685 08-06-2017 09:00:00 15.7 C 10.44 g/m*3 15.7 C 1.6 km/h
686 08-06-2017 09:05:00 15.8 C 10.63 g/m*3 15.8 C 0 km/h
687 08-06-2017 09:10:00 15.9 C 10.43 g/m*3 15.9 C 0 km/h
688 08-06-2017 09:15:00 15.9 C 10.16 g/m*3 15.9 C 3.2 km/h
689 08-06-2017 09:20:00 16.1 C 10.28 g/m*3 16.1 C 0 km/h
690 08-06-2017 09:25:00 16.3 C 11.24 g/m*3 16.3 C 0 km/h
691 08-06-2017 09:30:00 16.3 C 10.68 g/m*3 16.3 C 0 km/h
692 08-06-2017 09:35:00 16.3 C 10.13 g/m*3 16.3 C 1.6 km/h
693 08-06-2017 09:40:00 16.4 C 10.33 g/m*3 16.4 C 0 km/h
694 08-06-2017 09:45:00 16.4 C 10.47 g/m*3 16.4 C 0 km/h
695 08-06-2017 09:50:00 16.6 C 10.88 g/m*3 16.6 C 0 km/h
696 08-06-2017 09:55:00 16.6 C 10.31 g/m*3 16.6 C 1.6 km/h
697 08-06-2017 10:00:00 16.7 C 10.23 g/m*3 16.7 C 1.6 km/h
698 08-06-2017 10:05:00 16.8 C 10.72 g/m*3 16.8 C 0 km/h
699 08-06-2017 10:10:00 16.9 C 10.21 g/m*3 16.9 C 0 km/h
700 08-06-2017 10:15:00 17.2 C 10.54 g/m*3 17.2 C 1.6 km/h
Sensor: Nr:Datum:Temp:Abs-Feuchte:Windchill:Wind:
Aussen-T/F 701 08-06-2017 10:20:00 17.3 C 10.46 g/m*3 17.3 C 1.6 km/h
702 08-06-2017 10:25:00 17.5 C 10.29 g/m*3 17.5 C 3.2 km/h
703 08-06-2017 10:30:00 17.7 C 10.56 g/m*3 17.7 C 3.2 km/h
704 08-06-2017 10:35:00 17.9 C 10.84 g/m*3 17.9 C 3.2 km/h
705 08-06-2017 10:40:00 18 C 10.75 g/m*3 18 C 9.7 km/h
706 08-06-2017 10:45:00 18.2 C 11.04 g/m*3 18.2 C 4.8 km/h
707 08-06-2017 10:50:00 18.3 C 10.63 g/m*3 18.3 C 6.4 km/h
708 08-06-2017 10:55:00 18.4 C 10.7 g/m*3 18.4 C 4.8 km/h
709 08-06-2017 11:00:00 18.6 C 10.5 g/m*3 18.6 C 6.4 km/h
710 08-06-2017 11:05:00 18.8 C 10.63 g/m*3 18.8 C 6.4 km/h
711 08-06-2017 11:10:00 18.9 C 10.53 g/m*3 18.9 C 11.3 km/h
712 08-06-2017 11:15:00 19.1 C 10.49 g/m*3 19.1 C 11.3 km/h
713 08-06-2017 11:20:00 19.3 C 9.95 g/m*3 19.3 C 19.3 km/h
714 08-06-2017 11:25:00 19.5 C 10.24 g/m*3 19.5 C 17.7 km/h
715 08-06-2017 11:30:00 19.7 C 10.36 g/m*3 19.7 C 9.7 km/h
716 08-06-2017 11:35:00 19.8 C 10.08 g/m*3 19.8 C 17.7 km/h
717 08-06-2017 11:40:00 19.9 C 9.79 g/m*3 19.9 C 12.9 km/h
718 08-06-2017 11:45:00 19.9 C 10.31 g/m*3 19.9 C 11.3 km/h
719 08-06-2017 11:50:00 20 C 10.2 g/m*3 20 C 6.4 km/h
720 08-06-2017 11:55:00 20.1 C 10.08 g/m*3 20.1 C 14.5 km/h
721 08-06-2017 12:00:00 20.3 C 10.2 g/m*3 20.3 C 16.1 km/h
722 08-06-2017 12:05:00 20.3 C 10.2 g/m*3 20.3 C 12.9 km/h
723 08-06-2017 12:10:00 20.4 C 10.26 g/m*3 20.4 C 12.9 km/h
724 08-06-2017 12:15:00 20.6 C 10.2 g/m*3 20.6 C 16.1 km/h
725 08-06-2017 12:20:00 20.7 C 10.44 g/m*3 20.7 C 12.9 km/h
Sensor: Nr:Datum:Temp:Abs-Feuchte:Windchill:Wind:
Aussen-T/F 726 08-06-2017 12:25:00 20.8 C 10.14 g/m*3 20.8 C 16.1 km/h
727 08-06-2017 12:30:00 20.8 C 10.14 g/m*3 20.8 C 14.5 km/h
728 08-06-2017 12:35:00 20.9 C 10.2 g/m*3 20.9 C 17.7 km/h
729 08-06-2017 12:40:00 20.9 C 10.38 g/m*3 20.9 C 12.9 km/h
730 08-06-2017 12:45:00 20.9 C 10.2 g/m*3 20.9 C 17.7 km/h
731 08-06-2017 12:50:00 20.8 C 9.96 g/m*3 20.8 C 16.1 km/h
732 08-06-2017 12:55:00 20.6 C 10.02 g/m*3 20.6 C 16.1 km/h
733 08-06-2017 13:00:00 20.6 C 10.2 g/m*3 20.6 C 6.4 km/h
734 08-06-2017 13:05:00 20.6 C 10.38 g/m*3 20.6 C 12.9 km/h
735 08-06-2017 13:10:00 20.8 C 10.14 g/m*3 20.8 C 17.7 km/h
736 08-06-2017 13:15:00 20.9 C 10.02 g/m*3 20.9 C 14.5 km/h
737 08-06-2017 13:20:00 21.1 C 10.32 g/m*3 21.1 C 17.7 km/h
738 08-06-2017 13:25:00 21.3 C 10.25 g/m*3 21.3 C 14.5 km/h
739 08-06-2017 13:30:00 21.4 C 10.31 g/m*3 21.4 C 12.9 km/h
740 08-06-2017 13:35:00 21.6 C 10.62 g/m*3 21.6 C 12.9 km/h
741 08-06-2017 13:40:00 21.7 C 10.3 g/m*3 21.7 C 20.9 km/h
742 08-06-2017 13:45:00 21.7 C 9.73 g/m*3 21.7 C 20.9 km/h
743 08-06-2017 13:50:00 21.7 C 10.11 g/m*3 21.7 C 4.8 km/h
744 08-06-2017 13:55:00 21.7 C 10.11 g/m*3 21.7 C 6.4 km/h
745 08-06-2017 14:00:00 21.8 C 10.94 g/m*3 21.8 C 8.1 km/h
746 08-06-2017 14:05:00 22 C 10.87 g/m*3 22 C 11.3 km/h
747 08-06-2017 14:10:00 22.2 C 11.19 g/m*3 22.2 C 8.1 km/h
748 08-06-2017 14:15:00 22.3 C 10.47 g/m*3 22.3 C 11.3 km/h
749 08-06-2017 14:20:00 22.4 C 10.92 g/m*3 22.4 C 9.7 km/h
750 08-06-2017 14:25:00 22.6 C 10.45 g/m*3 22.6 C 16.1 km/h
Sensor: Nr:Datum:Temp:Abs-Feuchte:Windchill:Wind:
Aussen-T/F 751 08-06-2017 14:30:00 22.7 C 10.1 g/m*3 22.7 C 16.1 km/h
752 08-06-2017 14:35:00 22.8 C 9.96 g/m*3 22.8 C 11.3 km/h
753 08-06-2017 14:40:00 23.1 C 9.72 g/m*3 23.1 C 17.7 km/h
754 08-06-2017 14:45:00 23.1 C 9.51 g/m*3 23.1 C 16.1 km/h
755 08-06-2017 14:50:00 23 C 9.45 g/m*3 23 C 17.7 km/h
756 08-06-2017 14:55:00 23.2 C 9.77 g/m*3 23.2 C 19.3 km/h
757 08-06-2017 15:00:00 23.4 C 9.88 g/m*3 23.4 C 17.7 km/h
758 08-06-2017 15:05:00 23.6 C 9.57 g/m*3 23.6 C 8.1 km/h
759 08-06-2017 15:10:00 23.7 C 11.12 g/m*3 23.7 C 6.4 km/h
760 08-06-2017 15:15:00 24 C 10.44 g/m*3 24 C 11.3 km/h
761 08-06-2017 15:20:00 24.3 C 11.29 g/m*3 24.3 C 12.9 km/h
762 08-06-2017 15:25:00 24.6 C 10.35 g/m*3 24.6 C 9.7 km/h
763 08-06-2017 15:30:00 24.9 C 10.99 g/m*3 24.9 C 12.9 km/h
764 08-06-2017 15:35:00 25.3 C 10.53 g/m*3 25.3 C 9.7 km/h
765 08-06-2017 15:40:00 25.7 C 11.49 g/m*3 25.7 C 3.2 km/h
766 08-06-2017 15:45:00 25.9 C 10.41 g/m*3 25.9 C 6.4 km/h
767 08-06-2017 15:50:00 25.8 C 11.32 g/m*3 25.8 C 8.1 km/h
768 08-06-2017 15:55:00 25.9 C 10.89 g/m*3 25.9 C 16.1 km/h
769 08-06-2017 16:00:00 25.8 C 10.83 g/m*3 25.8 C 14.5 km/h
770 08-06-2017 16:05:00 26 C 11.69 g/m*3 26 C 8.1 km/h
771 08-06-2017 16:10:00 26.1 C 10.77 g/m*3 26.1 C 17.7 km/h
772 08-06-2017 16:15:00 25.9 C 10.41 g/m*3 25.9 C 12.9 km/h
773 08-06-2017 16:20:00 25.9 C 11.38 g/m*3 25.9 C 8.1 km/h
774 08-06-2017 16:25:00 26.2 C 11.32 g/m*3 26.2 C 9.7 km/h
775 08-06-2017 16:30:00 26.5 C 10.76 g/m*3 26.5 C 11.3 km/h
Sensor: Nr:Datum:Temp:Abs-Feuchte:Windchill:Wind:
Aussen-T/F 776 08-06-2017 16:35:00 26.8 C 10.69 g/m*3 26.8 C 11.3 km/h
777 08-06-2017 16:40:00 26.8 C 10.94 g/m*3 26.8 C 11.3 km/h
778 08-06-2017 16:45:00 26.9 C 10.75 g/m*3 26.9 C 8.1 km/h
779 08-06-2017 16:50:00 26.8 C 10.94 g/m*3 26.8 C 8.1 km/h
780 08-06-2017 16:55:00 26.7 C 11.14 g/m*3 26.7 C 11.3 km/h
781 08-06-2017 17:00:00 26.7 C 11.14 g/m*3 26.7 C 6.4 km/h
782 08-06-2017 17:05:00 26.8 C 10.94 g/m*3 26.8 C 8.1 km/h
783 08-06-2017 17:10:00 26.9 C 12.03 g/m*3 26.9 C 6.4 km/h
784 08-06-2017 17:15:00 27.1 C 11.9 g/m*3 27.1 C 9.7 km/h
785 08-06-2017 17:20:00 27.3 C 10.99 g/m*3 27.3 C 14.5 km/h
786 08-06-2017 17:25:00 27 C 11.07 g/m*3 27 C 12.9 km/h
787 08-06-2017 17:30:00 26.9 C 11.77 g/m*3 26.9 C 9.7 km/h
788 08-06-2017 17:35:00 27.2 C 11.45 g/m*3 27.2 C 8.1 km/h
789 08-06-2017 17:40:00 27.3 C 11.51 g/m*3 27.3 C 8.1 km/h
790 08-06-2017 17:45:00 27.5 C 11.38 g/m*3 27.5 C 9.7 km/h
791 08-06-2017 17:50:00 27.5 C 11.38 g/m*3 27.5 C 8.1 km/h
792 08-06-2017 17:55:00 27.4 C 11.58 g/m*3 27.4 C 6.4 km/h
793 08-06-2017 18:00:00 27.4 C 11.31 g/m*3 27.4 C 9.7 km/h
794 08-06-2017 18:05:00 27.4 C 11.58 g/m*3 27.4 C 8.1 km/h
795 08-06-2017 18:10:00 27.3 C 10.99 g/m*3 27.3 C 6.4 km/h
796 08-06-2017 18:15:00 26.8 C 11.45 g/m*3 26.8 C 6.4 km/h
797 08-06-2017 18:20:00 26.3 C 11.14 g/m*3 26.3 C 6.4 km/h
798 08-06-2017 18:25:00 25.9 C 10.89 g/m*3 25.9 C 6.4 km/h
799 08-06-2017 18:30:00 25.8 C 11.8 g/m*3 25.8 C 9.7 km/h
800 08-06-2017 18:35:00 25.8 C 11.07 g/m*3 25.8 C 6.4 km/h
Sensor: Nr:Datum:Temp:Abs-Feuchte:Windchill:Wind:
Aussen-T/F 801 08-06-2017 18:40:00 26 C 12.66 g/m*3 26 C 8.1 km/h
802 08-06-2017 18:45:00 25.8 C 12.04 g/m*3 25.8 C 3.2 km/h
803 08-06-2017 18:50:00 25.5 C 12.55 g/m*3 25.5 C 3.2 km/h
804 08-06-2017 18:55:00 25.2 C 12.8 g/m*3 25.2 C 3.2 km/h
805 08-06-2017 19:00:00 25.2 C 12.34 g/m*3 25.2 C 1.6 km/h
806 08-06-2017 19:05:00 25.4 C 12.95 g/m*3 25.4 C 3.2 km/h
807 08-06-2017 19:10:00 25.8 C 12.04 g/m*3 25.8 C 4.8 km/h
808 08-06-2017 19:15:00 26.1 C 11.26 g/m*3 26.1 C 3.2 km/h
809 08-06-2017 19:20:00 26.2 C 11.32 g/m*3 26.2 C 11.3 km/h
810 08-06-2017 19:25:00 26.2 C 11.32 g/m*3 26.2 C 11.3 km/h
811 08-06-2017 19:30:00 26.1 C 11.75 g/m*3 26.1 C 3.2 km/h
812 08-06-2017 19:35:00 25.9 C 11.14 g/m*3 25.9 C 6.4 km/h
813 08-06-2017 19:40:00 25.7 C 11.25 g/m*3 25.7 C 3.2 km/h
814 08-06-2017 19:45:00 25.6 C 12.86 g/m*3 25.6 C 1.6 km/h
815 08-06-2017 19:50:00 25.5 C 11.36 g/m*3 25.5 C 1.6 km/h
816 08-06-2017 19:55:00 25.3 C 11.24 g/m*3 25.3 C 1.6 km/h
817 08-06-2017 20:00:00 25.3 C 12.64 g/m*3 25.3 C 1.6 km/h
818 08-06-2017 20:05:00 25.4 C 12.71 g/m*3 25.4 C 3.2 km/h
819 08-06-2017 20:10:00 25.4 C 11.3 g/m*3 25.4 C 1.6 km/h
820 08-06-2017 20:15:00 25.4 C 12.95 g/m*3 25.4 C 3.2 km/h
821 08-06-2017 20:20:00 25.2 C 11.41 g/m*3 25.2 C 6.4 km/h
822 08-06-2017 20:25:00 25.1 C 12.04 g/m*3 25.1 C 3.2 km/h
823 08-06-2017 20:30:00 24.9 C 12.59 g/m*3 24.9 C 3.2 km/h
824 08-06-2017 20:35:00 24.6 C 12.6 g/m*3 24.6 C 4.8 km/h
825 08-06-2017 20:40:00 24.2 C 11.88 g/m*3 24.2 C 1.6 km/h
Sensor: Nr:Datum:Temp:Abs-Feuchte:Windchill:Wind:
Aussen-T/F 826 08-06-2017 20:45:00 23.9 C 12.76 g/m*3 23.9 C 0 km/h
827 08-06-2017 20:50:00 23.6 C 12.55 g/m*3 23.6 C 0 km/h
828 08-06-2017 20:55:00 23.2 C 12.47 g/m*3 23.2 C 0 km/h
829 08-06-2017 21:00:00 22.7 C 12.32 g/m*3 22.7 C 0 km/h
830 08-06-2017 21:05:00 22.2 C 12.17 g/m*3 22.2 C 1.6 km/h
831 08-06-2017 21:10:00 21.7 C 12.21 g/m*3 21.7 C 0 km/h
832 08-06-2017 21:15:00 21.1 C 12.16 g/m*3 21.1 C 0 km/h
833 08-06-2017 21:20:00 20.7 C 12.06 g/m*3 20.7 C 0 km/h
834 08-06-2017 21:25:00 20.2 C 11.89 g/m*3 20.2 C 1.6 km/h
835 08-06-2017 21:30:00 19.8 C 11.61 g/m*3 19.8 C 1.6 km/h
836 08-06-2017 21:35:00 19.5 C 11.58 g/m*3 19.5 C 1.6 km/h
837 08-06-2017 21:40:00 19.2 C 11.54 g/m*3 19.2 C 1.6 km/h
838 08-06-2017 21:45:00 19 C 11.57 g/m*3 19 C 0 km/h
839 08-06-2017 21:50:00 18.7 C 11.37 g/m*3 18.7 C 1.6 km/h
840 08-06-2017 21:55:00 18.6 C 11.46 g/m*3 18.6 C 1.6 km/h
841 08-06-2017 22:00:00 18.3 C 11.26 g/m*3 18.3 C 1.6 km/h
842 08-06-2017 22:05:00 18.2 C 11.35 g/m*3 18.2 C 1.6 km/h
843 08-06-2017 22:10:00 18 C 11.37 g/m*3 18 C 1.6 km/h
844 08-06-2017 22:15:00 17.9 C 11.3 g/m*3 17.9 C 0 km/h
845 08-06-2017 22:20:00 17.7 C 11.32 g/m*3 17.7 C 0 km/h
846 08-06-2017 22:25:00 17.6 C 11.25 g/m*3 17.6 C 0 km/h
847 08-06-2017 22:30:00 17.4 C 11.26 g/m*3 17.4 C 0 km/h
848 08-06-2017 22:35:00 17.3 C 11.2 g/m*3 17.3 C 1.6 km/h
849 08-06-2017 22:40:00 17.2 C 11.13 g/m*3 17.2 C 0 km/h
850 08-06-2017 22:45:00 17.1 C 11.21 g/m*3 17.1 C 0 km/h
Sensor: Nr:Datum:Temp:Abs-Feuchte:Windchill:Wind:
Aussen-T/F 851 08-06-2017 22:50:00 16.9 C 11.08 g/m*3 16.9 C 0 km/h
852 08-06-2017 22:55:00 16.9 C 11.22 g/m*3 16.9 C 1.6 km/h
853 08-06-2017 23:00:00 16.8 C 11.15 g/m*3 16.8 C 0 km/h
854 08-06-2017 23:05:00 16.7 C 11.08 g/m*3 16.7 C 0 km/h
855 08-06-2017 23:10:00 16.6 C 11.02 g/m*3 16.6 C 0 km/h
856 08-06-2017 23:15:00 16.5 C 11.09 g/m*3 16.5 C 0 km/h
857 08-06-2017 23:20:00 16.4 C 11.03 g/m*3 16.4 C 0 km/h
858 08-06-2017 23:25:00 16.4 C 11.17 g/m*3 16.4 C 0 km/h
859 08-06-2017 23:30:00 16.3 C 10.96 g/m*3 16.3 C 0 km/h
860 08-06-2017 23:35:00 16.3 C 10.96 g/m*3 16.3 C 0 km/h
861 08-06-2017 23:40:00 16.2 C 11.03 g/m*3 16.2 C 0 km/h
862 08-06-2017 23:45:00 16.2 C 11.03 g/m*3 16.2 C 0 km/h
863 08-06-2017 23:50:00 16.1 C 11.1 g/m*3 16.1 C 0 km/h
864 08-06-2017 23:55:00 15.9 C 10.97 g/m*3 15.9 C 0 km/h
865 09-06-2017 00:00:00 15.8 C 10.77 g/m*3 15.8 C 0 km/h
866 09-06-2017 00:05:00 15.8 C 10.9 g/m*3 15.8 C 0 km/h
867 09-06-2017 00:10:00 15.7 C 10.84 g/m*3 15.7 C 0 km/h
868 09-06-2017 00:15:00 15.6 C 10.91 g/m*3 15.6 C 0 km/h
869 09-06-2017 00:20:00 15.4 C 10.64 g/m*3 15.4 C 0 km/h
870 09-06-2017 00:25:00 15.3 C 10.58 g/m*3 15.3 C 0 km/h
871 09-06-2017 00:30:00 15.2 C 10.64 g/m*3 15.2 C 0 km/h
872 09-06-2017 00:35:00 15.2 C 10.64 g/m*3 15.2 C 0 km/h
873 09-06-2017 00:40:00 15.1 C 10.58 g/m*3 15.1 C 0 km/h
874 09-06-2017 00:45:00 15 C 10.64 g/m*3 15 C 0 km/h
875 09-06-2017 00:50:00 14.9 C 10.58 g/m*3 14.9 C 0 km/h
Sensor: Nr:Datum:Temp:Abs-Feuchte:Windchill:Wind:
Aussen-T/F 876 09-06-2017 00:55:00 14.8 C 10.51 g/m*3 14.8 C 0 km/h
877 09-06-2017 01:00:00 14.7 C 10.45 g/m*3 14.7 C 0 km/h
878 09-06-2017 01:05:00 14.6 C 10.51 g/m*3 14.6 C 0 km/h
879 09-06-2017 01:10:00 14.6 C 10.51 g/m*3 14.6 C 0 km/h
880 09-06-2017 01:15:00 14.5 C 10.45 g/m*3 14.5 C 0 km/h
881 09-06-2017 01:20:00 14.4 C 10.38 g/m*3 14.4 C 0 km/h
882 09-06-2017 01:25:00 14.3 C 10.32 g/m*3 14.3 C 0 km/h
883 09-06-2017 01:30:00 14.3 C 10.32 g/m*3 14.3 C 0 km/h
884 09-06-2017 01:35:00 14.2 C 10.26 g/m*3 14.2 C 0 km/h
885 09-06-2017 01:40:00 14.1 C 10.32 g/m*3 14.1 C 0 km/h
886 09-06-2017 01:45:00 14 C 10.25 g/m*3 14 C 0 km/h
887 09-06-2017 01:50:00 13.9 C 10.31 g/m*3 13.9 C 0 km/h
888 09-06-2017 01:55:00 13.8 C 10.25 g/m*3 13.8 C 0 km/h
889 09-06-2017 02:00:00 13.7 C 10.3 g/m*3 13.7 C 0 km/h
890 09-06-2017 02:05:00 13.6 C 10.24 g/m*3 13.6 C 0 km/h
891 09-06-2017 02:10:00 13.6 C 10.36 g/m*3 13.6 C 0 km/h
892 09-06-2017 02:15:00 13.6 C 10.47 g/m*3 13.6 C 0 km/h
893 09-06-2017 02:20:00 13.6 C 10.36 g/m*3 13.6 C 0 km/h
894 09-06-2017 02:25:00 13.5 C 10.29 g/m*3 13.5 C 0 km/h
895 09-06-2017 02:30:00 13.4 C 10.35 g/m*3 13.4 C 0 km/h
896 09-06-2017 02:35:00 13.3 C 10.28 g/m*3 13.3 C 0 km/h
897 09-06-2017 02:40:00 13.2 C 10.22 g/m*3 13.2 C 0 km/h
898 09-06-2017 02:45:00 13.2 C 10.33 g/m*3 13.2 C 0 km/h
899 09-06-2017 02:50:00 13.2 C 10.33 g/m*3 13.2 C 0 km/h
900 09-06-2017 02:55:00 13.2 C 10.33 g/m*3 13.2 C 0 km/h
Sensor: Nr:Datum:Temp:Abs-Feuchte:Windchill:Wind:
Aussen-T/F 901 09-06-2017 03:00:00 13.1 C 10.27 g/m*3 13.1 C 0 km/h
902 09-06-2017 03:05:00 13.1 C 10.27 g/m*3 13.1 C 0 km/h
903 09-06-2017 03:10:00 13.1 C 10.27 g/m*3 13.1 C 0 km/h
904 09-06-2017 03:15:00 13.1 C 10.38 g/m*3 13.1 C 1.6 km/h
905 09-06-2017 03:20:00 13.2 C 10.45 g/m*3 13.2 C 0 km/h
906 09-06-2017 03:25:00 13.2 C 10.45 g/m*3 13.2 C 0 km/h
907 09-06-2017 03:30:00 13.3 C 10.4 g/m*3 13.3 C 0 km/h
908 09-06-2017 03:35:00 13.3 C 10.4 g/m*3 13.3 C 1.6 km/h
909 09-06-2017 03:40:00 13.3 C 10.4 g/m*3 13.3 C 0 km/h
910 09-06-2017 03:45:00 13.4 C 10.46 g/m*3 13.4 C 1.6 km/h
911 09-06-2017 03:50:00 13.3 C 10.4 g/m*3 13.3 C 0 km/h
912 09-06-2017 03:55:00 13.3 C 10.4 g/m*3 13.3 C 0 km/h
913 09-06-2017 04:00:00 13.3 C 10.4 g/m*3 13.3 C 0 km/h
914 09-06-2017 04:05:00 13.2 C 10.33 g/m*3 13.2 C 0 km/h
915 09-06-2017 04:10:00 13.2 C 10.33 g/m*3 13.2 C 0 km/h
916 09-06-2017 04:15:00 13.2 C 10.33 g/m*3 13.2 C 0 km/h
917 09-06-2017 04:20:00 13.1 C 10.27 g/m*3 13.1 C 0 km/h
918 09-06-2017 04:25:00 13.1 C 10.27 g/m*3 13.1 C 0 km/h
919 09-06-2017 04:30:00 13.1 C 10.27 g/m*3 13.1 C 0 km/h
920 09-06-2017 04:35:00 13 C 10.21 g/m*3 13 C 0 km/h
921 09-06-2017 04:40:00 12.9 C 10.14 g/m*3 12.9 C 0 km/h
922 09-06-2017 04:45:00 12.8 C 10.08 g/m*3 12.8 C 0 km/h
923 09-06-2017 04:50:00 12.7 C 10.02 g/m*3 12.7 C 0 km/h
924 09-06-2017 04:55:00 12.6 C 9.96 g/m*3 12.6 C 0 km/h
925 09-06-2017 05:00:00 12.6 C 9.96 g/m*3 12.6 C 0 km/h
Sensor: Nr:Datum:Temp:Abs-Feuchte:Windchill:Wind:
Aussen-T/F 926 09-06-2017 05:05:00 12.4 C 9.94 g/m*3 12.4 C 0 km/h
927 09-06-2017 05:10:00 12.3 C 9.77 g/m*3 12.3 C 0 km/h
928 09-06-2017 05:15:00 12.3 C 9.88 g/m*3 12.3 C 0 km/h
929 09-06-2017 05:20:00 12.2 C 9.82 g/m*3 12.2 C 0 km/h
930 09-06-2017 05:25:00 12.2 C 9.82 g/m*3 12.2 C 0 km/h
931 09-06-2017 05:30:00 12.2 C 9.82 g/m*3 12.2 C 0 km/h
932 09-06-2017 05:35:00 12.1 C 9.76 g/m*3 12.1 C 0 km/h
933 09-06-2017 05:40:00 12.1 C 9.76 g/m*3 12.1 C 0 km/h
934 09-06-2017 05:45:00 11.9 C 9.74 g/m*3 11.9 C 0 km/h
935 09-06-2017 05:50:00 11.9 C 9.74 g/m*3 11.9 C 0 km/h
936 09-06-2017 05:55:00 11.9 C 9.74 g/m*3 11.9 C 0 km/h
937 09-06-2017 06:00:00 11.9 C 9.74 g/m*3 11.9 C 0 km/h
938 09-06-2017 06:05:00 11.9 C 9.74 g/m*3 11.9 C 0 km/h
939 09-06-2017 06:10:00 11.9 C 9.74 g/m*3 11.9 C 0 km/h
940 09-06-2017 06:15:00 12.1 C 9.97 g/m*3 12.1 C 0 km/h
941 09-06-2017 06:20:00 12.2 C 10.04 g/m*3 12.2 C 0 km/h
942 09-06-2017 06:25:00 12.3 C 10.1 g/m*3 12.3 C 0 km/h
943 09-06-2017 06:30:00 12.4 C 10.16 g/m*3 12.4 C 0 km/h
944 09-06-2017 06:35:00 12.6 C 10.4 g/m*3 12.6 C 0 km/h
945 09-06-2017 06:40:00 12.7 C 10.46 g/m*3 12.7 C 0 km/h
946 09-06-2017 06:45:00 12.8 C 10.42 g/m*3 12.8 C 1.6 km/h
947 09-06-2017 06:50:00 13 C 10.55 g/m*3 13 C 0 km/h
948 09-06-2017 06:55:00 13.2 C 10.68 g/m*3 13.2 C 0 km/h
949 09-06-2017 07:00:00 13.3 C 10.74 g/m*3 13.3 C 0 km/h
950 09-06-2017 07:05:00 13.3 C 10.74 g/m*3 13.3 C 0 km/h
Sensor: Nr:Datum:Temp:Abs-Feuchte:Windchill:Wind:
Aussen-T/F 951 09-06-2017 07:10:00 13.4 C 10.81 g/m*3 13.4 C 0 km/h
952 09-06-2017 07:15:00 13.4 C 10.81 g/m*3 13.4 C 0 km/h
953 09-06-2017 07:20:00 13.5 C 10.76 g/m*3 13.5 C 3.2 km/h
954 09-06-2017 07:25:00 13.6 C 10.83 g/m*3 13.6 C 3.2 km/h
955 09-06-2017 07:30:00 13.7 C 10.89 g/m*3 13.7 C 1.6 km/h
956 09-06-2017 07:35:00 13.9 C 11.03 g/m*3 13.9 C 1.6 km/h
957 09-06-2017 07:40:00 14 C 11.1 g/m*3 14 C 1.6 km/h
958 09-06-2017 07:45:00 14.2 C 11.23 g/m*3 14.2 C 0 km/h
959 09-06-2017 07:50:00 14.4 C 11.37 g/m*3 14.4 C 0 km/h
960 09-06-2017 07:55:00 14.6 C 11.39 g/m*3 14.6 C 1.6 km/h
961 09-06-2017 08:00:00 14.8 C 11.15 g/m*3 14.8 C 0 km/h
962 09-06-2017 08:05:00 15.1 C 11.48 g/m*3 15.1 C 0 km/h
963 09-06-2017 08:10:00 15.4 C 11.56 g/m*3 15.4 C 0 km/h
964 09-06-2017 08:15:00 15.7 C 11.77 g/m*3 15.7 C 0 km/h
965 09-06-2017 08:20:00 15.9 C 11.38 g/m*3 15.9 C 3.2 km/h
966 09-06-2017 08:25:00 16.1 C 11.24 g/m*3 16.1 C 0 km/h
967 09-06-2017 08:30:00 16.3 C 11.52 g/m*3 16.3 C 0 km/h
968 09-06-2017 08:35:00 16.6 C 11.72 g/m*3 16.6 C 0 km/h
969 09-06-2017 08:40:00 16.7 C 11.23 g/m*3 16.7 C 0 km/h
970 09-06-2017 08:45:00 16.9 C 11.51 g/m*3 16.9 C 0 km/h
971 09-06-2017 08:50:00 17.1 C 11.5 g/m*3 17.1 C 0 km/h
972 09-06-2017 08:55:00 17.2 C 11.86 g/m*3 17.2 C 0 km/h
973 09-06-2017 09:00:00 17.3 C 12.08 g/m*3 17.3 C 0 km/h
974 09-06-2017 09:05:00 17.4 C 12 g/m*3 17.4 C 0 km/h
975 09-06-2017 09:10:00 17.6 C 12.45 g/m*3 17.6 C 0 km/h
Sensor: Nr:Datum:Temp:Abs-Feuchte:Windchill:Wind:
Aussen-T/F 976 09-06-2017 09:15:00 17.8 C 12.6 g/m*3 17.8 C 0 km/h
977 09-06-2017 09:20:00 17.8 C 11.99 g/m*3 17.8 C 0 km/h
978 09-06-2017 09:25:00 17.9 C 12.37 g/m*3 17.9 C 0 km/h
979 09-06-2017 09:30:00 18.1 C 12.82 g/m*3 18.1 C 0 km/h
980 09-06-2017 09:35:00 18.1 C 12.52 g/m*3 18.1 C 0 km/h
981 09-06-2017 09:40:00 18.2 C 12.9 g/m*3 18.2 C 0 km/h
982 09-06-2017 09:45:00 18.3 C 12.82 g/m*3 18.3 C 0 km/h
983 09-06-2017 09:50:00 18.4 C 13.05 g/m*3 18.4 C 0 km/h
984 09-06-2017 09:55:00 18.5 C 12.97 g/m*3 18.5 C 0 km/h
985 09-06-2017 10:00:00 18.5 C 12.97 g/m*3 18.5 C 0 km/h
986 09-06-2017 10:05:00 18.6 C 13.21 g/m*3 18.6 C 4.8 km/h
987 09-06-2017 10:10:00 18.6 C 12.89 g/m*3 18.6 C 9.7 km/h
988 09-06-2017 10:15:00 18.6 C 12.57 g/m*3 18.6 C 8.1 km/h
989 09-06-2017 10:20:00 18.6 C 12.73 g/m*3 18.6 C 6.4 km/h
990 09-06-2017 10:25:00 18.7 C 12.33 g/m*3 18.7 C 8.1 km/h
991 09-06-2017 10:30:00 18.7 C 12.33 g/m*3 18.7 C 4.8 km/h
992 09-06-2017 10:35:00 18.7 C 12.33 g/m*3 18.7 C 6.4 km/h
993 09-06-2017 10:40:00 18.8 C 12.4 g/m*3 18.8 C 1.6 km/h
994 09-06-2017 10:45:00 18.8 C 12.08 g/m*3 18.8 C 8.1 km/h
995 09-06-2017 10:50:00 18.8 C 12.4 g/m*3 18.8 C 4.8 km/h
996 09-06-2017 10:55:00 18.9 C 12.31 g/m*3 18.9 C 6.4 km/h
997 09-06-2017 11:00:00 18.9 C 12.15 g/m*3 18.9 C 9.7 km/h
998 09-06-2017 11:05:00 19.1 C 12.46 g/m*3 19.1 C 3.2 km/h
999 09-06-2017 11:10:00 19.2 C 12.7 g/m*3 19.2 C 3.2 km/h
1000 09-06-2017 11:15:00 19.3 C 12.94 g/m*3 19.3 C 1.6 km/h
Sensor: Nr:Datum:Temp:Abs-Feuchte:Windchill:Wind:
Aussen-T/F 1001 09-06-2017 11:20:00 19.3 C 12.94 g/m*3 19.3 C 3.2 km/h
1002 09-06-2017 11:25:00 19.4 C 12.51 g/m*3 19.4 C 4.8 km/h
1003 09-06-2017 11:30:00 19.5 C 12.75 g/m*3 19.5 C 6.4 km/h
1004 09-06-2017 11:35:00 19.4 C 12.68 g/m*3 19.4 C 8.1 km/h
1005 09-06-2017 11:40:00 19.3 C 12.27 g/m*3 19.3 C 12.9 km/h
1006 09-06-2017 11:45:00 19.2 C 12.37 g/m*3 19.2 C 8.1 km/h
1007 09-06-2017 11:50:00 19.1 C 11.97 g/m*3 19.1 C 12.9 km/h
1008 09-06-2017 11:55:00 18.9 C 11.99 g/m*3 18.9 C 16.1 km/h
1009 09-06-2017 12:00:00 18.7 C 12.17 g/m*3 18.7 C 16.1 km/h
1010 09-06-2017 12:05:00 18.5 C 12.66 g/m*3 18.5 C 4.8 km/h
1011 09-06-2017 12:10:00 18.3 C 12.98 g/m*3 18.3 C 1.6 km/h
1012 09-06-2017 12:15:00 18.1 C 13.13 g/m*3 18.1 C 4.8 km/h
1013 09-06-2017 12:20:00 17.9 C 12.98 g/m*3 17.9 C 1.6 km/h
1014 09-06-2017 12:25:00 17.8 C 13.2 g/m*3 17.8 C 0 km/h
1015 09-06-2017 12:30:00 17.7 C 13.28 g/m*3 17.7 C 1.6 km/h
1016 09-06-2017 12:35:00 17.6 C 13.2 g/m*3 17.6 C 8.1 km/h
1017 09-06-2017 12:40:00 17.4 C 13.04 g/m*3 17.4 C 4.8 km/h
1018 09-06-2017 12:45:00 17.7 C 13.58 g/m*3 17.7 C 4.8 km/h
1019 09-06-2017 12:50:00 17.8 C 13.81 g/m*3 17.8 C 4.8 km/h
1020 09-06-2017 12:55:00 17.9 C 13.59 g/m*3 17.9 C 8.1 km/h
1021 09-06-2017 13:00:00 18.2 C 14.14 g/m*3 18.2 C 6.4 km/h
1022 09-06-2017 13:05:00 18.4 C 14 g/m*3 18.4 C 11.3 km/h
1023 09-06-2017 13:10:00 18.4 C 13.68 g/m*3 18.4 C 9.7 km/h
1024 09-06-2017 13:15:00 18.4 C 13.37 g/m*3 18.4 C 12.9 km/h
1025 09-06-2017 13:20:00 18.6 C 13.69 g/m*3 18.6 C 12.9 km/h
Sensor: Nr:Datum:Temp:Abs-Feuchte:Windchill:Wind:
Aussen-T/F 1026 09-06-2017 13:25:00 18.5 C 13.13 g/m*3 18.5 C 11.3 km/h
1027 09-06-2017 13:30:00 18.5 C 13.29 g/m*3 18.5 C 11.3 km/h
1028 09-06-2017 13:35:00 18.5 C 13.29 g/m*3 18.5 C 12.9 km/h
1029 09-06-2017 13:40:00 18.5 C 13.13 g/m*3 18.5 C 9.7 km/h
1030 09-06-2017 13:45:00 18.7 C 13.61 g/m*3 18.7 C 8.1 km/h
1031 09-06-2017 13:50:00 19 C 13.36 g/m*3 19 C 14.5 km/h
1032 09-06-2017 13:55:00 19.3 C 13.6 g/m*3 19.3 C 8.1 km/h
1033 09-06-2017 14:00:00 19.6 C 13.84 g/m*3 19.6 C 9.7 km/h
1034 09-06-2017 14:05:00 19.7 C 13.58 g/m*3 19.7 C 12.9 km/h
1035 09-06-2017 14:10:00 19.8 C 13.49 g/m*3 19.8 C 12.9 km/h
1036 09-06-2017 14:15:00 20 C 13.48 g/m*3 20 C 16.1 km/h
1037 09-06-2017 14:20:00 20.3 C 13.72 g/m*3 20.3 C 19.3 km/h
1038 09-06-2017 14:25:00 20.7 C 13.5 g/m*3 20.7 C 14.5 km/h
1039 09-06-2017 14:30:00 20.9 C 13.48 g/m*3 20.9 C 17.7 km/h
1040 09-06-2017 14:35:00 21 C 13.37 g/m*3 21 C 17.7 km/h
1041 09-06-2017 14:40:00 21.2 C 13.53 g/m*3 21.2 C 12.9 km/h
1042 09-06-2017 14:45:00 21.3 C 13.42 g/m*3 21.3 C 19.3 km/h
1043 09-06-2017 14:50:00 21.4 C 13.31 g/m*3 21.4 C 14.5 km/h
1044 09-06-2017 14:55:00 21.4 C 13.5 g/m*3 21.4 C 12.9 km/h
1045 09-06-2017 15:00:00 21.4 C 13.31 g/m*3 21.4 C 16.1 km/h
1046 09-06-2017 15:05:00 21.5 C 13.2 g/m*3 21.5 C 19.3 km/h
1047 09-06-2017 15:10:00 21.8 C 13.24 g/m*3 21.8 C 16.1 km/h
1048 09-06-2017 15:15:00 21.7 C 12.97 g/m*3 21.7 C 16.1 km/h
1049 09-06-2017 15:20:00 21.4 C 12.94 g/m*3 21.4 C 17.7 km/h
1050 09-06-2017 15:25:00 21.2 C 12.97 g/m*3 21.2 C 14.5 km/h
Sensor: Nr:Datum:Temp:Abs-Feuchte:Windchill:Wind:
Aussen-T/F 1051 09-06-2017 15:30:00 21.1 C 13.27 g/m*3 21.1 C 3.2 km/h
1052 09-06-2017 15:35:00 20.9 C 13.3 g/m*3 20.9 C 12.9 km/h
1053 09-06-2017 15:40:00 20.8 C 13.04 g/m*3 20.8 C 12.9 km/h
1054 09-06-2017 15:45:00 20.6 C 13.42 g/m*3 20.6 C 19.3 km/h
1055 09-06-2017 15:50:00 20.6 C 13.78 g/m*3 20.6 C 11.3 km/h
1056 09-06-2017 15:55:00 20.9 C 13.84 g/m*3 20.9 C 11.3 km/h
1057 09-06-2017 16:00:00 21.4 C 13.5 g/m*3 21.4 C 14.5 km/h
1058 09-06-2017 16:05:00 21.9 C 14.09 g/m*3 21.9 C 12.9 km/h
1059 09-06-2017 16:10:00 22.4 C 13.9 g/m*3 22.4 C 11.3 km/h
1060 09-06-2017 16:15:00 22.6 C 13.86 g/m*3 22.6 C 16.1 km/h
1061 09-06-2017 16:20:00 22.8 C 13.61 g/m*3 22.8 C 16.1 km/h
1062 09-06-2017 16:25:00 22.6 C 13.26 g/m*3 22.6 C 19.3 km/h
1063 09-06-2017 16:30:00 22.2 C 12.96 g/m*3 22.2 C 16.1 km/h
1064 09-06-2017 16:35:00 21.8 C 12.66 g/m*3 21.8 C 16.1 km/h
1065 09-06-2017 16:40:00 21.1 C 12.34 g/m*3 21.1 C 19.3 km/h
1066 09-06-2017 16:45:00 20.2 C 13.46 g/m*3 20.2 C 11.3 km/h
1067 09-06-2017 16:50:00 19.6 C 13.17 g/m*3 19.6 C 4.8 km/h
1068 09-06-2017 16:55:00 19.2 C 13.69 g/m*3 19.2 C 0 km/h
1069 09-06-2017 17:00:00 18.9 C 13.77 g/m*3 18.9 C 4.8 km/h
1070 09-06-2017 17:05:00 18.6 C 13.69 g/m*3 18.6 C 4.8 km/h
1071 09-06-2017 17:10:00 18.6 C 14.01 g/m*3 18.6 C 1.6 km/h
1072 09-06-2017 17:15:00 18.8 C 14.17 g/m*3 18.8 C 6.4 km/h
1073 09-06-2017 17:20:00 18.7 C 13.45 g/m*3 18.7 C 6.4 km/h
1074 09-06-2017 17:25:00 18.8 C 13.37 g/m*3 18.8 C 3.2 km/h
1075 09-06-2017 17:30:00 18.9 C 13.93 g/m*3 18.9 C 0 km/h
Sensor: Nr:Datum:Temp:Abs-Feuchte:Windchill:Wind:
Aussen-T/F 1076 09-06-2017 17:35:00 19.2 C 14.35 g/m*3 19.2 C 3.2 km/h
1077 09-06-2017 17:40:00 19.6 C 14.35 g/m*3 19.6 C 6.4 km/h
1078 09-06-2017 17:45:00 19.4 C 13.85 g/m*3 19.4 C 4.8 km/h
1079 09-06-2017 17:50:00 19.2 C 13.85 g/m*3 19.2 C 1.6 km/h
1080 09-06-2017 17:55:00 19.4 C 13.85 g/m*3 19.4 C 6.4 km/h
1081 09-06-2017 18:00:00 19.7 C 13.58 g/m*3 19.7 C 8.1 km/h
1082 09-06-2017 18:05:00 20 C 13.83 g/m*3 20 C 6.4 km/h
1083 09-06-2017 18:10:00 20.3 C 13.19 g/m*3 20.3 C 8.1 km/h
1084 09-06-2017 18:15:00 20.1 C 13.21 g/m*3 20.1 C 8.1 km/h
1085 09-06-2017 18:20:00 20.2 C 13.64 g/m*3 20.2 C 6.4 km/h
1086 09-06-2017 18:25:00 20.4 C 13.44 g/m*3 20.4 C 6.4 km/h
1087 09-06-2017 18:30:00 20.6 C 13.42 g/m*3 20.6 C 8.1 km/h
1088 09-06-2017 18:35:00 20.8 C 13.58 g/m*3 20.8 C 9.7 km/h
1089 09-06-2017 18:40:00 20.9 C 13.66 g/m*3 20.9 C 8.1 km/h
1090 09-06-2017 18:45:00 21.1 C 13.82 g/m*3 21.1 C 4.8 km/h
1091 09-06-2017 18:50:00 21.2 C 13.53 g/m*3 21.2 C 4.8 km/h
1092 09-06-2017 18:55:00 21.4 C 13.87 g/m*3 21.4 C 4.8 km/h
1093 09-06-2017 19:00:00 21.7 C 13.73 g/m*3 21.7 C 6.4 km/h
1094 09-06-2017 19:05:00 21.8 C 13.24 g/m*3 21.8 C 8.1 km/h
1095 09-06-2017 19:10:00 21.8 C 13.43 g/m*3 21.8 C 4.8 km/h
1096 09-06-2017 19:15:00 21.7 C 13.35 g/m*3 21.7 C 4.8 km/h
1097 09-06-2017 19:20:00 21.6 C 13.28 g/m*3 21.6 C 9.7 km/h
1098 09-06-2017 19:25:00 21.4 C 12.94 g/m*3 21.4 C 4.8 km/h
1099 09-06-2017 19:30:00 21.2 C 12.6 g/m*3 21.2 C 8.1 km/h
1100 09-06-2017 19:35:00 20.7 C 12.24 g/m*3 20.7 C 6.4 km/h
Sensor: Nr:Datum:Temp:Abs-Feuchte:Windchill:Wind:
Aussen-T/F 1101 09-06-2017 19:40:00 20.6 C 12.35 g/m*3 20.6 C 6.4 km/h
1102 09-06-2017 19:45:00 20.4 C 12.03 g/m*3 20.4 C 6.4 km/h
1103 09-06-2017 19:50:00 20.3 C 12.14 g/m*3 20.3 C 8.1 km/h
1104 09-06-2017 19:55:00 20.3 C 11.96 g/m*3 20.3 C 8.1 km/h
1105 09-06-2017 20:00:00 20.4 C 12.21 g/m*3 20.4 C 3.2 km/h
1106 09-06-2017 20:05:00 20.5 C 12.1 g/m*3 20.5 C 3.2 km/h
1107 09-06-2017 20:10:00 20.6 C 11.81 g/m*3 20.6 C 4.8 km/h
1108 09-06-2017 20:15:00 20.6 C 13.07 g/m*3 20.6 C 1.6 km/h
1109 09-06-2017 20:20:00 20.4 C 12.21 g/m*3 20.4 C 3.2 km/h
1110 09-06-2017 20:25:00 20.1 C 11.13 g/m*3 20.1 C 6.4 km/h
1111 09-06-2017 20:30:00 20.1 C 11.13 g/m*3 20.1 C 4.8 km/h
1112 09-06-2017 20:35:00 20.2 C 11.37 g/m*3 20.2 C 4.8 km/h
1113 09-06-2017 20:40:00 20.3 C 11.43 g/m*3 20.3 C 4.8 km/h
1114 09-06-2017 20:45:00 20.3 C 11.08 g/m*3 20.3 C 4.8 km/h
1115 09-06-2017 20:50:00 20.3 C 11.26 g/m*3 20.3 C 3.2 km/h
1116 09-06-2017 20:55:00 20.2 C 11.19 g/m*3 20.2 C 1.6 km/h
1117 09-06-2017 21:00:00 19.9 C 12.2 g/m*3 19.9 C 1.6 km/h
1118 09-06-2017 21:05:00 19.6 C 11.99 g/m*3 19.6 C 0 km/h
1119 09-06-2017 21:10:00 19 C 11.9 g/m*3 19 C 1.6 km/h
1120 09-06-2017 21:15:00 18.4 C 11.64 g/m*3 18.4 C 0 km/h
1121 09-06-2017 21:20:00 17.9 C 11.6 g/m*3 17.9 C 0 km/h
1122 09-06-2017 21:25:00 17.5 C 11.63 g/m*3 17.5 C 0 km/h
1123 09-06-2017 21:30:00 17.1 C 11.35 g/m*3 17.1 C 0 km/h
1124 09-06-2017 21:35:00 16.7 C 11.08 g/m*3 16.7 C 1.6 km/h
1125 09-06-2017 21:40:00 16.4 C 11.03 g/m*3 16.4 C 0 km/h
Sensor: Nr:Datum:Temp:Abs-Feuchte:Windchill:Wind:
Aussen-T/F 1126 09-06-2017 21:45:00 16.2 C 11.03 g/m*3 16.2 C 0 km/h
1127 09-06-2017 21:50:00 16 C 10.76 g/m*3 16 C 0 km/h
1128 09-06-2017 21:55:00 15.8 C 10.77 g/m*3 15.8 C 1.6 km/h
1129 09-06-2017 22:00:00 15.6 C 10.51 g/m*3 15.6 C 0 km/h
1130 09-06-2017 22:05:00 15.5 C 10.57 g/m*3 15.5 C 0 km/h
1131 09-06-2017 22:10:00 15.3 C 10.32 g/m*3 15.3 C 1.6 km/h
1132 09-06-2017 22:15:00 15.3 C 10.32 g/m*3 15.3 C 0 km/h
1133 09-06-2017 22:20:00 15.2 C 10.25 g/m*3 15.2 C 0 km/h
1134 09-06-2017 22:25:00 15.1 C 10.45 g/m*3 15.1 C 0 km/h
1135 09-06-2017 22:30:00 15 C 10.39 g/m*3 15 C 0 km/h
1136 09-06-2017 22:35:00 14.9 C 10.32 g/m*3 14.9 C 0 km/h
1137 09-06-2017 22:40:00 14.7 C 10.32 g/m*3 14.7 C 0 km/h
1138 09-06-2017 22:45:00 14.6 C 10.26 g/m*3 14.6 C 0 km/h
1139 09-06-2017 22:50:00 14.4 C 10.26 g/m*3 14.4 C 0 km/h
1140 09-06-2017 22:55:00 14.3 C 10.2 g/m*3 14.3 C 0 km/h
1141 09-06-2017 23:00:00 14.2 C 10.14 g/m*3 14.2 C 0 km/h
1142 09-06-2017 23:05:00 13.9 C 10.07 g/m*3 13.9 C 0 km/h
1143 09-06-2017 23:10:00 13.8 C 10.01 g/m*3 13.8 C 0 km/h
1144 09-06-2017 23:15:00 13.7 C 10.07 g/m*3 13.7 C 0 km/h
1145 09-06-2017 23:20:00 13.6 C 10 g/m*3 13.6 C 0 km/h
1146 09-06-2017 23:25:00 13.5 C 9.94 g/m*3 13.5 C 0 km/h
1147 09-06-2017 23:30:00 13.4 C 9.88 g/m*3 13.4 C 0 km/h
1148 09-06-2017 23:35:00 13.3 C 9.94 g/m*3 13.3 C 1.6 km/h
1149 09-06-2017 23:40:00 13.1 C 9.81 g/m*3 13.1 C 0 km/h
1150 09-06-2017 23:45:00 12.9 C 9.69 g/m*3 12.9 C 0 km/h
Sensor: Nr:Datum:Temp:Abs-Feuchte:Windchill:Wind:
Aussen-T/F 1151 09-06-2017 23:50:00 12.8 C 9.63 g/m*3 12.8 C 0 km/h
1152 09-06-2017 23:55:00 12.7 C 9.57 g/m*3 12.7 C 0 km/h
1153 10-06-2017 00:00:00 12.6 C 9.51 g/m*3 12.6 C 0 km/h
1154 10-06-2017 00:05:00 12.5 C 9.57 g/m*3 12.5 C 0 km/h
1155 10-06-2017 00:10:00 12.4 C 9.51 g/m*3 12.4 C 0 km/h
1156 10-06-2017 00:15:00 12.3 C 9.45 g/m*3 12.3 C 0 km/h
1157 10-06-2017 00:20:00 12.3 C 9.45 g/m*3 12.3 C 3.2 km/h
1158 10-06-2017 00:25:00 12.2 C 9.5 g/m*3 12.2 C 0 km/h
1159 10-06-2017 00:30:00 12.2 C 9.5 g/m*3 12.2 C 0 km/h
1160 10-06-2017 00:35:00 12.1 C 9.44 g/m*3 12.1 C 0 km/h
1161 10-06-2017 00:40:00 12.1 C 9.44 g/m*3 12.1 C 0 km/h
1162 10-06-2017 00:45:00 12.1 C 9.54 g/m*3 12.1 C 0 km/h
1163 10-06-2017 00:50:00 12.1 C 9.54 g/m*3 12.1 C 0 km/h
1164 10-06-2017 00:55:00 12.1 C 9.54 g/m*3 12.1 C 1.6 km/h
1165 10-06-2017 01:00:00 12.1 C 9.54 g/m*3 12.1 C 0 km/h
1166 10-06-2017 01:05:00 12.1 C 9.44 g/m*3 12.1 C 0 km/h
1167 10-06-2017 01:10:00 12.1 C 9.44 g/m*3 12.1 C 0 km/h
1168 10-06-2017 01:15:00 12.1 C 9.44 g/m*3 12.1 C 0 km/h
1169 10-06-2017 01:20:00 11.9 C 9.32 g/m*3 11.9 C 0 km/h
1170 10-06-2017 01:25:00 11.9 C 9.32 g/m*3 11.9 C 0 km/h
1171 10-06-2017 01:30:00 11.8 C 9.26 g/m*3 11.8 C 0 km/h
1172 10-06-2017 01:35:00 11.7 C 9.2 g/m*3 11.7 C 0 km/h
1173 10-06-2017 01:40:00 11.6 C 9.15 g/m*3 11.6 C 1.6 km/h
1174 10-06-2017 01:45:00 11.5 C 9.19 g/m*3 11.5 C 0 km/h
1175 10-06-2017 01:50:00 11.4 C 9.14 g/m*3 11.4 C 0 km/h
Sensor: Nr:Datum:Temp:Abs-Feuchte:Windchill:Wind:
Aussen-T/F 1176 10-06-2017 01:55:00 11.3 C 9.08 g/m*3 11.3 C 0 km/h
1177 10-06-2017 02:00:00 11.2 C 9.02 g/m*3 11.2 C 0 km/h
1178 10-06-2017 02:05:00 11.2 C 9.02 g/m*3 11.2 C 1.6 km/h
1179 10-06-2017 02:10:00 11.2 C 9.02 g/m*3 11.2 C 0 km/h
1180 10-06-2017 02:15:00 11.1 C 8.96 g/m*3 11.1 C 0 km/h
1181 10-06-2017 02:20:00 11.1 C 8.96 g/m*3 11.1 C 3.2 km/h
1182 10-06-2017 02:25:00 11 C 8.91 g/m*3 11 C 3.2 km/h
1183 10-06-2017 02:30:00 10.9 C 8.85 g/m*3 10.9 C 0 km/h
1184 10-06-2017 02:35:00 10.8 C 8.8 g/m*3 10.8 C 0 km/h
1185 10-06-2017 02:40:00 10.8 C 8.9 g/m*3 10.8 C 0 km/h
1186 10-06-2017 02:45:00 10.8 C 8.9 g/m*3 10.8 C 0 km/h
1187 10-06-2017 02:50:00 10.9 C 8.95 g/m*3 10.9 C 0 km/h
1188 10-06-2017 02:55:00 10.9 C 8.95 g/m*3 10.9 C 0 km/h
1189 10-06-2017 03:00:00 10.8 C 8.9 g/m*3 10.8 C 0 km/h
1190 10-06-2017 03:05:00 10.8 C 8.9 g/m*3 10.8 C 1.6 km/h
1191 10-06-2017 03:10:00 10.8 C 8.9 g/m*3 10.8 C 0 km/h
1192 10-06-2017 03:15:00 10.7 C 8.84 g/m*3 10.7 C 0 km/h
1193 10-06-2017 03:20:00 10.6 C 8.78 g/m*3 10.6 C 4.8 km/h
1194 10-06-2017 03:25:00 10.5 C 8.73 g/m*3 10.5 C 4.8 km/h
1195 10-06-2017 03:30:00 10.4 C 8.67 g/m*3 10.4 C 0 km/h
1196 10-06-2017 03:35:00 10.3 C 8.71 g/m*3 10.3 C 1.6 km/h
1197 10-06-2017 03:40:00 10.3 C 8.71 g/m*3 10.3 C 0 km/h
1198 10-06-2017 03:45:00 10.2 C 8.66 g/m*3 10.2 C 0 km/h
1199 10-06-2017 03:50:00 10.2 C 8.66 g/m*3 10.2 C 0 km/h
1200 10-06-2017 03:55:00 10.1 C 8.61 g/m*3 10.1 C 4.8 km/h
Sensor: Nr:Datum:Temp:Abs-Feuchte:Windchill:Wind:
Aussen-T/F 1201 10-06-2017 04:00:00 10.1 C 8.61 g/m*3 10.1 C 0 km/h
1202 10-06-2017 04:05:00 10 C 8.55 g/m*3 10 C 0 km/h
1203 10-06-2017 04:10:00 9.9 C 8.5 g/m*3 9.9 C 1.6 km/h
1204 10-06-2017 04:15:00 9.9 C 8.59 g/m*3 9.9 C 0 km/h
1205 10-06-2017 04:20:00 9.9 C 8.59 g/m*3 9.9 C 1.6 km/h
1206 10-06-2017 04:25:00 9.9 C 8.59 g/m*3 9.9 C 0 km/h
1207 10-06-2017 04:30:00 9.9 C 8.59 g/m*3 9.9 C 1.6 km/h
1208 10-06-2017 04:35:00 9.8 C 8.54 g/m*3 9.8 C 1.6 km/h
1209 10-06-2017 04:40:00 9.8 C 8.54 g/m*3 9.8 C 4.8 km/h
1210 10-06-2017 04:45:00 9.8 C 8.54 g/m*3 9.8 C 1.6 km/h
1211 10-06-2017 04:50:00 9.8 C 8.54 g/m*3 9.8 C 1.6 km/h
1212 10-06-2017 04:55:00 9.7 C 8.48 g/m*3 9.7 C 3.2 km/h
1213 10-06-2017 05:00:00 9.7 C 8.48 g/m*3 9.7 C 0 km/h
1214 10-06-2017 05:05:00 9.6 C 8.43 g/m*3 9.6 C 1.6 km/h
1215 10-06-2017 05:10:00 9.6 C 8.43 g/m*3 9.6 C 1.6 km/h
1216 10-06-2017 05:15:00 9.5 C 8.37 g/m*3 9.5 C 4.8 km/h
1217 10-06-2017 05:20:00 9.5 C 8.37 g/m*3 9.5 C 1.6 km/h
1218 10-06-2017 05:25:00 9.4 C 8.41 g/m*3 8.68 C 6.4 km/h
1219 10-06-2017 05:30:00 9.4 C 8.41 g/m*3 9.4 C 3.2 km/h
1220 10-06-2017 05:35:00 9.4 C 8.41 g/m*3 8.68 C 6.4 km/h
1221 10-06-2017 05:40:00 9.4 C 8.41 g/m*3 9.4 C 4.8 km/h
1222 10-06-2017 05:45:00 9.4 C 8.41 g/m*3 9.4 C 3.2 km/h
1223 10-06-2017 05:50:00 9.5 C 8.47 g/m*3 9.5 C 1.6 km/h
1224 10-06-2017 05:55:00 9.5 C 8.47 g/m*3 9.5 C 4.8 km/h
1225 10-06-2017 06:00:00 9.5 C 8.47 g/m*3 9.5 C 3.2 km/h
Sensor: Nr:Datum:Temp:Abs-Feuchte:Windchill:Wind:
Aussen-T/F 1226 10-06-2017 06:05:00 9.6 C 8.52 g/m*3 9.6 C 1.6 km/h
1227 10-06-2017 06:10:00 9.6 C 8.52 g/m*3 9.6 C 3.2 km/h
1228 10-06-2017 06:15:00 9.6 C 8.52 g/m*3 9.6 C 1.6 km/h
1229 10-06-2017 06:20:00 9.7 C 8.57 g/m*3 9.7 C 1.6 km/h
1230 10-06-2017 06:25:00 9.7 C 8.57 g/m*3 9.7 C 1.6 km/h
1231 10-06-2017 06:30:00 9.7 C 8.57 g/m*3 9.02 C 6.4 km/h
1232 10-06-2017 06:35:00 9.8 C 8.54 g/m*3 9.8 C 3.2 km/h
1233 10-06-2017 06:40:00 9.8 C 8.54 g/m*3 9.8 C 0 km/h
1234 10-06-2017 06:45:00 9.8 C 8.54 g/m*3 9.8 C 0 km/h
1235 10-06-2017 06:50:00 9.8 C 8.54 g/m*3 9.8 C 0 km/h
1236 10-06-2017 06:55:00 9.7 C 8.48 g/m*3 9.7 C 0 km/h
1237 10-06-2017 07:00:00 9.7 C 8.48 g/m*3 9.7 C 0 km/h
1238 10-06-2017 07:05:00 9.7 C 8.57 g/m*3 9.7 C 0 km/h
1239 10-06-2017 07:10:00 9.7 C 8.57 g/m*3 9.7 C 0 km/h
1240 10-06-2017 07:15:00 9.7 C 8.57 g/m*3 9.7 C 0 km/h
1241 10-06-2017 07:20:00 9.7 C 8.57 g/m*3 9.7 C 0 km/h
1242 10-06-2017 07:25:00 9.8 C 8.63 g/m*3 9.8 C 0 km/h
1243 10-06-2017 07:30:00 9.8 C 8.63 g/m*3 9.8 C 0 km/h
1244 10-06-2017 07:35:00 9.8 C 8.63 g/m*3 9.8 C 0 km/h
1245 10-06-2017 07:40:00 9.8 C 8.63 g/m*3 9.8 C 0 km/h
1246 10-06-2017 07:45:00 10 C 8.83 g/m*3 10 C 0 km/h
1247 10-06-2017 07:50:00 10.1 C 8.89 g/m*3 10.1 C 0 km/h
1248 10-06-2017 07:55:00 10.2 C 8.95 g/m*3 10.2 C 0 km/h
1249 10-06-2017 08:00:00 10.2 C 8.95 g/m*3 10.2 C 0 km/h
1250 10-06-2017 08:05:00 10.2 C 8.95 g/m*3 10.2 C 0 km/h
Sensor: Nr:Datum:Temp:Abs-Feuchte:Windchill:Wind:
Aussen-T/F 1251 10-06-2017 08:10:00 10.3 C 9 g/m*3 10.3 C 0 km/h
1252 10-06-2017 08:15:00 10.4 C 9.06 g/m*3 10.4 C 0 km/h
1253 10-06-2017 08:20:00 10.6 C 9.17 g/m*3 10.6 C 0 km/h
1254 10-06-2017 08:25:00 10.6 C 9.17 g/m*3 10.6 C 0 km/h
1255 10-06-2017 08:30:00 10.7 C 9.23 g/m*3 10.7 C 0 km/h
1256 10-06-2017 08:35:00 10.8 C 9.29 g/m*3 10.8 C 0 km/h
1257 10-06-2017 08:40:00 10.9 C 9.35 g/m*3 10.9 C 0 km/h
1258 10-06-2017 08:45:00 11.1 C 9.57 g/m*3 11.1 C 0 km/h
1259 10-06-2017 08:50:00 11.3 C 9.69 g/m*3 11.3 C 0 km/h
1260 10-06-2017 08:55:00 11.6 C 9.87 g/m*3 11.6 C 0 km/h
1261 10-06-2017 09:00:00 11.6 C 9.77 g/m*3 11.6 C 0 km/h
1262 10-06-2017 09:05:00 11.8 C 9.89 g/m*3 11.8 C 0 km/h
1263 10-06-2017 09:10:00 11.9 C 9.96 g/m*3 11.9 C 0 km/h
1264 10-06-2017 09:15:00 12.2 C 10.14 g/m*3 12.2 C 0 km/h
1265 10-06-2017 09:20:00 12.4 C 10.27 g/m*3 12.4 C 0 km/h
1266 10-06-2017 09:25:00 12.6 C 10.4 g/m*3 12.6 C 0 km/h
1267 10-06-2017 09:30:00 12.8 C 10.53 g/m*3 12.8 C 0 km/h
1268 10-06-2017 09:35:00 13.2 C 10.79 g/m*3 13.2 C 3.2 km/h
1269 10-06-2017 09:40:00 13.4 C 10.81 g/m*3 13.4 C 1.6 km/h
1270 10-06-2017 09:45:00 13.8 C 10.96 g/m*3 13.8 C 1.6 km/h
1271 10-06-2017 09:50:00 14.3 C 10.81 g/m*3 14.3 C 3.2 km/h
1272 10-06-2017 09:55:00 15 C 10.9 g/m*3 15 C 6.4 km/h
1273 10-06-2017 10:00:00 15.7 C 10.84 g/m*3 15.7 C 9.7 km/h
1274 10-06-2017 10:05:00 16.3 C 11.1 g/m*3 16.3 C 9.7 km/h
1275 10-06-2017 10:10:00 16.7 C 11.08 g/m*3 16.7 C 4.8 km/h
Sensor: Nr:Datum:Temp:Abs-Feuchte:Windchill:Wind:
Aussen-T/F 1276 10-06-2017 10:15:00 17.1 C 10.92 g/m*3 17.1 C 12.9 km/h
1277 10-06-2017 10:20:00 17.6 C 10.8 g/m*3 17.6 C 9.7 km/h
1278 10-06-2017 10:25:00 18.2 C 11.04 g/m*3 18.2 C 9.7 km/h
1279 10-06-2017 10:30:00 18.6 C 10.98 g/m*3 18.6 C 11.3 km/h
1280 10-06-2017 10:35:00 18.9 C 11.34 g/m*3 18.9 C 8.1 km/h
1281 10-06-2017 10:40:00 19.2 C 11.05 g/m*3 19.2 C 11.3 km/h
1282 10-06-2017 10:45:00 19.4 C 11.18 g/m*3 19.4 C 11.3 km/h
1283 10-06-2017 10:50:00 19.6 C 11.14 g/m*3 19.6 C 14.5 km/h
1284 10-06-2017 10:55:00 19.7 C 11.04 g/m*3 19.7 C 8.1 km/h
1285 10-06-2017 11:00:00 20 C 11.23 g/m*3 20 C 8.1 km/h
1286 10-06-2017 11:05:00 20.1 C 11.13 g/m*3 20.1 C 8.1 km/h
1287 10-06-2017 11:10:00 20.2 C 11.02 g/m*3 20.2 C 14.5 km/h
1288 10-06-2017 11:15:00 20.2 C 11.54 g/m*3 20.2 C 12.9 km/h
1289 10-06-2017 11:20:00 20.2 C 11.37 g/m*3 20.2 C 6.4 km/h
1290 10-06-2017 11:25:00 20.2 C 11.02 g/m*3 20.2 C 11.3 km/h
1291 10-06-2017 11:30:00 20.3 C 11.43 g/m*3 20.3 C 9.7 km/h
1292 10-06-2017 11:35:00 20.4 C 11.5 g/m*3 20.4 C 6.4 km/h
1293 10-06-2017 11:40:00 20.4 C 10.79 g/m*3 20.4 C 11.3 km/h
1294 10-06-2017 11:45:00 20.6 C 11.45 g/m*3 20.6 C 9.7 km/h
1295 10-06-2017 11:50:00 20.7 C 10.98 g/m*3 20.7 C 11.3 km/h
1296 10-06-2017 11:55:00 20.9 C 11.47 g/m*3 20.9 C 6.4 km/h
1297 10-06-2017 12:00:00 21.1 C 11.24 g/m*3 21.1 C 4.8 km/h
1298 10-06-2017 12:05:00 21 C 10.99 g/m*3 21 C 6.4 km/h
1299 10-06-2017 12:10:00 20.9 C 10.93 g/m*3 20.9 C 11.3 km/h
1300 10-06-2017 12:15:00 20.8 C 11.05 g/m*3 20.8 C 6.4 km/h
Sensor: Nr:Datum:Temp:Abs-Feuchte:Windchill:Wind:
Aussen-T/F 1301 10-06-2017 12:20:00 20.8 C 10.68 g/m*3 20.8 C 4.8 km/h
1302 10-06-2017 12:25:00 20.8 C 10.5 g/m*3 20.8 C 9.7 km/h
1303 10-06-2017 12:30:00 20.9 C 10.38 g/m*3 20.9 C 9.7 km/h
1304 10-06-2017 12:35:00 21.2 C 10.75 g/m*3 21.2 C 8.1 km/h
1305 10-06-2017 12:40:00 21.3 C 10.25 g/m*3 21.3 C 6.4 km/h
1306 10-06-2017 12:45:00 21.4 C 10.31 g/m*3 21.4 C 4.8 km/h
1307 10-06-2017 12:50:00 21.6 C 10.43 g/m*3 21.6 C 6.4 km/h
1308 10-06-2017 12:55:00 21.6 C 10.43 g/m*3 21.6 C 8.1 km/h
1309 10-06-2017 13:00:00 21.7 C 10.68 g/m*3 21.7 C 8.1 km/h
1310 10-06-2017 13:05:00 21.8 C 11.9 g/m*3 21.8 C 8.1 km/h
1311 10-06-2017 13:10:00 21.9 C 11.58 g/m*3 21.9 C 6.4 km/h
1312 10-06-2017 13:15:00 21.8 C 10.55 g/m*3 21.8 C 6.4 km/h
1313 10-06-2017 13:20:00 21.8 C 10.55 g/m*3 21.8 C 6.4 km/h
1314 10-06-2017 13:25:00 21.9 C 10.61 g/m*3 21.9 C 9.7 km/h
1315 10-06-2017 13:30:00 21.9 C 10.42 g/m*3 21.9 C 12.9 km/h
1316 10-06-2017 13:35:00 21.9 C 10.03 g/m*3 21.9 C 11.3 km/h
1317 10-06-2017 13:40:00 22 C 10.09 g/m*3 22 C 9.7 km/h
1318 10-06-2017 13:45:00 22.1 C 10.35 g/m*3 22.1 C 8.1 km/h
1319 10-06-2017 13:50:00 22.1 C 9.76 g/m*3 22.1 C 11.3 km/h
1320 10-06-2017 13:55:00 22.2 C 11.58 g/m*3 22.2 C 4.8 km/h
1321 10-06-2017 14:00:00 22.2 C 10.41 g/m*3 22.2 C 12.9 km/h
1322 10-06-2017 14:05:00 22.3 C 10.66 g/m*3 22.3 C 9.7 km/h
1323 10-06-2017 14:10:00 22.7 C 10.91 g/m*3 22.7 C 9.7 km/h
1324 10-06-2017 14:15:00 23 C 10.69 g/m*3 23 C 11.3 km/h
1325 10-06-2017 14:20:00 23.2 C 10.81 g/m*3 23.2 C 9.7 km/h
Sensor: Nr:Datum:Temp:Abs-Feuchte:Windchill:Wind:
Aussen-T/F 1326 10-06-2017 14:25:00 23.2 C 10.39 g/m*3 23.2 C 4.8 km/h
1327 10-06-2017 14:30:00 23.4 C 10.3 g/m*3 23.4 C 11.3 km/h
1328 10-06-2017 14:35:00 23.6 C 10.42 g/m*3 23.6 C 11.3 km/h
1329 10-06-2017 14:40:00 23.8 C 11.4 g/m*3 23.8 C 11.3 km/h
1330 10-06-2017 14:45:00 24.1 C 11.16 g/m*3 24.1 C 12.9 km/h
1331 10-06-2017 14:50:00 24.3 C 10.84 g/m*3 24.3 C 12.9 km/h
1332 10-06-2017 14:55:00 24.4 C 11.13 g/m*3 24.4 C 11.3 km/h
1333 10-06-2017 15:00:00 24.4 C 11.13 g/m*3 24.4 C 11.3 km/h
1334 10-06-2017 15:05:00 24.4 C 10.46 g/m*3 24.4 C 6.4 km/h
1335 10-06-2017 15:10:00 24.3 C 10.62 g/m*3 24.3 C 14.5 km/h
1336 10-06-2017 15:15:00 24.6 C 10.8 g/m*3 24.6 C 8.1 km/h
1337 10-06-2017 15:20:00 24.8 C 11.15 g/m*3 24.8 C 6.4 km/h
1338 10-06-2017 15:25:00 24.8 C 10.24 g/m*3 24.8 C 8.1 km/h
1339 10-06-2017 15:30:00 24.7 C 10.41 g/m*3 24.7 C 6.4 km/h
1340 10-06-2017 15:35:00 24.8 C 10.24 g/m*3 24.8 C 8.1 km/h
1341 10-06-2017 15:40:00 24.7 C 12 g/m*3 24.7 C 6.4 km/h
1342 10-06-2017 15:45:00 24.7 C 10.64 g/m*3 24.7 C 4.8 km/h
1343 10-06-2017 15:50:00 24.9 C 13.05 g/m*3 24.9 C 1.6 km/h
1344 10-06-2017 15:55:00 25.3 C 12.17 g/m*3 25.3 C 0 km/h
1345 10-06-2017 16:00:00 25.4 C 10.59 g/m*3 25.4 C 3.2 km/h
1346 10-06-2017 16:05:00 25.6 C 10.71 g/m*3 25.6 C 9.7 km/h
1347 10-06-2017 16:10:00 25.8 C 10.59 g/m*3 25.8 C 11.3 km/h
1348 10-06-2017 16:15:00 26.3 C 10.64 g/m*3 26.3 C 17.7 km/h
1349 10-06-2017 16:20:00 26.5 C 10.76 g/m*3 26.5 C 17.7 km/h
1350 10-06-2017 16:25:00 26.7 C 10.38 g/m*3 26.7 C 6.4 km/h
Sensor: Nr:Datum:Temp:Abs-Feuchte:Windchill:Wind:
Aussen-T/F 1351 10-06-2017 16:30:00 26.8 C 10.18 g/m*3 26.8 C 9.7 km/h
1352 10-06-2017 16:35:00 26.8 C 10.44 g/m*3 26.8 C 9.7 km/h
1353 10-06-2017 16:40:00 27.1 C 10.87 g/m*3 27.1 C 4.8 km/h
1354 10-06-2017 16:45:00 27.4 C 11.31 g/m*3 27.4 C 3.2 km/h
1355 10-06-2017 16:50:00 27.7 C 10.43 g/m*3 27.7 C 8.1 km/h
1356 10-06-2017 16:55:00 27.7 C 10.43 g/m*3 27.7 C 6.4 km/h
1357 10-06-2017 17:00:00 27.6 C 10.11 g/m*3 27.6 C 8.1 km/h
1358 10-06-2017 17:05:00 27.6 C 10.38 g/m*3 27.6 C 4.8 km/h
1359 10-06-2017 17:10:00 27.3 C 10.2 g/m*3 27.3 C 8.1 km/h
1360 10-06-2017 17:15:00 27.3 C 10.2 g/m*3 27.3 C 8.1 km/h
1361 10-06-2017 17:20:00 27.3 C 9.94 g/m*3 27.3 C 9.7 km/h
1362 10-06-2017 17:25:00 27.4 C 10 g/m*3 27.4 C 9.7 km/h
1363 10-06-2017 17:30:00 27.6 C 10.11 g/m*3 27.6 C 8.1 km/h
1364 10-06-2017 17:35:00 27.6 C 10.11 g/m*3 27.6 C 12.9 km/h
1365 10-06-2017 17:40:00 27.6 C 10.11 g/m*3 27.6 C 12.9 km/h
1366 10-06-2017 17:45:00 27.7 C 10.16 g/m*3 27.7 C 11.3 km/h
1367 10-06-2017 17:50:00 27.7 C 10.16 g/m*3 27.7 C 9.7 km/h
1368 10-06-2017 17:55:00 27.8 C 10.22 g/m*3 27.8 C 8.1 km/h
1369 10-06-2017 18:00:00 28 C 10.33 g/m*3 28 C 8.1 km/h
1370 10-06-2017 18:05:00 28.1 C 10.12 g/m*3 28.1 C 11.3 km/h
1371 10-06-2017 18:10:00 28.2 C 10.45 g/m*3 28.2 C 4.8 km/h
1372 10-06-2017 18:15:00 28.2 C 9.9 g/m*3 28.2 C 9.7 km/h
1373 10-06-2017 18:20:00 28.1 C 9.84 g/m*3 28.1 C 8.1 km/h
1374 10-06-2017 18:25:00 28 C 10.61 g/m*3 28 C 8.1 km/h
1375 10-06-2017 18:30:00 27.9 C 10.28 g/m*3 27.9 C 8.1 km/h
Sensor: Nr:Datum:Temp:Abs-Feuchte:Windchill:Wind:
Aussen-T/F 1376 10-06-2017 18:35:00 27.9 C 10.55 g/m*3 27.9 C 8.1 km/h
1377 10-06-2017 18:40:00 28 C 10.88 g/m*3 28 C 6.4 km/h
1378 10-06-2017 18:45:00 28.2 C 11 g/m*3 28.2 C 6.4 km/h
1379 10-06-2017 18:50:00 28.1 C 10.39 g/m*3 28.1 C 6.4 km/h
1380 10-06-2017 18:55:00 28.1 C 10.66 g/m*3 28.1 C 0 km/h
1381 10-06-2017 19:00:00 28.2 C 11 g/m*3 28.2 C 4.8 km/h
1382 10-06-2017 19:05:00 28.1 C 11.21 g/m*3 28.1 C 6.4 km/h
1383 10-06-2017 19:10:00 27.9 C 10.82 g/m*3 27.9 C 6.4 km/h
1384 10-06-2017 19:15:00 27.7 C 10.43 g/m*3 27.7 C 4.8 km/h
1385 10-06-2017 19:20:00 27.3 C 9.94 g/m*3 27.3 C 9.7 km/h
1386 10-06-2017 19:25:00 27 C 11.58 g/m*3 27 C 4.8 km/h
1387 10-06-2017 19:30:00 26.9 C 11.01 g/m*3 26.9 C 3.2 km/h
1388 10-06-2017 19:35:00 26.7 C 10.88 g/m*3 26.7 C 4.8 km/h
1389 10-06-2017 19:40:00 26.5 C 11.51 g/m*3 26.5 C 8.1 km/h
1390 10-06-2017 19:45:00 26.4 C 12.2 g/m*3 26.4 C 3.2 km/h
1391 10-06-2017 19:50:00 26.3 C 12.38 g/m*3 26.3 C 0 km/h
1392 10-06-2017 19:55:00 26.1 C 12 g/m*3 26.1 C 1.6 km/h
1393 10-06-2017 20:00:00 25.8 C 12.28 g/m*3 25.8 C 0 km/h
1394 10-06-2017 20:05:00 25.7 C 12.69 g/m*3 25.7 C 1.6 km/h
1395 10-06-2017 20:10:00 25.6 C 12.62 g/m*3 25.6 C 0 km/h
1396 10-06-2017 20:15:00 25.4 C 12.71 g/m*3 25.4 C 0 km/h
1397 10-06-2017 20:20:00 25.3 C 12.41 g/m*3 25.3 C 0 km/h
1398 10-06-2017 20:25:00 25.1 C 12.27 g/m*3 25.1 C 0 km/h
1399 10-06-2017 20:30:00 24.8 C 12.52 g/m*3 24.8 C 0 km/h
1400 10-06-2017 20:35:00 24.4 C 12.24 g/m*3 24.4 C 0 km/h
Sensor: Nr:Datum:Temp:Abs-Feuchte:Windchill:Wind:
Aussen-T/F 1401 10-06-2017 20:40:00 24.1 C 12.25 g/m*3 24.1 C 0 km/h
1402 10-06-2017 20:45:00 23.6 C 12.12 g/m*3 23.6 C 0 km/h
1403 10-06-2017 20:50:00 23.2 C 12.27 g/m*3 23.2 C 0 km/h
1404 10-06-2017 20:55:00 22.8 C 11.99 g/m*3 22.8 C 0 km/h
1405 10-06-2017 21:00:00 22.4 C 11.92 g/m*3 22.4 C 0 km/h
1406 10-06-2017 21:05:00 21.9 C 11.96 g/m*3 21.9 C 1.6 km/h
1407 10-06-2017 21:10:00 21.6 C 11.76 g/m*3 21.6 C 0 km/h
1408 10-06-2017 21:15:00 21.2 C 11.86 g/m*3 21.2 C 1.6 km/h
1409 10-06-2017 21:20:00 20.8 C 11.59 g/m*3 20.8 C 1.6 km/h
1410 10-06-2017 21:25:00 20.4 C 11.5 g/m*3 20.4 C 1.6 km/h
1411 10-06-2017 21:30:00 20.2 C 11.19 g/m*3 20.2 C 1.6 km/h
1412 10-06-2017 21:35:00 20 C 11.41 g/m*3 20 C 1.6 km/h
1413 10-06-2017 21:40:00 19.8 C 11.27 g/m*3 19.8 C 1.6 km/h
1414 10-06-2017 21:45:00 19.6 C 11.14 g/m*3 19.6 C 1.6 km/h
1415 10-06-2017 21:50:00 19.4 C 11.18 g/m*3 19.4 C 0 km/h
1416 10-06-2017 21:55:00 19.3 C 11.11 g/m*3 19.3 C 0 km/h
1417 10-06-2017 22:00:00 19.2 C 11.05 g/m*3 19.2 C 0 km/h
1418 10-06-2017 22:05:00 19.1 C 11.15 g/m*3 19.1 C 0 km/h
1419 10-06-2017 22:10:00 18.9 C 11.18 g/m*3 18.9 C 0 km/h
1420 10-06-2017 22:15:00 18.8 C 11.27 g/m*3 18.8 C 0 km/h
1421 10-06-2017 22:20:00 18.6 C 11.3 g/m*3 18.6 C 0 km/h
1422 10-06-2017 22:25:00 18.4 C 11.32 g/m*3 18.4 C 0 km/h
1423 10-06-2017 22:30:00 18.2 C 11.35 g/m*3 18.2 C 0 km/h
1424 10-06-2017 22:35:00 17.9 C 11.3 g/m*3 17.9 C 0 km/h
1425 10-06-2017 22:40:00 17.7 C 11.16 g/m*3 17.7 C 0 km/h
Sensor: Nr:Datum:Temp:Abs-Feuchte:Windchill:Wind:
Aussen-T/F 1426 10-06-2017 22:45:00 17.5 C 11.18 g/m*3 17.5 C 0 km/h
1427 10-06-2017 22:50:00 17.3 C 11.05 g/m*3 17.3 C 0 km/h
1428 10-06-2017 22:55:00 17.2 C 10.98 g/m*3 17.2 C 0 km/h
1429 10-06-2017 23:00:00 17.1 C 10.92 g/m*3 17.1 C 0 km/h
1430 10-06-2017 23:05:00 16.9 C 10.93 g/m*3 16.9 C 0 km/h
1431 10-06-2017 23:10:00 16.8 C 10.87 g/m*3 16.8 C 0 km/h
1432 10-06-2017 23:15:00 16.7 C 10.66 g/m*3 16.7 C 0 km/h
1433 10-06-2017 23:20:00 16.7 C 10.8 g/m*3 16.7 C 0 km/h
1434 10-06-2017 23:25:00 16.6 C 10.74 g/m*3 16.6 C 0 km/h
1435 10-06-2017 23:30:00 16.4 C 10.75 g/m*3 16.4 C 0 km/h
1436 10-06-2017 23:35:00 16.3 C 10.68 g/m*3 16.3 C 0 km/h
1437 10-06-2017 23:40:00 16.2 C 10.62 g/m*3 16.2 C 0 km/h
1438 10-06-2017 23:45:00 16.1 C 10.69 g/m*3 16.1 C 0 km/h
1439 10-06-2017 23:50:00 15.9 C 10.7 g/m*3 15.9 C 0 km/h
1440 10-06-2017 23:55:00 15.8 C 10.63 g/m*3 15.8 C 0 km/h
1441 11-06-2017 00:00:00 15.7 C 10.57 g/m*3 15.7 C 0 km/h
1442 11-06-2017 00:05:00 15.7 C 10.57 g/m*3 15.7 C 0 km/h
1443 11-06-2017 00:10:00 15.7 C 10.57 g/m*3 15.7 C 0 km/h
1444 11-06-2017 00:15:00 15.6 C 10.51 g/m*3 15.6 C 0 km/h
1445 11-06-2017 00:20:00 15.6 C 10.64 g/m*3 15.6 C 0 km/h
1446 11-06-2017 00:25:00 15.5 C 10.57 g/m*3 15.5 C 0 km/h
1447 11-06-2017 00:30:00 15.3 C 10.45 g/m*3 15.3 C 0 km/h
1448 11-06-2017 00:35:00 15.2 C 10.51 g/m*3 15.2 C 0 km/h
1449 11-06-2017 00:40:00 15.1 C 10.58 g/m*3 15.1 C 0 km/h
1450 11-06-2017 00:45:00 15 C 10.51 g/m*3 15 C 0 km/h
Sensor: Nr:Datum:Temp:Abs-Feuchte:Windchill:Wind:
Aussen-T/F 1451 11-06-2017 00:50:00 14.9 C 10.45 g/m*3 14.9 C 0 km/h
1452 11-06-2017 00:55:00 14.8 C 10.51 g/m*3 14.8 C 0 km/h
1453 11-06-2017 01:00:00 14.8 C 10.51 g/m*3 14.8 C 0 km/h
1454 11-06-2017 01:05:00 14.8 C 10.51 g/m*3 14.8 C 0 km/h
1455 11-06-2017 01:10:00 14.7 C 10.45 g/m*3 14.7 C 0 km/h
1456 11-06-2017 01:15:00 14.6 C 10.51 g/m*3 14.6 C 0 km/h
1457 11-06-2017 01:20:00 14.5 C 10.45 g/m*3 14.5 C 0 km/h
1458 11-06-2017 01:25:00 14.4 C 10.38 g/m*3 14.4 C 0 km/h
1459 11-06-2017 01:30:00 14.3 C 10.32 g/m*3 14.3 C 0 km/h
1460 11-06-2017 01:35:00 14.3 C 10.44 g/m*3 14.3 C 0 km/h
1461 11-06-2017 01:40:00 14.3 C 10.44 g/m*3 14.3 C 0 km/h
1462 11-06-2017 01:45:00 14.2 C 10.38 g/m*3 14.2 C 0 km/h
1463 11-06-2017 01:50:00 14.2 C 10.5 g/m*3 14.2 C 0 km/h
1464 11-06-2017 01:55:00 14.1 C 10.44 g/m*3 14.1 C 0 km/h
1465 11-06-2017 02:00:00 14 C 10.49 g/m*3 14 C 0 km/h
1466 11-06-2017 02:05:00 13.9 C 10.43 g/m*3 13.9 C 0 km/h
1467 11-06-2017 02:10:00 13.8 C 10.37 g/m*3 13.8 C 0 km/h
1468 11-06-2017 02:15:00 13.7 C 10.3 g/m*3 13.7 C 0 km/h
1469 11-06-2017 02:20:00 13.7 C 10.42 g/m*3 13.7 C 0 km/h
1470 11-06-2017 02:25:00 13.6 C 10.36 g/m*3 13.6 C 0 km/h
1471 11-06-2017 02:30:00 13.6 C 10.36 g/m*3 13.6 C 0 km/h
1472 11-06-2017 02:35:00 13.5 C 10.29 g/m*3 13.5 C 0 km/h
1473 11-06-2017 02:40:00 13.4 C 10.23 g/m*3 13.4 C 0 km/h
1474 11-06-2017 02:45:00 13.3 C 10.17 g/m*3 13.3 C 0 km/h
1475 11-06-2017 02:50:00 13.3 C 10.28 g/m*3 13.3 C 0 km/h
Sensor: Nr:Datum:Temp:Abs-Feuchte:Windchill:Wind:
Aussen-T/F 1476 11-06-2017 02:55:00 13.3 C 10.17 g/m*3 13.3 C 0 km/h
1477 11-06-2017 03:00:00 13.2 C 10.22 g/m*3 13.2 C 0 km/h
1478 11-06-2017 03:05:00 13.2 C 10.22 g/m*3 13.2 C 0 km/h
1479 11-06-2017 03:10:00 13.1 C 10.16 g/m*3 13.1 C 0 km/h
1480 11-06-2017 03:15:00 13.1 C 10.16 g/m*3 13.1 C 0 km/h
1481 11-06-2017 03:20:00 13 C 10.21 g/m*3 13 C 0 km/h
1482 11-06-2017 03:25:00 12.9 C 10.14 g/m*3 12.9 C 0 km/h
1483 11-06-2017 03:30:00 12.9 C 10.14 g/m*3 12.9 C 0 km/h
1484 11-06-2017 03:35:00 12.9 C 10.14 g/m*3 12.9 C 0 km/h
1485 11-06-2017 03:40:00 12.9 C 10.14 g/m*3 12.9 C 0 km/h
1486 11-06-2017 03:45:00 12.9 C 10.14 g/m*3 12.9 C 0 km/h
1487 11-06-2017 03:50:00 12.9 C 10.14 g/m*3 12.9 C 0 km/h
1488 11-06-2017 03:55:00 12.9 C 10.26 g/m*3 12.9 C 0 km/h
1489 11-06-2017 04:00:00 12.9 C 10.26 g/m*3 12.9 C 0 km/h
1490 11-06-2017 04:05:00 12.9 C 10.26 g/m*3 12.9 C 0 km/h
1491 11-06-2017 04:10:00 12.9 C 10.14 g/m*3 12.9 C 0 km/h
1492 11-06-2017 04:15:00 12.8 C 10.08 g/m*3 12.8 C 0 km/h
1493 11-06-2017 04:20:00 12.8 C 10.08 g/m*3 12.8 C 0 km/h
1494 11-06-2017 04:25:00 12.7 C 10.02 g/m*3 12.7 C 0 km/h
1495 11-06-2017 04:30:00 12.6 C 9.96 g/m*3 12.6 C 0 km/h
1496 11-06-2017 04:35:00 12.6 C 9.96 g/m*3 12.6 C 0 km/h
1497 11-06-2017 04:40:00 12.4 C 9.83 g/m*3 12.4 C 0 km/h
1498 11-06-2017 04:45:00 12.4 C 9.94 g/m*3 12.4 C 0 km/h
1499 11-06-2017 04:50:00 12.3 C 9.88 g/m*3 12.3 C 0 km/h
1500 11-06-2017 04:55:00 12.2 C 9.82 g/m*3 12.2 C 0 km/h
Sensor: Nr:Datum:Temp:Abs-Feuchte:Windchill:Wind:
Aussen-T/F 1501 11-06-2017 05:00:00 12.2 C 9.82 g/m*3 12.2 C 0 km/h
1502 11-06-2017 05:05:00 12.2 C 9.82 g/m*3 12.2 C 0 km/h
1503 11-06-2017 05:10:00 12.1 C 9.76 g/m*3 12.1 C 0 km/h
1504 11-06-2017 05:15:00 12.1 C 9.76 g/m*3 12.1 C 0 km/h
1505 11-06-2017 05:20:00 12.1 C 9.87 g/m*3 12.1 C 0 km/h
1506 11-06-2017 05:25:00 12 C 9.8 g/m*3 12 C 0 km/h
1507 11-06-2017 05:30:00 11.9 C 9.74 g/m*3 11.9 C 0 km/h
1508 11-06-2017 05:35:00 11.9 C 9.74 g/m*3 11.9 C 0 km/h
1509 11-06-2017 05:40:00 11.9 C 9.74 g/m*3 11.9 C 0 km/h
1510 11-06-2017 05:45:00 11.9 C 9.74 g/m*3 11.9 C 0 km/h
1511 11-06-2017 05:50:00 11.9 C 9.74 g/m*3 11.9 C 0 km/h
1512 11-06-2017 05:55:00 11.9 C 9.74 g/m*3 11.9 C 0 km/h
1513 11-06-2017 06:00:00 11.9 C 9.74 g/m*3 11.9 C 0 km/h
1514 11-06-2017 06:05:00 11.9 C 9.74 g/m*3 11.9 C 0 km/h
1515 11-06-2017 06:10:00 11.9 C 9.85 g/m*3 11.9 C 0 km/h
1516 11-06-2017 06:15:00 11.9 C 9.85 g/m*3 11.9 C 0 km/h
1517 11-06-2017 06:20:00 11.9 C 9.85 g/m*3 11.9 C 0 km/h
1518 11-06-2017 06:25:00 11.9 C 9.85 g/m*3 11.9 C 0 km/h
1519 11-06-2017 06:30:00 12 C 9.91 g/m*3 12 C 0 km/h
1520 11-06-2017 06:35:00 12.1 C 9.97 g/m*3 12.1 C 0 km/h
1521 11-06-2017 06:40:00 12.1 C 9.97 g/m*3 12.1 C 0 km/h
1522 11-06-2017 06:45:00 12.2 C 10.04 g/m*3 12.2 C 0 km/h
1523 11-06-2017 06:50:00 12.2 C 10.04 g/m*3 12.2 C 0 km/h
1524 11-06-2017 06:55:00 12.3 C 10.21 g/m*3 12.3 C 0 km/h
1525 11-06-2017 07:00:00 12.4 C 10.27 g/m*3 12.4 C 0 km/h
Sensor: Nr:Datum:Temp:Abs-Feuchte:Windchill:Wind:
Aussen-T/F 1526 11-06-2017 07:05:00 12.6 C 10.4 g/m*3 12.6 C 0 km/h
1527 11-06-2017 07:10:00 12.8 C 10.53 g/m*3 12.8 C 0 km/h
1528 11-06-2017 07:15:00 12.9 C 10.59 g/m*3 12.9 C 0 km/h
1529 11-06-2017 07:20:00 13 C 10.66 g/m*3 13 C 0 km/h
1530 11-06-2017 07:25:00 13.2 C 10.79 g/m*3 13.2 C 0 km/h
1531 11-06-2017 07:30:00 13.4 C 10.93 g/m*3 13.4 C 0 km/h
1532 11-06-2017 07:35:00 13.6 C 11.06 g/m*3 13.6 C 0 km/h
1533 11-06-2017 07:40:00 13.8 C 11.2 g/m*3 13.8 C 0 km/h
1534 11-06-2017 07:45:00 13.9 C 11.27 g/m*3 13.9 C 0 km/h
1535 11-06-2017 07:50:00 14 C 11.34 g/m*3 14 C 0 km/h
1536 11-06-2017 07:55:00 14.1 C 11.29 g/m*3 14.1 C 0 km/h
1537 11-06-2017 08:00:00 14.2 C 11.36 g/m*3 14.2 C 0 km/h
1538 11-06-2017 08:05:00 14.2 C 11.36 g/m*3 14.2 C 0 km/h
1539 11-06-2017 08:10:00 14.3 C 11.43 g/m*3 14.3 C 0 km/h
1540 11-06-2017 08:15:00 14.4 C 11.5 g/m*3 14.4 C 0 km/h
1541 11-06-2017 08:20:00 14.6 C 11.64 g/m*3 14.6 C 0 km/h
1542 11-06-2017 08:25:00 14.7 C 11.71 g/m*3 14.7 C 0 km/h
1543 11-06-2017 08:30:00 14.8 C 11.78 g/m*3 14.8 C 0 km/h
1544 11-06-2017 08:35:00 14.9 C 11.73 g/m*3 14.9 C 0 km/h
1545 11-06-2017 08:40:00 15 C 11.8 g/m*3 15 C 0 km/h
1546 11-06-2017 08:45:00 15.1 C 11.87 g/m*3 15.1 C 0 km/h
1547 11-06-2017 08:50:00 15.2 C 11.94 g/m*3 15.2 C 0 km/h
1548 11-06-2017 08:55:00 15.2 C 11.94 g/m*3 15.2 C 0 km/h
1549 11-06-2017 09:00:00 15.3 C 12.01 g/m*3 15.3 C 0 km/h
1550 11-06-2017 09:05:00 15.4 C 11.96 g/m*3 15.4 C 0 km/h
Sensor: Nr:Datum:Temp:Abs-Feuchte:Windchill:Wind:
Aussen-T/F 1551 11-06-2017 09:10:00 15.6 C 12.1 g/m*3 15.6 C 0 km/h
1552 11-06-2017 09:15:00 15.7 C 12.18 g/m*3 15.7 C 0 km/h
1553 11-06-2017 09:20:00 15.8 C 12.25 g/m*3 15.8 C 0 km/h
1554 11-06-2017 09:25:00 16 C 12.26 g/m*3 16 C 0 km/h
1555 11-06-2017 09:30:00 16.3 C 12.62 g/m*3 16.3 C 0 km/h
1556 11-06-2017 09:35:00 16.6 C 12.71 g/m*3 16.6 C 0 km/h
1557 11-06-2017 09:40:00 16.8 C 12.87 g/m*3 16.8 C 0 km/h
1558 11-06-2017 09:45:00 17.2 C 13.18 g/m*3 17.2 C 0 km/h
1559 11-06-2017 09:50:00 17.4 C 13.19 g/m*3 17.4 C 0 km/h
1560 11-06-2017 09:55:00 17.7 C 13.43 g/m*3 17.7 C 0 km/h
1561 11-06-2017 10:00:00 17.9 C 13.59 g/m*3 17.9 C 0 km/h
1562 11-06-2017 10:05:00 18.2 C 13.37 g/m*3 18.2 C 0 km/h
1563 11-06-2017 10:10:00 18.6 C 13.69 g/m*3 18.6 C 0 km/h
1564 11-06-2017 10:15:00 18.9 C 13.93 g/m*3 18.9 C 0 km/h
1565 11-06-2017 10:20:00 19.3 C 14.1 g/m*3 19.3 C 0 km/h
1566 11-06-2017 10:25:00 19.6 C 14.01 g/m*3 19.6 C 0 km/h
1567 11-06-2017 10:30:00 19.9 C 14.43 g/m*3 19.9 C 0 km/h
1568 11-06-2017 10:35:00 20.3 C 14.42 g/m*3 20.3 C 0 km/h
1569 11-06-2017 10:40:00 20.8 C 14.49 g/m*3 20.8 C 0 km/h
1570 11-06-2017 10:45:00 21.3 C 14.35 g/m*3 21.3 C 0 km/h
1571 11-06-2017 10:50:00 21.6 C 14.22 g/m*3 21.6 C 0 km/h
1572 11-06-2017 10:55:00 21.9 C 12.74 g/m*3 21.9 C 8.1 km/h
1573 11-06-2017 11:00:00 22.3 C 12.83 g/m*3 22.3 C 8.1 km/h
1574 11-06-2017 11:05:00 22.5 C 13.38 g/m*3 22.5 C 1.6 km/h
1575 11-06-2017 11:10:00 22.7 C 12.93 g/m*3 22.7 C 6.4 km/h
Sensor: Nr:Datum:Temp:Abs-Feuchte:Windchill:Wind:
Aussen-T/F 1576 11-06-2017 11:15:00 22.9 C 12.47 g/m*3 22.9 C 6.4 km/h
1577 11-06-2017 11:20:00 23.1 C 13.23 g/m*3 23.1 C 4.8 km/h
1578 11-06-2017 11:25:00 23.1 C 11.78 g/m*3 23.1 C 6.4 km/h
1579 11-06-2017 11:30:00 23.2 C 12.47 g/m*3 23.2 C 4.8 km/h
1580 11-06-2017 11:35:00 23.3 C 12.55 g/m*3 23.3 C 3.2 km/h
1581 11-06-2017 11:40:00 23.3 C 12.96 g/m*3 23.3 C 4.8 km/h
1582 11-06-2017 11:45:00 23.4 C 12.62 g/m*3 23.4 C 6.4 km/h
1583 11-06-2017 11:50:00 23.8 C 12.26 g/m*3 23.8 C 6.4 km/h
1584 11-06-2017 11:55:00 24.1 C 12.69 g/m*3 24.1 C 6.4 km/h
1585 11-06-2017 12:00:00 24.1 C 12.25 g/m*3 24.1 C 6.4 km/h
1586 11-06-2017 12:05:00 24.1 C 12.03 g/m*3 24.1 C 4.8 km/h
1587 11-06-2017 12:10:00 24.3 C 11.73 g/m*3 24.3 C 9.7 km/h
1588 11-06-2017 12:15:00 24.5 C 12.09 g/m*3 24.5 C 9.7 km/h
1589 11-06-2017 12:20:00 24.7 C 12.68 g/m*3 24.7 C 9.7 km/h
1590 11-06-2017 12:25:00 24.8 C 12.29 g/m*3 24.8 C 4.8 km/h
1591 11-06-2017 12:30:00 24.7 C 12.22 g/m*3 24.7 C 3.2 km/h
1592 11-06-2017 12:35:00 24.7 C 12 g/m*3 24.7 C 4.8 km/h
1593 11-06-2017 12:40:00 24.8 C 12.06 g/m*3 24.8 C 6.4 km/h
1594 11-06-2017 12:45:00 24.8 C 11.84 g/m*3 24.8 C 4.8 km/h
1595 11-06-2017 12:50:00 24.9 C 11.67 g/m*3 24.9 C 6.4 km/h
1596 11-06-2017 12:55:00 25.1 C 12.04 g/m*3 25.1 C 8.1 km/h
1597 11-06-2017 13:00:00 25.2 C 12.34 g/m*3 25.2 C 3.2 km/h
1598 11-06-2017 13:05:00 25.4 C 11.77 g/m*3 25.4 C 9.7 km/h
1599 11-06-2017 13:10:00 25.6 C 11.9 g/m*3 25.6 C 4.8 km/h
1600 11-06-2017 13:15:00 25.6 C 11.9 g/m*3 25.6 C 9.7 km/h
Sensor: Nr:Datum:Temp:Abs-Feuchte:Windchill:Wind:
Aussen-T/F 1601 11-06-2017 13:20:00 25.7 C 11.73 g/m*3 25.7 C 8.1 km/h
1602 11-06-2017 13:25:00 25.8 C 12.28 g/m*3 25.8 C 6.4 km/h
1603 11-06-2017 13:30:00 25.8 C 12.04 g/m*3 25.8 C 6.4 km/h
1604 11-06-2017 13:35:00 26 C 11.44 g/m*3 26 C 6.4 km/h
1605 11-06-2017 13:40:00 26.2 C 11.82 g/m*3 26.2 C 8.1 km/h
1606 11-06-2017 13:45:00 26.3 C 11.39 g/m*3 26.3 C 8.1 km/h
1607 11-06-2017 13:50:00 26.4 C 12.7 g/m*3 26.4 C 3.2 km/h
1608 11-06-2017 13:55:00 26.5 C 11.51 g/m*3 26.5 C 4.8 km/h
1609 11-06-2017 14:00:00 26.6 C 11.83 g/m*3 26.6 C 8.1 km/h
1610 11-06-2017 14:05:00 26.7 C 12.15 g/m*3 26.7 C 8.1 km/h
1611 11-06-2017 14:10:00 26.8 C 12.47 g/m*3 26.8 C 11.3 km/h
1612 11-06-2017 14:15:00 26.9 C 12.8 g/m*3 26.9 C 8.1 km/h
1613 11-06-2017 14:20:00 27.1 C 12.68 g/m*3 27.1 C 11.3 km/h
1614 11-06-2017 14:25:00 27.2 C 12.49 g/m*3 27.2 C 9.7 km/h
1615 11-06-2017 14:30:00 27.3 C 12.82 g/m*3 27.3 C 4.8 km/h
1616 11-06-2017 14:35:00 27.4 C 12.63 g/m*3 27.4 C 9.7 km/h
1617 11-06-2017 14:40:00 27.4 C 12.37 g/m*3 27.4 C 4.8 km/h
1618 11-06-2017 14:45:00 27.6 C 12.5 g/m*3 27.6 C 6.4 km/h
1619 11-06-2017 14:50:00 27.8 C 12.37 g/m*3 27.8 C 6.4 km/h
1620 11-06-2017 14:55:00 28.1 C 13.4 g/m*3 28.1 C 6.4 km/h
1621 11-06-2017 15:00:00 28.2 C 13.2 g/m*3 28.2 C 9.7 km/h
1622 11-06-2017 15:05:00 28.6 C 13.77 g/m*3 28.6 C 4.8 km/h
1623 11-06-2017 15:10:00 29.1 C 13.28 g/m*3 29.1 C 6.4 km/h
1624 11-06-2017 15:15:00 29.1 C 12.42 g/m*3 29.1 C 3.2 km/h
1625 11-06-2017 15:20:00 29.2 C 12.49 g/m*3 29.2 C 8.1 km/h
Sensor: Nr:Datum:Temp:Abs-Feuchte:Windchill:Wind:
Aussen-T/F 1626 11-06-2017 15:25:00 29.3 C 13.43 g/m*3 29.3 C 4.8 km/h
1627 11-06-2017 15:30:00 29.7 C 12.83 g/m*3 29.7 C 12.9 km/h
1628 11-06-2017 15:35:00 30.1 C 12.5 g/m*3 30.1 C 8.1 km/h
1629 11-06-2017 15:40:00 30.7 C 12.91 g/m*3 30.7 C 14.5 km/h
1630 11-06-2017 15:45:00 31.2 C 12.29 g/m*3 31.2 C 11.3 km/h
1631 11-06-2017 15:50:00 31.5 C 12.82 g/m*3 31.5 C 11.3 km/h
1632 11-06-2017 15:55:00 31.6 C 12.56 g/m*3 31.6 C 16.1 km/h
1633 11-06-2017 16:00:00 31.7 C 12.96 g/m*3 31.7 C 12.9 km/h
1634 11-06-2017 16:05:00 31.6 C 12.23 g/m*3 31.6 C 9.7 km/h
1635 11-06-2017 16:10:00 31.2 C 13.91 g/m*3 31.2 C 4.8 km/h
1636 11-06-2017 16:15:00 30.8 C 12.66 g/m*3 30.8 C 6.4 km/h
1637 11-06-2017 16:20:00 30.7 C 15.43 g/m*3 30.7 C 4.8 km/h
1638 11-06-2017 16:25:00 30.3 C 13.87 g/m*3 30.3 C 3.2 km/h
1639 11-06-2017 16:30:00 29.8 C 14.7 g/m*3 29.8 C 0 km/h
1640 11-06-2017 16:35:00 29.3 C 15.47 g/m*3 29.3 C 1.6 km/h
1641 11-06-2017 16:40:00 28.6 C 15.74 g/m*3 28.6 C 1.6 km/h
1642 11-06-2017 16:45:00 28.1 C 15.31 g/m*3 28.1 C 0 km/h
1643 11-06-2017 16:50:00 27.6 C 15.96 g/m*3 27.6 C 0 km/h
1644 11-06-2017 16:55:00 27.2 C 15.35 g/m*3 27.2 C 0 km/h
1645 11-06-2017 17:00:00 26.8 C 15.27 g/m*3 26.8 C 0 km/h
1646 11-06-2017 17:05:00 26.6 C 15.1 g/m*3 26.6 C 1.6 km/h
1647 11-06-2017 17:10:00 26.3 C 15.35 g/m*3 26.3 C 0 km/h
1648 11-06-2017 17:15:00 26.2 C 16 g/m*3 26.2 C 0 km/h
1649 11-06-2017 17:20:00 26.3 C 16.59 g/m*3 26.3 C 0 km/h
1650 11-06-2017 17:25:00 26.7 C 15.19 g/m*3 26.7 C 1.6 km/h
Sensor: Nr:Datum:Temp:Abs-Feuchte:Windchill:Wind:
Aussen-T/F 1651 11-06-2017 17:30:00 27.2 C 16.91 g/m*3 27.2 C 0 km/h
1652 11-06-2017 17:35:00 27.6 C 17.03 g/m*3 27.6 C 0 km/h
1653 11-06-2017 17:40:00 27.7 C 17.12 g/m*3 27.7 C 0 km/h
1654 11-06-2017 17:45:00 28.3 C 17.42 g/m*3 28.3 C 3.2 km/h
1655 11-06-2017 17:50:00 28.7 C 17.24 g/m*3 28.7 C 0 km/h
1656 11-06-2017 17:55:00 29.2 C 16.26 g/m*3 29.2 C 4.8 km/h
1657 11-06-2017 18:00:00 29.7 C 16.41 g/m*3 29.7 C 1.6 km/h
1658 11-06-2017 18:05:00 29.8 C 14.7 g/m*3 29.8 C 3.2 km/h
1659 11-06-2017 18:10:00 29.6 C 14.54 g/m*3 29.6 C 4.8 km/h
1660 11-06-2017 18:15:00 29.4 C 17.32 g/m*3 29.4 C 1.6 km/h
1661 11-06-2017 18:20:00 29.3 C 17.23 g/m*3 29.3 C 0 km/h
1662 11-06-2017 18:25:00 29.2 C 15.39 g/m*3 29.2 C 1.6 km/h
1663 11-06-2017 18:30:00 29 C 16.95 g/m*3 29 C 0 km/h
1664 11-06-2017 18:35:00 28.7 C 16.67 g/m*3 28.7 C 1.6 km/h
1665 11-06-2017 18:40:00 28.2 C 16.77 g/m*3 28.2 C 1.6 km/h
1666 11-06-2017 18:45:00 27.8 C 16.14 g/m*3 27.8 C 1.6 km/h
1667 11-06-2017 18:50:00 27.3 C 16.22 g/m*3 27.3 C 1.6 km/h
1668 11-06-2017 18:55:00 26.9 C 15.87 g/m*3 26.9 C 1.6 km/h
1669 11-06-2017 19:00:00 26.6 C 15.86 g/m*3 26.6 C 1.6 km/h
1670 11-06-2017 19:05:00 26.3 C 15.6 g/m*3 26.3 C 1.6 km/h
1671 11-06-2017 19:10:00 26.1 C 15.91 g/m*3 26.1 C 0 km/h
1672 11-06-2017 19:15:00 25.8 C 15.41 g/m*3 25.8 C 1.6 km/h
1673 11-06-2017 19:20:00 25.6 C 14.52 g/m*3 25.6 C 1.6 km/h
1674 11-06-2017 19:25:00 25.3 C 14.51 g/m*3 25.3 C 1.6 km/h
1675 11-06-2017 19:30:00 25.1 C 14.35 g/m*3 25.1 C 1.6 km/h
Sensor: Nr:Datum:Temp:Abs-Feuchte:Windchill:Wind:
Aussen-T/F 1676 11-06-2017 19:35:00 24.9 C 13.73 g/m*3 24.9 C 3.2 km/h
1677 11-06-2017 19:40:00 24.8 C 12.75 g/m*3 24.8 C 6.4 km/h
1678 11-06-2017 19:45:00 24.8 C 13.43 g/m*3 24.8 C 0 km/h
1679 11-06-2017 19:50:00 24.9 C 13.51 g/m*3 24.9 C 0 km/h
1680 11-06-2017 19:55:00 24.9 C 12.82 g/m*3 24.9 C 1.6 km/h
1681 11-06-2017 20:00:00 24.9 C 13.05 g/m*3 24.9 C 1.6 km/h
1682 11-06-2017 20:05:00 24.8 C 13.43 g/m*3 24.8 C 1.6 km/h
1683 11-06-2017 20:10:00 24.7 C 13.58 g/m*3 24.7 C 1.6 km/h
1684 11-06-2017 20:15:00 24.6 C 13.73 g/m*3 24.6 C 1.6 km/h
1685 11-06-2017 20:20:00 24.3 C 13.5 g/m*3 24.3 C 0 km/h
1686 11-06-2017 20:25:00 24.1 C 13.35 g/m*3 24.1 C 0 km/h
1687 11-06-2017 20:30:00 24 C 13.71 g/m*3 24 C 0 km/h
1688 11-06-2017 20:35:00 23.9 C 13.85 g/m*3 23.9 C 1.6 km/h
1689 11-06-2017 20:40:00 24.1 C 14 g/m*3 24.1 C 0 km/h
1690 11-06-2017 20:45:00 24.3 C 13.94 g/m*3 24.3 C 0 km/h
1691 11-06-2017 20:50:00 24.6 C 13.73 g/m*3 24.6 C 0 km/h
1692 11-06-2017 20:55:00 24.7 C 14.26 g/m*3 24.7 C 0 km/h
1693 11-06-2017 21:00:00 24.7 C 14.03 g/m*3 24.7 C 0 km/h
1694 11-06-2017 21:05:00 24.7 C 14.03 g/m*3 24.7 C 0 km/h
1695 11-06-2017 21:10:00 24.5 C 13.88 g/m*3 24.5 C 0 km/h
1696 11-06-2017 21:15:00 24.2 C 13.64 g/m*3 24.2 C 1.6 km/h
1697 11-06-2017 21:20:00 23.9 C 13.41 g/m*3 23.9 C 0 km/h
1698 11-06-2017 21:25:00 23.6 C 13.19 g/m*3 23.6 C 0 km/h
1699 11-06-2017 21:30:00 23.2 C 13.31 g/m*3 23.2 C 0 km/h
1700 11-06-2017 21:35:00 22.8 C 13 g/m*3 22.8 C 0 km/h
Sensor: Nr:Datum:Temp:Abs-Feuchte:Windchill:Wind:
Aussen-T/F 1701 11-06-2017 21:40:00 22.6 C 12.86 g/m*3 22.6 C 1.6 km/h
1702 11-06-2017 21:45:00 22.3 C 12.83 g/m*3 22.3 C 1.6 km/h
1703 11-06-2017 21:50:00 22.1 C 12.88 g/m*3 22.1 C 0 km/h
1704 11-06-2017 21:55:00 21.8 C 12.47 g/m*3 21.8 C 0 km/h
1705 11-06-2017 22:00:00 21.7 C 12.59 g/m*3 21.7 C 1.6 km/h
1706 11-06-2017 22:05:00 21.6 C 12.71 g/m*3 21.6 C 0 km/h
1707 11-06-2017 22:10:00 21.4 C 12.75 g/m*3 21.4 C 0 km/h
1708 11-06-2017 22:15:00 21.3 C 12.68 g/m*3 21.3 C 0 km/h
1709 11-06-2017 22:20:00 21.2 C 12.6 g/m*3 21.2 C 0 km/h
1710 11-06-2017 22:25:00 21.2 C 12.79 g/m*3 21.2 C 0 km/h
1711 11-06-2017 22:30:00 21.1 C 12.71 g/m*3 21.1 C 0 km/h
1712 11-06-2017 22:35:00 21 C 12.82 g/m*3 21 C 0 km/h
1713 11-06-2017 22:40:00 21 C 12.64 g/m*3 21 C 0 km/h
1714 11-06-2017 22:45:00 21.1 C 12.9 g/m*3 21.1 C 0 km/h
1715 11-06-2017 22:50:00 21 C 12.82 g/m*3 21 C 0 km/h
1716 11-06-2017 22:55:00 21 C 13.01 g/m*3 21 C 0 km/h
1717 11-06-2017 23:00:00 20.9 C 13.11 g/m*3 20.9 C 0 km/h
1718 11-06-2017 23:05:00 20.9 C 12.93 g/m*3 20.9 C 0 km/h
1719 11-06-2017 23:10:00 20.9 C 13.11 g/m*3 20.9 C 0 km/h
1720 11-06-2017 23:15:00 20.9 C 12.93 g/m*3 20.9 C 0 km/h
1721 11-06-2017 23:20:00 21 C 13.19 g/m*3 21 C 0 km/h
1722 11-06-2017 23:25:00 21 C 13.19 g/m*3 21 C 0 km/h
1723 11-06-2017 23:30:00 21.1 C 13.27 g/m*3 21.1 C 0 km/h
1724 11-06-2017 23:35:00 21.1 C 13.27 g/m*3 21.1 C 0 km/h
1725 11-06-2017 23:40:00 21.1 C 13.45 g/m*3 21.1 C 0 km/h
Sensor: Nr:Datum:Temp:Abs-Feuchte:Windchill:Wind:
Aussen-T/F 1726 11-06-2017 23:45:00 21.1 C 13.45 g/m*3 21.1 C 0 km/h
1727 11-06-2017 23:50:00 21.1 C 13.27 g/m*3 21.1 C 0 km/h
1728 11-06-2017 23:55:00 21 C 13.19 g/m*3 21 C 0 km/h
1729 12-06-2017 00:00:00 21 C 13.19 g/m*3 21 C 0 km/h
1730 12-06-2017 00:05:00 21 C 13.56 g/m*3 21 C 0 km/h
1731 12-06-2017 00:10:00 20.9 C 13.84 g/m*3 20.9 C 0 km/h
1732 12-06-2017 00:15:00 20.8 C 13.94 g/m*3 20.8 C 0 km/h
1733 12-06-2017 00:20:00 20.6 C 13.78 g/m*3 20.6 C 0 km/h
1734 12-06-2017 00:25:00 20.5 C 13.88 g/m*3 20.5 C 0 km/h
1735 12-06-2017 00:30:00 20.4 C 13.62 g/m*3 20.4 C 0 km/h
1736 12-06-2017 00:35:00 20.3 C 13.72 g/m*3 20.3 C 0 km/h
1737 12-06-2017 00:40:00 20.3 C 13.54 g/m*3 20.3 C 0 km/h
1738 12-06-2017 00:45:00 20.2 C 13.46 g/m*3 20.2 C 0 km/h
1739 12-06-2017 00:50:00 20.2 C 13.29 g/m*3 20.2 C 0 km/h
1740 12-06-2017 00:55:00 20.2 C 13.46 g/m*3 20.2 C 0 km/h
1741 12-06-2017 01:00:00 20.2 C 13.46 g/m*3 20.2 C 0 km/h
1742 12-06-2017 01:05:00 20.2 C 13.46 g/m*3 20.2 C 0 km/h
1743 12-06-2017 01:10:00 20.2 C 13.46 g/m*3 20.2 C 0 km/h
1744 12-06-2017 01:15:00 20.2 C 13.46 g/m*3 20.2 C 0 km/h
1745 12-06-2017 01:20:00 20.2 C 13.46 g/m*3 20.2 C 0 km/h
1746 12-06-2017 01:25:00 20.2 C 13.46 g/m*3 20.2 C 0 km/h
1747 12-06-2017 01:30:00 20.2 C 13.46 g/m*3 20.2 C 0 km/h
1748 12-06-2017 01:35:00 20.2 C 13.46 g/m*3 20.2 C 0 km/h
1749 12-06-2017 01:40:00 20.2 C 13.29 g/m*3 20.2 C 4.8 km/h
1750 12-06-2017 01:45:00 20.3 C 13.19 g/m*3 20.3 C 4.8 km/h
Sensor: Nr:Datum:Temp:Abs-Feuchte:Windchill:Wind:
Aussen-T/F 1751 12-06-2017 01:50:00 20.7 C 13.68 g/m*3 20.7 C 4.8 km/h
1752 12-06-2017 01:55:00 20.9 C 13.84 g/m*3 20.9 C 3.2 km/h
1753 12-06-2017 02:00:00 21.1 C 14 g/m*3 21.1 C 6.4 km/h
1754 12-06-2017 02:05:00 21.3 C 14.17 g/m*3 21.3 C 11.3 km/h
1755 12-06-2017 02:10:00 21.3 C 14.17 g/m*3 21.3 C 14.5 km/h
1756 12-06-2017 02:15:00 21.4 C 14.25 g/m*3 21.4 C 11.3 km/h
1757 12-06-2017 02:20:00 21.3 C 14.17 g/m*3 21.3 C 11.3 km/h
1758 12-06-2017 02:25:00 21.2 C 14.08 g/m*3 21.2 C 12.9 km/h
1759 12-06-2017 02:30:00 21.1 C 14 g/m*3 21.1 C 9.7 km/h
1760 12-06-2017 02:35:00 20.9 C 13.84 g/m*3 20.9 C 11.3 km/h
1761 12-06-2017 02:40:00 20.8 C 13.94 g/m*3 20.8 C 6.4 km/h
1762 12-06-2017 02:45:00 20.7 C 13.86 g/m*3 20.7 C 4.8 km/h
1763 12-06-2017 02:50:00 20.6 C 13.78 g/m*3 20.6 C 8.1 km/h
1764 12-06-2017 02:55:00 20.5 C 13.88 g/m*3 20.5 C 3.2 km/h
1765 12-06-2017 03:00:00 20.4 C 13.98 g/m*3 20.4 C 11.3 km/h
1766 12-06-2017 03:05:00 20.3 C 13.89 g/m*3 20.3 C 8.1 km/h
1767 12-06-2017 03:10:00 20.2 C 13.99 g/m*3 20.2 C 6.4 km/h
1768 12-06-2017 03:15:00 20.2 C 13.99 g/m*3 20.2 C 6.4 km/h
1769 12-06-2017 03:20:00 20.1 C 13.91 g/m*3 20.1 C 1.6 km/h
1770 12-06-2017 03:25:00 20 C 14 g/m*3 20 C 4.8 km/h
1771 12-06-2017 03:30:00 19.9 C 13.92 g/m*3 19.9 C 1.6 km/h
1772 12-06-2017 03:35:00 19.8 C 14.01 g/m*3 19.8 C 9.7 km/h
1773 12-06-2017 03:40:00 19.7 C 13.92 g/m*3 19.7 C 0 km/h
1774 12-06-2017 03:45:00 19.4 C 13.68 g/m*3 19.4 C 0 km/h
1775 12-06-2017 03:50:00 19.3 C 13.77 g/m*3 19.3 C 4.8 km/h
Sensor: Nr:Datum:Temp:Abs-Feuchte:Windchill:Wind:
Aussen-T/F 1776 12-06-2017 03:55:00 19.1 C 13.61 g/m*3 19.1 C 4.8 km/h
1777 12-06-2017 04:00:00 18.9 C 13.61 g/m*3 18.9 C 3.2 km/h
1778 12-06-2017 04:05:00 18.8 C 13.53 g/m*3 18.8 C 0 km/h
1779 12-06-2017 04:10:00 18.8 C 13.53 g/m*3 18.8 C 1.6 km/h
1780 12-06-2017 04:15:00 18.7 C 13.45 g/m*3 18.7 C 0 km/h
1781 12-06-2017 04:20:00 18.7 C 13.45 g/m*3 18.7 C 1.6 km/h
1782 12-06-2017 04:25:00 18.7 C 13.61 g/m*3 18.7 C 0 km/h
1783 12-06-2017 04:30:00 18.6 C 13.53 g/m*3 18.6 C 0 km/h
1784 12-06-2017 04:35:00 18.6 C 13.69 g/m*3 18.6 C 0 km/h
1785 12-06-2017 04:40:00 18.5 C 13.45 g/m*3 18.5 C 1.6 km/h
1786 12-06-2017 04:45:00 18.5 C 13.45 g/m*3 18.5 C 0 km/h
1787 12-06-2017 04:50:00 18.4 C 13.53 g/m*3 18.4 C 1.6 km/h
1788 12-06-2017 04:55:00 18.4 C 13.53 g/m*3 18.4 C 0 km/h
1789 12-06-2017 05:00:00 18.4 C 13.53 g/m*3 18.4 C 0 km/h
1790 12-06-2017 05:05:00 18.4 C 13.53 g/m*3 18.4 C 0 km/h
1791 12-06-2017 05:10:00 18.4 C 13.53 g/m*3 18.4 C 0 km/h
1792 12-06-2017 05:15:00 18.4 C 13.68 g/m*3 18.4 C 0 km/h
1793 12-06-2017 05:20:00 18.4 C 13.68 g/m*3 18.4 C 0 km/h
1794 12-06-2017 05:25:00 18.4 C 13.68 g/m*3 18.4 C 0 km/h
1795 12-06-2017 05:30:00 18.4 C 13.53 g/m*3 18.4 C 0 km/h
1796 12-06-2017 05:35:00 18.4 C 13.53 g/m*3 18.4 C 0 km/h
1797 12-06-2017 05:40:00 18.3 C 13.45 g/m*3 18.3 C 0 km/h
1798 12-06-2017 05:45:00 18.2 C 13.37 g/m*3 18.2 C 0 km/h
1799 12-06-2017 05:50:00 18.1 C 13.29 g/m*3 18.1 C 0 km/h
1800 12-06-2017 05:55:00 18 C 13.36 g/m*3 18 C 0 km/h
Sensor: Nr:Datum:Temp:Abs-Feuchte:Windchill:Wind:
Aussen-T/F 1801 12-06-2017 06:00:00 17.9 C 13.28 g/m*3 17.9 C 4.8 km/h
1802 12-06-2017 06:05:00 17.8 C 11.38 g/m*3 17.8 C 11.3 km/h
1803 12-06-2017 06:10:00 18.1 C 11.12 g/m*3 18.1 C 9.7 km/h
1804 12-06-2017 06:15:00 18.2 C 10.72 g/m*3 18.2 C 6.4 km/h
1805 12-06-2017 06:20:00 18.4 C 10.38 g/m*3 18.4 C 4.8 km/h
1806 12-06-2017 06:25:00 18.5 C 9.49 g/m*3 18.5 C 6.4 km/h
1807 12-06-2017 06:30:00 18.7 C 9.61 g/m*3 18.7 C 11.3 km/h
1808 12-06-2017 06:35:00 18.8 C 10.47 g/m*3 18.8 C 11.3 km/h
1809 12-06-2017 06:40:00 18.7 C 9.93 g/m*3 18.7 C 12.9 km/h
1810 12-06-2017 06:45:00 18.6 C 9.39 g/m*3 18.6 C 4.8 km/h
1811 12-06-2017 06:50:00 18.5 C 9.02 g/m*3 18.5 C 6.4 km/h
1812 12-06-2017 06:55:00 18.4 C 8.97 g/m*3 18.4 C 4.8 km/h
1813 12-06-2017 07:00:00 18.4 C 9.12 g/m*3 18.4 C 3.2 km/h
1814 12-06-2017 07:05:00 18.3 C 8.91 g/m*3 18.3 C 6.4 km/h
1815 12-06-2017 07:10:00 18.3 C 9.54 g/m*3 18.3 C 6.4 km/h
1816 12-06-2017 07:15:00 18.2 C 8.7 g/m*3 18.2 C 9.7 km/h
1817 12-06-2017 07:20:00 18.1 C 8.81 g/m*3 18.1 C 6.4 km/h
1818 12-06-2017 07:25:00 18 C 8.91 g/m*3 18 C 4.8 km/h
1819 12-06-2017 07:30:00 18 C 9.52 g/m*3 18 C 0 km/h
1820 12-06-2017 07:35:00 17.9 C 9.47 g/m*3 17.9 C 3.2 km/h
1821 12-06-2017 07:40:00 17.9 C 9.62 g/m*3 17.9 C 3.2 km/h
1822 12-06-2017 07:45:00 17.8 C 8.8 g/m*3 17.8 C 3.2 km/h
1823 12-06-2017 07:50:00 17.9 C 9.16 g/m*3 17.9 C 3.2 km/h
1824 12-06-2017 07:55:00 18 C 9.83 g/m*3 18 C 0 km/h
1825 12-06-2017 08:00:00 18.1 C 9.73 g/m*3 18.1 C 0 km/h
Sensor: Nr:Datum:Temp:Abs-Feuchte:Windchill:Wind:
Aussen-T/F 1826 12-06-2017 08:05:00 18.1 C 9.27 g/m*3 18.1 C 4.8 km/h
1827 12-06-2017 08:10:00 18.2 C 9.64 g/m*3 18.2 C 1.6 km/h
1828 12-06-2017 08:15:00 18.2 C 9.48 g/m*3 18.2 C 3.2 km/h
1829 12-06-2017 08:20:00 18.3 C 9.54 g/m*3 18.3 C 3.2 km/h
1830 12-06-2017 08:25:00 18.4 C 9.44 g/m*3 18.4 C 3.2 km/h
1831 12-06-2017 08:30:00 18.5 C 9.49 g/m*3 18.5 C 3.2 km/h
1832 12-06-2017 08:35:00 18.7 C 9.61 g/m*3 18.7 C 1.6 km/h
1833 12-06-2017 08:40:00 18.8 C 9.66 g/m*3 18.8 C 4.8 km/h
1834 12-06-2017 08:45:00 18.8 C 9.99 g/m*3 18.8 C 1.6 km/h
1835 12-06-2017 08:50:00 18.6 C 9.87 g/m*3 18.6 C 4.8 km/h
1836 12-06-2017 08:55:00 18.4 C 10.07 g/m*3 18.4 C 8.1 km/h
1837 12-06-2017 09:00:00 18.3 C 10.16 g/m*3 18.3 C 3.2 km/h
1838 12-06-2017 09:05:00 18.2 C 9.64 g/m*3 18.2 C 11.3 km/h
1839 12-06-2017 09:10:00 18.3 C 9.69 g/m*3 18.3 C 8.1 km/h
1840 12-06-2017 09:15:00 18.5 C 9.49 g/m*3 18.5 C 8.1 km/h
1841 12-06-2017 09:20:00 18.8 C 9.18 g/m*3 18.8 C 9.7 km/h
1842 12-06-2017 09:25:00 18.9 C 9.23 g/m*3 18.9 C 14.5 km/h
1843 12-06-2017 09:30:00 18.9 C 9.07 g/m*3 18.9 C 11.3 km/h
1844 12-06-2017 09:35:00 19 C 9.13 g/m*3 19 C 14.5 km/h
1845 12-06-2017 09:40:00 19.1 C 9.18 g/m*3 19.1 C 11.3 km/h
1846 12-06-2017 09:45:00 19.2 C 8.9 g/m*3 19.2 C 12.9 km/h
1847 12-06-2017 09:50:00 19.3 C 8.63 g/m*3 19.3 C 16.1 km/h
1848 12-06-2017 09:55:00 19.4 C 9.01 g/m*3 19.4 C 6.4 km/h
1849 12-06-2017 10:00:00 19.4 C 9.18 g/m*3 19.4 C 11.3 km/h
1850 12-06-2017 10:05:00 19.5 C 8.89 g/m*3 19.5 C 11.3 km/h
Sensor: Nr:Datum:Temp:Abs-Feuchte:Windchill:Wind:
Aussen-T/F 1851 12-06-2017 10:10:00 19.6 C 8.95 g/m*3 19.6 C 11.3 km/h
1852 12-06-2017 10:15:00 19.8 C 8.88 g/m*3 19.8 C 11.3 km/h
1853 12-06-2017 10:20:00 19.9 C 8.59 g/m*3 19.9 C 11.3 km/h
1854 12-06-2017 10:25:00 20.1 C 9.21 g/m*3 20.1 C 8.1 km/h
1855 12-06-2017 10:30:00 20.3 C 8.44 g/m*3 20.3 C 17.7 km/h
1856 12-06-2017 10:35:00 20.6 C 8.77 g/m*3 20.6 C 12.9 km/h
1857 12-06-2017 10:40:00 20.7 C 8.64 g/m*3 20.7 C 16.1 km/h
1858 12-06-2017 10:45:00 20.7 C 8.64 g/m*3 20.7 C 19.3 km/h
1859 12-06-2017 10:50:00 20.7 C 8.46 g/m*3 20.7 C 12.9 km/h
1860 12-06-2017 10:55:00 20.6 C 8.77 g/m*3 20.6 C 16.1 km/h
1861 12-06-2017 11:00:00 20.6 C 8.95 g/m*3 20.6 C 6.4 km/h
1862 12-06-2017 11:05:00 20.7 C 9 g/m*3 20.7 C 12.9 km/h
1863 12-06-2017 11:10:00 20.6 C 8.95 g/m*3 20.6 C 11.3 km/h
1864 12-06-2017 11:15:00 20.5 C 8.9 g/m*3 20.5 C 12.9 km/h
1865 12-06-2017 11:20:00 20.5 C 8.72 g/m*3 20.5 C 12.9 km/h
1866 12-06-2017 11:25:00 20.4 C 8.85 g/m*3 20.4 C 11.3 km/h
1867 12-06-2017 11:30:00 20.5 C 8.9 g/m*3 20.5 C 16.1 km/h
1868 12-06-2017 11:35:00 20.6 C 8.95 g/m*3 20.6 C 16.1 km/h
1869 12-06-2017 11:40:00 20.7 C 8.82 g/m*3 20.7 C 11.3 km/h
1870 12-06-2017 11:45:00 20.7 C 8.82 g/m*3 20.7 C 14.5 km/h
1871 12-06-2017 11:50:00 20.6 C 8.77 g/m*3 20.6 C 9.7 km/h
1872 12-06-2017 11:55:00 20.6 C 8.59 g/m*3 20.6 C 11.3 km/h
1873 12-06-2017 12:00:00 20.6 C 8.59 g/m*3 20.6 C 14.5 km/h
1874 12-06-2017 12:05:00 20.7 C 8.64 g/m*3 20.7 C 6.4 km/h
1875 12-06-2017 12:10:00 20.8 C 8.15 g/m*3 20.8 C 9.7 km/h
Sensor: Nr:Datum:Temp:Abs-Feuchte:Windchill:Wind:
Aussen-T/F 1876 12-06-2017 12:15:00 20.9 C 8.2 g/m*3 20.9 C 16.1 km/h
1877 12-06-2017 12:20:00 20.9 C 8.38 g/m*3 20.9 C 11.3 km/h
1878 12-06-2017 12:25:00 21 C 8.43 g/m*3 21 C 16.1 km/h
1879 12-06-2017 12:30:00 21 C 8.43 g/m*3 21 C 14.5 km/h
1880 12-06-2017 12:35:00 21.1 C 8.48 g/m*3 21.1 C 11.3 km/h
1881 12-06-2017 12:40:00 21.1 C 8.11 g/m*3 21.1 C 16.1 km/h
1882 12-06-2017 12:45:00 21.1 C 8.11 g/m*3 21.1 C 11.3 km/h
1883 12-06-2017 12:50:00 21.1 C 8.11 g/m*3 21.1 C 14.5 km/h
1884 12-06-2017 12:55:00 21.1 C 7.74 g/m*3 21.1 C 11.3 km/h
1885 12-06-2017 13:00:00 21.1 C 7.74 g/m*3 21.1 C 12.9 km/h
1886 12-06-2017 13:05:00 21.3 C 8.02 g/m*3 21.3 C 12.9 km/h
1887 12-06-2017 13:10:00 21.4 C 7.87 g/m*3 21.4 C 11.3 km/h
1888 12-06-2017 13:15:00 21.4 C 7.87 g/m*3 21.4 C 12.9 km/h
1889 12-06-2017 13:20:00 21.4 C 7.69 g/m*3 21.4 C 19.3 km/h
1890 12-06-2017 13:25:00 21.5 C 8.3 g/m*3 21.5 C 6.4 km/h
1891 12-06-2017 13:30:00 21.6 C 8.35 g/m*3 21.6 C 11.3 km/h
1892 12-06-2017 13:35:00 21.8 C 7.67 g/m*3 21.8 C 11.3 km/h
1893 12-06-2017 13:40:00 21.9 C 7.53 g/m*3 21.9 C 14.5 km/h
1894 12-06-2017 13:45:00 21.9 C 8.1 g/m*3 21.9 C 17.7 km/h
1895 12-06-2017 13:50:00 22.1 C 7.61 g/m*3 22.1 C 16.1 km/h
1896 12-06-2017 13:55:00 22.2 C 7.66 g/m*3 22.2 C 11.3 km/h
1897 12-06-2017 14:00:00 22.1 C 7.42 g/m*3 22.1 C 9.7 km/h
1898 12-06-2017 14:05:00 22.2 C 7.66 g/m*3 22.2 C 14.5 km/h
1899 12-06-2017 14:10:00 22.2 C 7.66 g/m*3 22.2 C 11.3 km/h
1900 12-06-2017 14:15:00 22.4 C 7.94 g/m*3 22.4 C 12.9 km/h
Sensor: Nr:Datum:Temp:Abs-Feuchte:Windchill:Wind:
Aussen-T/F 1901 12-06-2017 14:20:00 22.5 C 8.19 g/m*3 22.5 C 9.7 km/h
1902 12-06-2017 14:25:00 22.6 C 7.83 g/m*3 22.6 C 12.9 km/h
1903 12-06-2017 14:30:00 22.6 C 7.43 g/m*3 22.6 C 16.1 km/h
1904 12-06-2017 14:35:00 22.6 C 7.63 g/m*3 22.6 C 17.7 km/h
1905 12-06-2017 14:40:00 22.7 C 7.88 g/m*3 22.7 C 9.7 km/h
1906 12-06-2017 14:45:00 22.8 C 7.92 g/m*3 22.8 C 11.3 km/h
1907 12-06-2017 14:50:00 23.1 C 8.27 g/m*3 23.1 C 14.5 km/h
1908 12-06-2017 14:55:00 23.2 C 7.9 g/m*3 23.2 C 12.9 km/h
1909 12-06-2017 15:00:00 23.2 C 8.11 g/m*3 23.2 C 14.5 km/h
1910 12-06-2017 15:05:00 23.3 C 8.36 g/m*3 23.3 C 11.3 km/h
1911 12-06-2017 15:10:00 23.7 C 8.56 g/m*3 23.7 C 14.5 km/h
1912 12-06-2017 15:15:00 23.8 C 8.39 g/m*3 23.8 C 11.3 km/h
1913 12-06-2017 15:20:00 24.1 C 8.75 g/m*3 24.1 C 11.3 km/h
1914 12-06-2017 15:25:00 24.4 C 8.46 g/m*3 24.4 C 19.3 km/h
1915 12-06-2017 15:30:00 24.4 C 8.23 g/m*3 24.4 C 16.1 km/h
1916 12-06-2017 15:35:00 24.5 C 8.28 g/m*3 24.5 C 14.5 km/h
1917 12-06-2017 15:40:00 24.7 C 8.83 g/m*3 24.7 C 14.5 km/h
1918 12-06-2017 15:45:00 25.1 C 8.33 g/m*3 25.1 C 16.1 km/h
1919 12-06-2017 15:50:00 25.1 C 8.33 g/m*3 25.1 C 12.9 km/h
1920 12-06-2017 15:55:00 25.2 C 8.15 g/m*3 25.2 C 19.3 km/h
1921 12-06-2017 16:00:00 25.2 C 8.15 g/m*3 25.2 C 20.9 km/h
1922 12-06-2017 16:05:00 25.1 C 8.33 g/m*3 25.1 C 11.3 km/h
1923 12-06-2017 16:10:00 25.3 C 8.43 g/m*3 25.3 C 16.1 km/h
1924 12-06-2017 16:15:00 25.5 C 8.76 g/m*3 25.5 C 14.5 km/h
1925 12-06-2017 16:20:00 25.4 C 9.18 g/m*3 25.4 C 16.1 km/h
Sensor: Nr:Datum:Temp:Abs-Feuchte:Windchill:Wind:
Aussen-T/F 1926 12-06-2017 16:25:00 25.6 C 8.57 g/m*3 25.6 C 11.3 km/h
1927 12-06-2017 16:30:00 25.6 C 8.81 g/m*3 25.6 C 16.1 km/h
1928 12-06-2017 16:35:00 25.3 C 8.19 g/m*3 25.3 C 12.9 km/h
1929 12-06-2017 16:40:00 25.1 C 8.33 g/m*3 25.1 C 9.7 km/h
1930 12-06-2017 16:45:00 24.9 C 8.7 g/m*3 24.9 C 12.9 km/h
1931 12-06-2017 16:50:00 25.1 C 8.8 g/m*3 25.1 C 14.5 km/h
1932 12-06-2017 16:55:00 25.2 C 9.08 g/m*3 25.2 C 16.1 km/h
1933 12-06-2017 17:00:00 24.9 C 9.16 g/m*3 24.9 C 14.5 km/h
1934 12-06-2017 17:05:00 24.6 C 9.23 g/m*3 24.6 C 14.5 km/h
1935 12-06-2017 17:10:00 24.6 C 9.23 g/m*3 24.6 C 17.7 km/h
1936 12-06-2017 17:15:00 24.3 C 9.29 g/m*3 24.3 C 11.3 km/h
1937 12-06-2017 17:20:00 23.8 C 9.46 g/m*3 23.8 C 9.7 km/h
1938 12-06-2017 17:25:00 23.8 C 9.46 g/m*3 23.8 C 14.5 km/h
1939 12-06-2017 17:30:00 23.6 C 9.36 g/m*3 23.6 C 16.1 km/h
1940 12-06-2017 17:35:00 23.4 C 9.25 g/m*3 23.4 C 12.9 km/h
1941 12-06-2017 17:40:00 23.1 C 9.1 g/m*3 23.1 C 14.5 km/h
1942 12-06-2017 17:45:00 22.6 C 9.24 g/m*3 22.6 C 12.9 km/h
1943 12-06-2017 17:50:00 22.6 C 9.44 g/m*3 22.6 C 17.7 km/h
1944 12-06-2017 17:55:00 22.6 C 9.64 g/m*3 22.6 C 12.9 km/h
1945 12-06-2017 18:00:00 22.8 C 9.35 g/m*3 22.8 C 20.9 km/h
1946 12-06-2017 18:05:00 23.2 C 9.56 g/m*3 23.2 C 14.5 km/h
1947 12-06-2017 18:10:00 23.1 C 9.51 g/m*3 23.1 C 17.7 km/h
1948 12-06-2017 18:15:00 23.1 C 9.51 g/m*3 23.1 C 17.7 km/h
1949 12-06-2017 18:20:00 23.2 C 9.56 g/m*3 23.2 C 12.9 km/h
1950 12-06-2017 18:25:00 23 C 9.45 g/m*3 23 C 17.7 km/h
Sensor: Nr:Datum:Temp:Abs-Feuchte:Windchill:Wind:
Aussen-T/F 1951 12-06-2017 18:30:00 22.8 C 9.55 g/m*3 22.8 C 16.1 km/h
1952 12-06-2017 18:35:00 22.6 C 9.44 g/m*3 22.6 C 12.9 km/h
1953 12-06-2017 18:40:00 22.4 C 9.33 g/m*3 22.4 C 11.3 km/h
1954 12-06-2017 18:45:00 22.1 C 9.37 g/m*3 22.1 C 14.5 km/h
1955 12-06-2017 18:50:00 22.2 C 9.62 g/m*3 22.2 C 11.3 km/h
1956 12-06-2017 18:55:00 22.2 C 9.82 g/m*3 22.2 C 14.5 km/h
1957 12-06-2017 19:00:00 22.4 C 9.53 g/m*3 22.4 C 12.9 km/h
1958 12-06-2017 19:05:00 22.4 C 9.33 g/m*3 22.4 C 12.9 km/h
1959 12-06-2017 19:10:00 22.2 C 9.23 g/m*3 22.2 C 14.5 km/h
1960 12-06-2017 19:15:00 21.9 C 9.26 g/m*3 21.9 C 11.3 km/h
1961 12-06-2017 19:20:00 21.8 C 9.4 g/m*3 21.8 C 12.9 km/h
1962 12-06-2017 19:25:00 21.7 C 9.35 g/m*3 21.7 C 11.3 km/h
1963 12-06-2017 19:30:00 21.7 C 9.35 g/m*3 21.7 C 11.3 km/h
1964 12-06-2017 19:35:00 21.7 C 9.35 g/m*3 21.7 C 11.3 km/h
1965 12-06-2017 19:40:00 21.6 C 9.48 g/m*3 21.6 C 12.9 km/h
1966 12-06-2017 19:45:00 21.3 C 9.32 g/m*3 21.3 C 14.5 km/h
1967 12-06-2017 19:50:00 21.2 C 9.27 g/m*3 21.2 C 14.5 km/h
1968 12-06-2017 19:55:00 21.1 C 9.4 g/m*3 21.1 C 11.3 km/h
1969 12-06-2017 20:00:00 20.9 C 9.47 g/m*3 20.9 C 9.7 km/h
1970 12-06-2017 20:05:00 20.9 C 9.65 g/m*3 20.9 C 6.4 km/h
1971 12-06-2017 20:10:00 20.8 C 9.42 g/m*3 20.8 C 11.3 km/h
1972 12-06-2017 20:15:00 20.7 C 9.54 g/m*3 20.7 C 8.1 km/h
1973 12-06-2017 20:20:00 20.6 C 9.49 g/m*3 20.6 C 8.1 km/h
1974 12-06-2017 20:25:00 20.5 C 9.43 g/m*3 20.5 C 11.3 km/h
1975 12-06-2017 20:30:00 20.3 C 9.32 g/m*3 20.3 C 14.5 km/h
Sensor: Nr:Datum:Temp:Abs-Feuchte:Windchill:Wind:
Aussen-T/F 1976 12-06-2017 20:35:00 20.2 C 9.62 g/m*3 20.2 C 11.3 km/h
1977 12-06-2017 20:40:00 20.2 C 9.62 g/m*3 20.2 C 4.8 km/h
1978 12-06-2017 20:45:00 20.1 C 9.73 g/m*3 20.1 C 8.1 km/h
1979 12-06-2017 20:50:00 19.8 C 9.57 g/m*3 19.8 C 8.1 km/h
1980 12-06-2017 20:55:00 19.6 C 9.62 g/m*3 19.6 C 8.1 km/h
1981 12-06-2017 21:00:00 19.3 C 9.62 g/m*3 19.3 C 4.8 km/h
1982 12-06-2017 21:05:00 19 C 9.61 g/m*3 19 C 9.7 km/h
1983 12-06-2017 21:10:00 18.7 C 9.45 g/m*3 18.7 C 8.1 km/h
1984 12-06-2017 21:15:00 18.5 C 9.49 g/m*3 18.5 C 8.1 km/h
1985 12-06-2017 21:20:00 18.3 C 9.54 g/m*3 18.3 C 4.8 km/h
1986 12-06-2017 21:25:00 18.2 C 9.79 g/m*3 18.2 C 4.8 km/h
1987 12-06-2017 21:30:00 18 C 9.98 g/m*3 18 C 3.2 km/h
1988 12-06-2017 21:35:00 17.7 C 9.51 g/m*3 17.7 C 9.7 km/h
1989 12-06-2017 21:40:00 17.6 C 9.75 g/m*3 17.6 C 4.8 km/h
1990 12-06-2017 21:45:00 17.3 C 9.72 g/m*3 17.3 C 0 km/h
1991 12-06-2017 21:50:00 17.1 C 9.75 g/m*3 17.1 C 1.6 km/h
1992 12-06-2017 21:55:00 16.8 C 9.87 g/m*3 16.8 C 6.4 km/h
1993 12-06-2017 22:00:00 16.5 C 9.83 g/m*3 16.5 C 1.6 km/h
1994 12-06-2017 22:05:00 16.3 C 9.71 g/m*3 16.3 C 3.2 km/h
1995 12-06-2017 22:10:00 16.2 C 9.79 g/m*3 16.2 C 4.8 km/h
1996 12-06-2017 22:15:00 16.1 C 9.73 g/m*3 16.1 C 1.6 km/h
1997 12-06-2017 22:20:00 15.9 C 9.62 g/m*3 15.9 C 1.6 km/h
1998 12-06-2017 22:25:00 15.8 C 9.69 g/m*3 15.8 C 1.6 km/h
1999 12-06-2017 22:30:00 15.8 C 9.69 g/m*3 15.8 C 1.6 km/h
2000 12-06-2017 22:35:00 15.7 C 9.63 g/m*3 15.7 C 0 km/h
Sensor: Nr:Datum:Temp:Abs-Feuchte:Windchill:Wind:
Aussen-T/F 2001 12-06-2017 22:40:00 15.6 C 9.58 g/m*3 15.6 C 0 km/h
2002 12-06-2017 22:45:00 15.6 C 9.58 g/m*3 15.6 C 0 km/h
2003 12-06-2017 22:50:00 15.4 C 9.59 g/m*3 15.4 C 3.2 km/h
2004 12-06-2017 22:55:00 15.3 C 9.4 g/m*3 15.3 C 3.2 km/h
2005 12-06-2017 23:00:00 15.3 C 9.53 g/m*3 15.3 C 1.6 km/h
2006 12-06-2017 23:05:00 15.2 C 9.48 g/m*3 15.2 C 1.6 km/h
2007 12-06-2017 23:10:00 15.2 C 9.48 g/m*3 15.2 C 0 km/h
2008 12-06-2017 23:15:00 15 C 9.36 g/m*3 15 C 0 km/h
2009 12-06-2017 23:20:00 14.9 C 9.3 g/m*3 14.9 C 0 km/h
2010 12-06-2017 23:25:00 14.8 C 9.12 g/m*3 14.8 C 0 km/h
2011 12-06-2017 23:30:00 14.8 C 9.25 g/m*3 14.8 C 0 km/h
2012 12-06-2017 23:35:00 14.8 C 9.25 g/m*3 14.8 C 4.8 km/h
2013 12-06-2017 23:40:00 14.8 C 9.25 g/m*3 14.8 C 3.2 km/h
2014 12-06-2017 23:45:00 14.8 C 8.99 g/m*3 14.8 C 3.2 km/h
2015 12-06-2017 23:50:00 14.8 C 8.99 g/m*3 14.8 C 1.6 km/h
2016 12-06-2017 23:55:00 14.9 C 8.92 g/m*3 14.9 C 1.6 km/h
2017 13-06-2017 00:00:00 14.8 C 8.99 g/m*3 14.8 C 0 km/h
2018 13-06-2017 00:05:00 14.8 C 9.12 g/m*3 14.8 C 0 km/h
2019 13-06-2017 00:10:00 14.7 C 9.07 g/m*3 14.7 C 0 km/h
2020 13-06-2017 00:15:00 14.4 C 9.02 g/m*3 14.4 C 0 km/h
2021 13-06-2017 00:20:00 14.3 C 8.97 g/m*3 14.3 C 0 km/h
2022 13-06-2017 00:25:00 14.2 C 9.04 g/m*3 14.2 C 0 km/h
2023 13-06-2017 00:30:00 14.1 C 8.98 g/m*3 14.1 C 0 km/h
2024 13-06-2017 00:35:00 14 C 9.05 g/m*3 14 C 0 km/h
2025 13-06-2017 00:40:00 14 C 8.93 g/m*3 14 C 0 km/h
Sensor: Nr:Datum:Temp:Abs-Feuchte:Windchill:Wind:
Aussen-T/F 2026 13-06-2017 00:45:00 14.1 C 8.98 g/m*3 14.1 C 0 km/h
2027 13-06-2017 00:50:00 14.1 C 8.98 g/m*3 14.1 C 1.6 km/h
2028 13-06-2017 00:55:00 14.3 C 8.97 g/m*3 14.3 C 1.6 km/h
2029 13-06-2017 01:00:00 14.4 C 9.02 g/m*3 14.4 C 0 km/h
2030 13-06-2017 01:05:00 14.5 C 9.08 g/m*3 14.5 C 0 km/h
2031 13-06-2017 01:10:00 14.6 C 9.13 g/m*3 14.6 C 1.6 km/h
2032 13-06-2017 01:15:00 14.7 C 9.19 g/m*3 14.7 C 1.6 km/h
2033 13-06-2017 01:20:00 14.8 C 9.12 g/m*3 14.8 C 3.2 km/h
2034 13-06-2017 01:25:00 14.9 C 9.18 g/m*3 14.9 C 0 km/h
2035 13-06-2017 01:30:00 15 C 9.23 g/m*3 15 C 0 km/h
2036 13-06-2017 01:35:00 15.1 C 9.29 g/m*3 15.1 C 0 km/h
2037 13-06-2017 01:40:00 15.1 C 9.29 g/m*3 15.1 C 0 km/h
2038 13-06-2017 01:45:00 15.2 C 9.35 g/m*3 15.2 C 0 km/h
2039 13-06-2017 01:50:00 15.2 C 9.35 g/m*3 15.2 C 1.6 km/h
2040 13-06-2017 01:55:00 15.2 C 9.35 g/m*3 15.2 C 0 km/h
2041 13-06-2017 02:00:00 15.2 C 9.35 g/m*3 15.2 C 0 km/h
2042 13-06-2017 02:05:00 15.2 C 9.35 g/m*3 15.2 C 0 km/h
2043 13-06-2017 02:10:00 15.1 C 9.29 g/m*3 15.1 C 0 km/h
2044 13-06-2017 02:15:00 15.1 C 9.29 g/m*3 15.1 C 1.6 km/h
2045 13-06-2017 02:20:00 15.1 C 9.42 g/m*3 15.1 C 1.6 km/h
2046 13-06-2017 02:25:00 15.1 C 9.42 g/m*3 15.1 C 3.2 km/h
2047 13-06-2017 02:30:00 15.1 C 9.29 g/m*3 15.1 C 3.2 km/h
2048 13-06-2017 02:35:00 15.1 C 9.42 g/m*3 15.1 C 3.2 km/h
2049 13-06-2017 02:40:00 15.1 C 9.29 g/m*3 15.1 C 1.6 km/h
2050 13-06-2017 02:45:00 15.1 C 9.42 g/m*3 15.1 C 6.4 km/h
Sensor: Nr:Datum:Temp:Abs-Feuchte:Windchill:Wind:
Aussen-T/F 2051 13-06-2017 02:50:00 15.1 C 9.42 g/m*3 15.1 C 1.6 km/h
2052 13-06-2017 02:55:00 15 C 9.49 g/m*3 15 C 0 km/h
2053 13-06-2017 03:00:00 14.9 C 9.3 g/m*3 14.9 C 1.6 km/h
2054 13-06-2017 03:05:00 14.8 C 9.37 g/m*3 14.8 C 0 km/h
2055 13-06-2017 03:10:00 14.8 C 9.5 g/m*3 14.8 C 0 km/h
2056 13-06-2017 03:15:00 14.7 C 9.32 g/m*3 14.7 C 6.4 km/h
2057 13-06-2017 03:20:00 14.7 C 9.44 g/m*3 14.7 C 0 km/h
2058 13-06-2017 03:25:00 14.6 C 9.39 g/m*3 14.6 C 0 km/h
2059 13-06-2017 03:30:00 14.5 C 9.33 g/m*3 14.5 C 3.2 km/h
2060 13-06-2017 03:35:00 14.4 C 9.39 g/m*3 14.4 C 1.6 km/h
2061 13-06-2017 03:40:00 14.3 C 9.34 g/m*3 14.3 C 6.4 km/h
2062 13-06-2017 03:45:00 14.3 C 9.46 g/m*3 14.3 C 3.2 km/h
2063 13-06-2017 03:50:00 14.2 C 9.4 g/m*3 14.2 C 0 km/h
2064 13-06-2017 03:55:00 14.2 C 9.52 g/m*3 14.2 C 0 km/h
2065 13-06-2017 04:00:00 14.1 C 9.47 g/m*3 14.1 C 0 km/h
2066 13-06-2017 04:05:00 14.1 C 9.47 g/m*3 14.1 C 4.8 km/h
2067 13-06-2017 04:10:00 14 C 9.53 g/m*3 14 C 0 km/h
2068 13-06-2017 04:15:00 13.9 C 9.47 g/m*3 13.9 C 1.6 km/h
2069 13-06-2017 04:20:00 13.9 C 9.35 g/m*3 13.9 C 4.8 km/h
2070 13-06-2017 04:25:00 13.9 C 9.47 g/m*3 13.9 C 0 km/h
2071 13-06-2017 04:30:00 13.8 C 9.41 g/m*3 13.8 C 1.6 km/h
2072 13-06-2017 04:35:00 13.8 C 9.41 g/m*3 13.8 C 0 km/h
2073 13-06-2017 04:40:00 13.7 C 9.47 g/m*3 13.7 C 1.6 km/h
2074 13-06-2017 04:45:00 13.6 C 9.42 g/m*3 13.6 C 0 km/h
2075 13-06-2017 04:50:00 13.4 C 9.3 g/m*3 13.4 C 4.8 km/h
Sensor: Nr:Datum:Temp:Abs-Feuchte:Windchill:Wind:
Aussen-T/F 2076 13-06-2017 04:55:00 13.3 C 9.24 g/m*3 13.3 C 0 km/h
2077 13-06-2017 05:00:00 13.2 C 9.19 g/m*3 13.2 C 0 km/h
2078 13-06-2017 05:05:00 12.9 C 9.13 g/m*3 12.9 C 0 km/h
2079 13-06-2017 05:10:00 12.7 C 9.02 g/m*3 12.7 C 0 km/h
2080 13-06-2017 05:15:00 12.6 C 9.07 g/m*3 12.6 C 0 km/h
2081 13-06-2017 05:20:00 12.3 C 9.01 g/m*3 12.3 C 0 km/h
2082 13-06-2017 05:25:00 12.2 C 9.06 g/m*3 12.2 C 0 km/h
2083 13-06-2017 05:30:00 12 C 8.95 g/m*3 12 C 0 km/h
2084 13-06-2017 05:35:00 11.8 C 8.95 g/m*3 11.8 C 0 km/h
2085 13-06-2017 05:40:00 11.7 C 8.99 g/m*3 11.7 C 0 km/h
2086 13-06-2017 05:45:00 11.6 C 8.94 g/m*3 11.6 C 0 km/h
2087 13-06-2017 05:50:00 11.4 C 8.83 g/m*3 11.4 C 0 km/h
2088 13-06-2017 05:55:00 11.4 C 8.93 g/m*3 11.4 C 0 km/h
2089 13-06-2017 06:00:00 11.3 C 8.87 g/m*3 11.3 C 1.6 km/h
2090 13-06-2017 06:05:00 11.3 C 8.87 g/m*3 11.3 C 0 km/h
2091 13-06-2017 06:10:00 11.3 C 8.98 g/m*3 11.3 C 1.6 km/h
2092 13-06-2017 06:15:00 11.3 C 8.98 g/m*3 11.3 C 0 km/h
2093 13-06-2017 06:20:00 11.3 C 8.98 g/m*3 11.3 C 0 km/h
2094 13-06-2017 06:25:00 11.3 C 8.98 g/m*3 11.3 C 1.6 km/h
2095 13-06-2017 06:30:00 11.3 C 9.08 g/m*3 11.3 C 1.6 km/h
2096 13-06-2017 06:35:00 11.4 C 9.14 g/m*3 11.4 C 0 km/h
2097 13-06-2017 06:40:00 11.4 C 9.14 g/m*3 11.4 C 6.4 km/h
2098 13-06-2017 06:45:00 11.4 C 9.14 g/m*3 11.4 C 1.6 km/h
2099 13-06-2017 06:50:00 11.4 C 9.14 g/m*3 11.4 C 6.4 km/h
2100 13-06-2017 06:55:00 11.6 C 9.25 g/m*3 11.6 C 4.8 km/h
Sensor: Nr:Datum:Temp:Abs-Feuchte:Windchill:Wind:
Aussen-T/F 2101 13-06-2017 07:00:00 11.6 C 9.25 g/m*3 11.6 C 8.1 km/h
2102 13-06-2017 07:05:00 11.7 C 9.31 g/m*3 11.7 C 3.2 km/h
2103 13-06-2017 07:10:00 11.7 C 9.31 g/m*3 11.7 C 3.2 km/h
2104 13-06-2017 07:15:00 11.8 C 9.37 g/m*3 11.8 C 8.1 km/h
2105 13-06-2017 07:20:00 11.9 C 9.32 g/m*3 11.9 C 4.8 km/h
2106 13-06-2017 07:25:00 12 C 9.38 g/m*3 12 C 6.4 km/h
2107 13-06-2017 07:30:00 12.1 C 9.44 g/m*3 12.1 C 8.1 km/h
2108 13-06-2017 07:35:00 12.2 C 9.39 g/m*3 12.2 C 8.1 km/h
2109 13-06-2017 07:40:00 12.3 C 9.45 g/m*3 12.3 C 8.1 km/h
2110 13-06-2017 07:45:00 12.4 C 9.51 g/m*3 12.4 C 4.8 km/h
2111 13-06-2017 07:50:00 12.6 C 9.62 g/m*3 12.6 C 1.6 km/h
2112 13-06-2017 07:55:00 12.6 C 9.62 g/m*3 12.6 C 4.8 km/h
2113 13-06-2017 08:00:00 12.7 C 9.57 g/m*3 12.7 C 3.2 km/h
2114 13-06-2017 08:05:00 12.8 C 9.63 g/m*3 12.8 C 6.4 km/h
2115 13-06-2017 08:10:00 12.9 C 9.69 g/m*3 12.9 C 4.8 km/h
2116 13-06-2017 08:15:00 13.1 C 9.7 g/m*3 13.1 C 6.4 km/h
2117 13-06-2017 08:20:00 13.3 C 9.7 g/m*3 13.3 C 8.1 km/h
2118 13-06-2017 08:25:00 13.6 C 9.77 g/m*3 13.6 C 6.4 km/h
2119 13-06-2017 08:30:00 13.8 C 9.77 g/m*3 13.8 C 6.4 km/h
2120 13-06-2017 08:35:00 14.1 C 9.83 g/m*3 14.1 C 4.8 km/h
2121 13-06-2017 08:40:00 14.2 C 9.89 g/m*3 14.2 C 4.8 km/h
2122 13-06-2017 08:45:00 14.3 C 9.71 g/m*3 14.3 C 3.2 km/h
2123 13-06-2017 08:50:00 14.5 C 9.95 g/m*3 14.5 C 1.6 km/h
2124 13-06-2017 08:55:00 14.6 C 9.89 g/m*3 14.6 C 1.6 km/h
2125 13-06-2017 09:00:00 14.7 C 10.07 g/m*3 14.7 C 1.6 km/h
Sensor: Nr:Datum:Temp:Abs-Feuchte:Windchill:Wind:
Aussen-T/F 2126 13-06-2017 09:05:00 14.6 C 10.14 g/m*3 14.6 C 0 km/h
2127 13-06-2017 09:10:00 14.6 C 10.14 g/m*3 14.6 C 3.2 km/h
2128 13-06-2017 09:15:00 14.7 C 10.07 g/m*3 14.7 C 3.2 km/h
2129 13-06-2017 09:20:00 14.8 C 10.13 g/m*3 14.8 C 3.2 km/h
2130 13-06-2017 09:25:00 14.9 C 10.32 g/m*3 14.9 C 0 km/h
2131 13-06-2017 09:30:00 15 C 10.39 g/m*3 15 C 1.6 km/h
2132 13-06-2017 09:35:00 15.1 C 10.45 g/m*3 15.1 C 0 km/h
2133 13-06-2017 09:40:00 15.2 C 10.12 g/m*3 15.2 C 1.6 km/h
2134 13-06-2017 09:45:00 15.4 C 10.51 g/m*3 15.4 C 0 km/h
2135 13-06-2017 09:50:00 15.6 C 10.24 g/m*3 15.6 C 1.6 km/h
2136 13-06-2017 09:55:00 15.9 C 10.29 g/m*3 15.9 C 8.1 km/h
2137 13-06-2017 10:00:00 16.3 C 10.13 g/m*3 16.3 C 4.8 km/h
2138 13-06-2017 10:05:00 16.7 C 10.23 g/m*3 16.7 C 3.2 km/h
2139 13-06-2017 10:10:00 16.9 C 10.36 g/m*3 16.9 C 4.8 km/h
2140 13-06-2017 10:15:00 17.2 C 10.4 g/m*3 17.2 C 6.4 km/h
2141 13-06-2017 10:20:00 17.3 C 10.31 g/m*3 17.3 C 1.6 km/h
2142 13-06-2017 10:25:00 17.6 C 10.35 g/m*3 17.6 C 1.6 km/h
2143 13-06-2017 10:30:00 18.1 C 10.51 g/m*3 18.1 C 4.8 km/h
2144 13-06-2017 10:35:00 18.3 C 10.16 g/m*3 18.3 C 8.1 km/h
2145 13-06-2017 10:40:00 18.4 C 10.22 g/m*3 18.4 C 1.6 km/h
2146 13-06-2017 10:45:00 18.6 C 10.35 g/m*3 18.6 C 9.7 km/h
2147 13-06-2017 10:50:00 18.7 C 10.25 g/m*3 18.7 C 3.2 km/h
2148 13-06-2017 10:55:00 18.7 C 10.09 g/m*3 18.7 C 3.2 km/h
2149 13-06-2017 11:00:00 18.7 C 9.93 g/m*3 18.7 C 4.8 km/h
2150 13-06-2017 11:05:00 18.6 C 9.71 g/m*3 18.6 C 1.6 km/h
Sensor: Nr:Datum:Temp:Abs-Feuchte:Windchill:Wind:
Aussen-T/F 2151 13-06-2017 11:10:00 18.5 C 9.97 g/m*3 18.5 C 3.2 km/h
2152 13-06-2017 11:15:00 18.6 C 10.19 g/m*3 18.6 C 3.2 km/h
2153 13-06-2017 11:20:00 18.7 C 9.93 g/m*3 18.7 C 6.4 km/h
2154 13-06-2017 11:25:00 18.7 C 9.61 g/m*3 18.7 C 4.8 km/h
2155 13-06-2017 11:30:00 18.6 C 9.87 g/m*3 18.6 C 1.6 km/h
2156 13-06-2017 11:35:00 18.8 C 10.47 g/m*3 18.8 C 0 km/h
2157 13-06-2017 11:40:00 18.9 C 9.88 g/m*3 18.9 C 1.6 km/h
2158 13-06-2017 11:45:00 19 C 9.94 g/m*3 19 C 1.6 km/h
2159 13-06-2017 11:50:00 19 C 9.78 g/m*3 19 C 3.2 km/h
2160 13-06-2017 11:55:00 18.9 C 9.72 g/m*3 18.9 C 4.8 km/h
2161 13-06-2017 12:00:00 18.9 C 9.4 g/m*3 18.9 C 8.1 km/h
2162 13-06-2017 12:05:00 19 C 9.94 g/m*3 19 C 3.2 km/h
2163 13-06-2017 12:10:00 19.2 C 9.89 g/m*3 19.2 C 4.8 km/h
2164 13-06-2017 12:15:00 19.2 C 9.73 g/m*3 19.2 C 4.8 km/h
2165 13-06-2017 12:20:00 19.3 C 9.95 g/m*3 19.3 C 4.8 km/h
2166 13-06-2017 12:25:00 19.3 C 9.62 g/m*3 19.3 C 6.4 km/h
2167 13-06-2017 12:30:00 19.3 C 9.79 g/m*3 19.3 C 6.4 km/h
2168 13-06-2017 12:35:00 19.2 C 9.89 g/m*3 19.2 C 8.1 km/h
2169 13-06-2017 12:40:00 19.3 C 9.95 g/m*3 19.3 C 4.8 km/h
2170 13-06-2017 12:45:00 19.4 C 10.01 g/m*3 19.4 C 4.8 km/h
2171 13-06-2017 12:50:00 19.6 C 10.13 g/m*3 19.6 C 6.4 km/h
2172 13-06-2017 12:55:00 19.8 C 9.91 g/m*3 19.8 C 11.3 km/h
2173 13-06-2017 13:00:00 19.9 C 9.79 g/m*3 19.9 C 9.7 km/h
2174 13-06-2017 13:05:00 19.9 C 9.62 g/m*3 19.9 C 6.4 km/h
2175 13-06-2017 13:10:00 19.9 C 10.31 g/m*3 19.9 C 3.2 km/h
Sensor: Nr:Datum:Temp:Abs-Feuchte:Windchill:Wind:
Aussen-T/F 2176 13-06-2017 13:15:00 20 C 9.85 g/m*3 20 C 6.4 km/h
2177 13-06-2017 13:20:00 20.1 C 9.91 g/m*3 20.1 C 1.6 km/h
2178 13-06-2017 13:25:00 20.1 C 10.08 g/m*3 20.1 C 3.2 km/h
2179 13-06-2017 13:30:00 20.2 C 10.14 g/m*3 20.2 C 0 km/h
2180 13-06-2017 13:35:00 20.4 C 9.91 g/m*3 20.4 C 11.3 km/h
2181 13-06-2017 13:40:00 20.4 C 9.91 g/m*3 20.4 C 6.4 km/h
2182 13-06-2017 13:45:00 20.4 C 9.73 g/m*3 20.4 C 4.8 km/h
2183 13-06-2017 13:50:00 20.3 C 9.85 g/m*3 20.3 C 8.1 km/h
2184 13-06-2017 13:55:00 20.4 C 9.73 g/m*3 20.4 C 6.4 km/h
2185 13-06-2017 14:00:00 20.5 C 9.79 g/m*3 20.5 C 6.4 km/h
2186 13-06-2017 14:05:00 20.6 C 10.02 g/m*3 20.6 C 4.8 km/h
2187 13-06-2017 14:10:00 20.7 C 9.9 g/m*3 20.7 C 9.7 km/h
2188 13-06-2017 14:15:00 20.6 C 9.84 g/m*3 20.6 C 8.1 km/h
2189 13-06-2017 14:20:00 20.6 C 9.84 g/m*3 20.6 C 9.7 km/h
2190 13-06-2017 14:25:00 20.5 C 9.96 g/m*3 20.5 C 4.8 km/h
2191 13-06-2017 14:30:00 20.5 C 9.79 g/m*3 20.5 C 4.8 km/h
2192 13-06-2017 14:35:00 20.6 C 10.2 g/m*3 20.6 C 1.6 km/h
2193 13-06-2017 14:40:00 20.8 C 10.14 g/m*3 20.8 C 8.1 km/h
2194 13-06-2017 14:45:00 20.8 C 10.14 g/m*3 20.8 C 12.9 km/h
2195 13-06-2017 14:50:00 20.7 C 10.08 g/m*3 20.7 C 9.7 km/h
2196 13-06-2017 14:55:00 20.7 C 9.9 g/m*3 20.7 C 8.1 km/h
2197 13-06-2017 15:00:00 20.7 C 9.9 g/m*3 20.7 C 9.7 km/h
2198 13-06-2017 15:05:00 20.8 C 9.96 g/m*3 20.8 C 8.1 km/h
2199 13-06-2017 15:10:00 20.8 C 9.96 g/m*3 20.8 C 8.1 km/h
2200 13-06-2017 15:15:00 20.8 C 10.14 g/m*3 20.8 C 3.2 km/h
Sensor: Nr:Datum:Temp:Abs-Feuchte:Windchill:Wind:
Aussen-T/F 2201 13-06-2017 15:20:00 21 C 10.44 g/m*3 21 C 9.7 km/h
2202 13-06-2017 15:25:00 21.2 C 10.01 g/m*3 21.2 C 8.1 km/h
2203 13-06-2017 15:30:00 21.3 C 10.81 g/m*3 21.3 C 1.6 km/h
2204 13-06-2017 15:35:00 21.4 C 10.12 g/m*3 21.4 C 3.2 km/h
2205 13-06-2017 15:40:00 21.6 C 10.05 g/m*3 21.6 C 1.6 km/h
2206 13-06-2017 15:45:00 21.9 C 10.61 g/m*3 21.9 C 9.7 km/h
2207 13-06-2017 15:50:00 22.1 C 9.96 g/m*3 22.1 C 12.9 km/h
2208 13-06-2017 15:55:00 21.7 C 9.92 g/m*3 21.7 C 8.1 km/h
2209 13-06-2017 16:00:00 21.6 C 10.05 g/m*3 21.6 C 6.4 km/h
2210 13-06-2017 16:05:00 21.6 C 10.24 g/m*3 21.6 C 4.8 km/h
2211 13-06-2017 16:10:00 21.6 C 9.86 g/m*3 21.6 C 9.7 km/h
2212 13-06-2017 16:15:00 22 C 10.48 g/m*3 22 C 6.4 km/h
2213 13-06-2017 16:20:00 22.8 C 10.16 g/m*3 22.8 C 12.9 km/h
2214 13-06-2017 16:25:00 22.8 C 9.96 g/m*3 22.8 C 8.1 km/h
2215 13-06-2017 16:30:00 22.9 C 10.01 g/m*3 22.9 C 9.7 km/h
2216 13-06-2017 16:35:00 22.9 C 10.01 g/m*3 22.9 C 11.3 km/h
2217 13-06-2017 16:40:00 23.1 C 10.13 g/m*3 23.1 C 12.9 km/h
2218 13-06-2017 16:45:00 23.4 C 10.09 g/m*3 23.4 C 9.7 km/h
2219 13-06-2017 16:50:00 23.5 C 10.15 g/m*3 23.5 C 14.5 km/h
2220 13-06-2017 16:55:00 23.3 C 9.83 g/m*3 23.3 C 11.3 km/h
2221 13-06-2017 17:00:00 23 C 9.87 g/m*3 23 C 8.1 km/h
2222 13-06-2017 17:05:00 22.8 C 10.16 g/m*3 22.8 C 9.7 km/h
2223 13-06-2017 17:10:00 23.1 C 10.34 g/m*3 23.1 C 4.8 km/h
2224 13-06-2017 17:15:00 23.1 C 10.13 g/m*3 23.1 C 9.7 km/h
2225 13-06-2017 17:20:00 23.3 C 9.62 g/m*3 23.3 C 9.7 km/h
Sensor: Nr:Datum:Temp:Abs-Feuchte:Windchill:Wind:
Aussen-T/F 2226 13-06-2017 17:25:00 23.3 C 9.62 g/m*3 23.3 C 1.6 km/h
2227 13-06-2017 17:30:00 23.4 C 9.67 g/m*3 23.4 C 6.4 km/h
2228 13-06-2017 17:35:00 23.7 C 10.05 g/m*3 23.7 C 8.1 km/h
2229 13-06-2017 17:40:00 23.6 C 9.78 g/m*3 23.6 C 9.7 km/h
2230 13-06-2017 17:45:00 23.5 C 9.94 g/m*3 23.5 C 8.1 km/h
2231 13-06-2017 17:50:00 23.3 C 9.62 g/m*3 23.3 C 16.1 km/h
2232 13-06-2017 17:55:00 23.2 C 9.77 g/m*3 23.2 C 6.4 km/h
2233 13-06-2017 18:00:00 23.1 C 10.13 g/m*3 23.1 C 4.8 km/h
2234 13-06-2017 18:05:00 23.4 C 9.88 g/m*3 23.4 C 12.9 km/h
2235 13-06-2017 18:10:00 23.7 C 9.84 g/m*3 23.7 C 11.3 km/h
2236 13-06-2017 18:15:00 23.8 C 9.68 g/m*3 23.8 C 9.7 km/h
2237 13-06-2017 18:20:00 23.9 C 9.74 g/m*3 23.9 C 8.1 km/h
2238 13-06-2017 18:25:00 23.8 C 9.68 g/m*3 23.8 C 11.3 km/h
2239 13-06-2017 18:30:00 23.8 C 9.68 g/m*3 23.8 C 11.3 km/h
2240 13-06-2017 18:35:00 23.7 C 10.05 g/m*3 23.7 C 8.1 km/h
2241 13-06-2017 18:40:00 23.8 C 10.11 g/m*3 23.8 C 8.1 km/h
2242 13-06-2017 18:45:00 23.7 C 9.84 g/m*3 23.7 C 9.7 km/h
2243 13-06-2017 18:50:00 23.3 C 9.83 g/m*3 23.3 C 11.3 km/h
2244 13-06-2017 18:55:00 23.2 C 9.77 g/m*3 23.2 C 9.7 km/h
2245 13-06-2017 19:00:00 23.2 C 10.19 g/m*3 23.2 C 4.8 km/h
2246 13-06-2017 19:05:00 23.1 C 9.72 g/m*3 23.1 C 9.7 km/h
2247 13-06-2017 19:10:00 22.8 C 9.75 g/m*3 22.8 C 8.1 km/h
2248 13-06-2017 19:15:00 22.4 C 9.73 g/m*3 22.4 C 9.7 km/h
2249 13-06-2017 19:20:00 22.2 C 10.01 g/m*3 22.2 C 6.4 km/h
2250 13-06-2017 19:25:00 22 C 10.09 g/m*3 22 C 11.3 km/h
Sensor: Nr:Datum:Temp:Abs-Feuchte:Windchill:Wind:
Aussen-T/F 2251 13-06-2017 19:30:00 21.8 C 10.17 g/m*3 21.8 C 9.7 km/h
2252 13-06-2017 19:35:00 21.8 C 9.98 g/m*3 21.8 C 8.1 km/h
2253 13-06-2017 19:40:00 21.7 C 10.11 g/m*3 21.7 C 8.1 km/h
2254 13-06-2017 19:45:00 21.7 C 9.92 g/m*3 21.7 C 6.4 km/h
2255 13-06-2017 19:50:00 21.7 C 9.92 g/m*3 21.7 C 12.9 km/h
2256 13-06-2017 19:55:00 21.8 C 10.36 g/m*3 21.8 C 4.8 km/h
2257 13-06-2017 20:00:00 21.7 C 10.11 g/m*3 21.7 C 11.3 km/h
2258 13-06-2017 20:05:00 21.6 C 10.24 g/m*3 21.6 C 8.1 km/h
2259 13-06-2017 20:10:00 21.4 C 10.12 g/m*3 21.4 C 9.7 km/h
2260 13-06-2017 20:15:00 21.2 C 10.01 g/m*3 21.2 C 11.3 km/h
2261 13-06-2017 20:20:00 20.9 C 10.2 g/m*3 20.9 C 8.1 km/h
2262 13-06-2017 20:25:00 20.8 C 10.32 g/m*3 20.8 C 6.4 km/h
2263 13-06-2017 20:30:00 20.6 C 10.02 g/m*3 20.6 C 9.7 km/h
2264 13-06-2017 20:35:00 20.4 C 10.08 g/m*3 20.4 C 8.1 km/h
2265 13-06-2017 20:40:00 20.3 C 10.02 g/m*3 20.3 C 6.4 km/h
2266 13-06-2017 20:45:00 20.2 C 10.14 g/m*3 20.2 C 4.8 km/h
2267 13-06-2017 20:50:00 20.2 C 10.32 g/m*3 20.2 C 4.8 km/h
2268 13-06-2017 20:55:00 20.2 C 10.49 g/m*3 20.2 C 4.8 km/h
2269 13-06-2017 21:00:00 20.1 C 10.6 g/m*3 20.1 C 4.8 km/h
2270 13-06-2017 21:05:00 20.1 C 10.43 g/m*3 20.1 C 4.8 km/h
2271 13-06-2017 21:10:00 19.9 C 10.31 g/m*3 19.9 C 6.4 km/h
2272 13-06-2017 21:15:00 19.8 C 10.42 g/m*3 19.8 C 4.8 km/h
2273 13-06-2017 21:20:00 19.7 C 10.53 g/m*3 19.7 C 3.2 km/h
2274 13-06-2017 21:25:00 19.6 C 10.8 g/m*3 19.6 C 1.6 km/h
2275 13-06-2017 21:30:00 19.3 C 10.78 g/m*3 19.3 C 0 km/h
Sensor: Nr:Datum:Temp:Abs-Feuchte:Windchill:Wind:
Aussen-T/F 2276 13-06-2017 21:35:00 19 C 10.76 g/m*3 19 C 0 km/h
2277 13-06-2017 21:40:00 18.6 C 10.66 g/m*3 18.6 C 0 km/h
2278 13-06-2017 21:45:00 18.2 C 10.57 g/m*3 18.2 C 1.6 km/h
2279 13-06-2017 21:50:00 17.8 C 10.47 g/m*3 17.8 C 0 km/h
2280 13-06-2017 21:55:00 17.5 C 10.44 g/m*3 17.5 C 0 km/h
2281 13-06-2017 22:00:00 17.2 C 10.4 g/m*3 17.2 C 0 km/h
2282 13-06-2017 22:05:00 17 C 10.27 g/m*3 17 C 0 km/h
2283 13-06-2017 22:10:00 16.8 C 10.29 g/m*3 16.8 C 0 km/h
2284 13-06-2017 22:15:00 16.6 C 10.31 g/m*3 16.6 C 0 km/h
2285 13-06-2017 22:20:00 16.4 C 10.19 g/m*3 16.4 C 0 km/h
2286 13-06-2017 22:25:00 16.3 C 10.13 g/m*3 16.3 C 1.6 km/h
2287 13-06-2017 22:30:00 16.2 C 10.07 g/m*3 16.2 C 0 km/h
2288 13-06-2017 22:35:00 16.2 C 10.2 g/m*3 16.2 C 0 km/h
2289 13-06-2017 22:40:00 16.1 C 10.14 g/m*3 16.1 C 0 km/h
2290 13-06-2017 22:45:00 15.9 C 10.16 g/m*3 15.9 C 1.6 km/h
2291 13-06-2017 22:50:00 15.8 C 10.1 g/m*3 15.8 C 0 km/h
2292 13-06-2017 22:55:00 15.8 C 10.23 g/m*3 15.8 C 0 km/h
2293 13-06-2017 23:00:00 15.7 C 10.17 g/m*3 15.7 C 0 km/h
2294 13-06-2017 23:05:00 15.6 C 10.11 g/m*3 15.6 C 0 km/h
2295 13-06-2017 23:10:00 15.4 C 10.12 g/m*3 15.4 C 0 km/h
2296 13-06-2017 23:15:00 15.3 C 10.06 g/m*3 15.3 C 0 km/h
2297 13-06-2017 23:20:00 15.2 C 10.12 g/m*3 15.2 C 0 km/h
2298 13-06-2017 23:25:00 15.1 C 10.19 g/m*3 15.1 C 0 km/h
2299 13-06-2017 23:30:00 15 C 10.26 g/m*3 15 C 0 km/h
2300 13-06-2017 23:35:00 14.8 C 10.13 g/m*3 14.8 C 0 km/h
Sensor: Nr:Datum:Temp:Abs-Feuchte:Windchill:Wind:
Aussen-T/F 2301 13-06-2017 23:40:00 14.6 C 10.01 g/m*3 14.6 C 0 km/h
2302 13-06-2017 23:45:00 14.6 C 10.14 g/m*3 14.6 C 0 km/h
2303 13-06-2017 23:50:00 14.4 C 10.01 g/m*3 14.4 C 0 km/h
2304 13-06-2017 23:55:00 14.3 C 10.07 g/m*3 14.3 C 0 km/h
2305 14-06-2017 00:00:00 14.2 C 10.01 g/m*3 14.2 C 0 km/h
2306 14-06-2017 00:05:00 14.1 C 10.07 g/m*3 14.1 C 0 km/h
2307 14-06-2017 00:10:00 14 C 10.01 g/m*3 14 C 0 km/h
2308 14-06-2017 00:15:00 13.9 C 10.07 g/m*3 13.9 C 0 km/h
2309 14-06-2017 00:20:00 13.8 C 10.01 g/m*3 13.8 C 0 km/h
2310 14-06-2017 00:25:00 13.6 C 9.89 g/m*3 13.6 C 0 km/h
2311 14-06-2017 00:30:00 13.5 C 9.94 g/m*3 13.5 C 0 km/h
2312 14-06-2017 00:35:00 13.4 C 9.88 g/m*3 13.4 C 0 km/h
2313 14-06-2017 00:40:00 13.3 C 9.82 g/m*3 13.3 C 0 km/h
2314 14-06-2017 00:45:00 13.3 C 9.82 g/m*3 13.3 C 0 km/h
2315 14-06-2017 00:50:00 13.2 C 9.87 g/m*3 13.2 C 0 km/h
2316 14-06-2017 00:55:00 13.1 C 9.81 g/m*3 13.1 C 0 km/h
2317 14-06-2017 01:00:00 13 C 9.87 g/m*3 13 C 0 km/h
2318 14-06-2017 01:05:00 13 C 9.87 g/m*3 13 C 0 km/h
2319 14-06-2017 01:10:00 12.9 C 9.81 g/m*3 12.9 C 0 km/h
2320 14-06-2017 01:15:00 12.8 C 9.74 g/m*3 12.8 C 0 km/h
2321 14-06-2017 01:20:00 12.7 C 9.68 g/m*3 12.7 C 0 km/h
2322 14-06-2017 01:25:00 12.7 C 9.68 g/m*3 12.7 C 0 km/h
2323 14-06-2017 01:30:00 12.7 C 9.8 g/m*3 12.7 C 0 km/h
2324 14-06-2017 01:35:00 12.6 C 9.74 g/m*3 12.6 C 0 km/h
2325 14-06-2017 01:40:00 12.6 C 9.74 g/m*3 12.6 C 0 km/h
Sensor: Nr:Datum:Temp:Abs-Feuchte:Windchill:Wind:
Aussen-T/F 2326 14-06-2017 01:45:00 12.5 C 9.68 g/m*3 12.5 C 0 km/h
2327 14-06-2017 01:50:00 12.4 C 9.62 g/m*3 12.4 C 0 km/h
2328 14-06-2017 01:55:00 12.3 C 9.56 g/m*3 12.3 C 0 km/h
2329 14-06-2017 02:00:00 12.3 C 9.66 g/m*3 12.3 C 0 km/h
2330 14-06-2017 02:05:00 12.2 C 9.6 g/m*3 12.2 C 0 km/h
2331 14-06-2017 02:10:00 12.2 C 9.6 g/m*3 12.2 C 0 km/h
2332 14-06-2017 02:15:00 12.2 C 9.6 g/m*3 12.2 C 0 km/h
2333 14-06-2017 02:20:00 12.1 C 9.54 g/m*3 12.1 C 0 km/h
2334 14-06-2017 02:25:00 12.1 C 9.54 g/m*3 12.1 C 0 km/h
2335 14-06-2017 02:30:00 12 C 9.59 g/m*3 12 C 0 km/h
2336 14-06-2017 02:35:00 11.9 C 9.53 g/m*3 11.9 C 0 km/h
2337 14-06-2017 02:40:00 11.9 C 9.53 g/m*3 11.9 C 0 km/h
2338 14-06-2017 02:45:00 11.8 C 9.47 g/m*3 11.8 C 0 km/h
2339 14-06-2017 02:50:00 11.8 C 9.47 g/m*3 11.8 C 0 km/h
2340 14-06-2017 02:55:00 11.7 C 9.41 g/m*3 11.7 C 0 km/h
2341 14-06-2017 03:00:00 11.6 C 9.35 g/m*3 11.6 C 0 km/h
2342 14-06-2017 03:05:00 11.6 C 9.35 g/m*3 11.6 C 0 km/h
2343 14-06-2017 03:10:00 11.5 C 9.4 g/m*3 11.5 C 0 km/h
2344 14-06-2017 03:15:00 11.4 C 9.34 g/m*3 11.4 C 0 km/h
2345 14-06-2017 03:20:00 11.4 C 9.34 g/m*3 11.4 C 0 km/h
2346 14-06-2017 03:25:00 11.4 C 9.34 g/m*3 11.4 C 0 km/h
2347 14-06-2017 03:30:00 11.3 C 9.28 g/m*3 11.3 C 0 km/h
2348 14-06-2017 03:35:00 11.3 C 9.28 g/m*3 11.3 C 0 km/h
2349 14-06-2017 03:40:00 11.2 C 9.22 g/m*3 11.2 C 0 km/h
2350 14-06-2017 03:45:00 11.2 C 9.33 g/m*3 11.2 C 0 km/h
Sensor: Nr:Datum:Temp:Abs-Feuchte:Windchill:Wind:
Aussen-T/F 2351 14-06-2017 03:50:00 11.2 C 9.33 g/m*3 11.2 C 0 km/h
2352 14-06-2017 03:55:00 11.1 C 9.27 g/m*3 11.1 C 0 km/h
2353 14-06-2017 04:00:00 11.1 C 9.27 g/m*3 11.1 C 0 km/h
2354 14-06-2017 04:05:00 11.1 C 9.27 g/m*3 11.1 C 0 km/h
2355 14-06-2017 04:10:00 11.1 C 9.27 g/m*3 11.1 C 0 km/h
2356 14-06-2017 04:15:00 11 C 9.21 g/m*3 11 C 0 km/h
2357 14-06-2017 04:20:00 10.9 C 9.15 g/m*3 10.9 C 0 km/h
2358 14-06-2017 04:25:00 10.9 C 9.15 g/m*3 10.9 C 0 km/h
2359 14-06-2017 04:30:00 10.8 C 9.09 g/m*3 10.8 C 0 km/h
2360 14-06-2017 04:35:00 10.8 C 9.09 g/m*3 10.8 C 0 km/h
2361 14-06-2017 04:40:00 10.8 C 9.19 g/m*3 10.8 C 0 km/h
2362 14-06-2017 04:45:00 10.8 C 9.19 g/m*3 10.8 C 0 km/h
2363 14-06-2017 04:50:00 10.8 C 9.19 g/m*3 10.8 C 0 km/h
2364 14-06-2017 04:55:00 10.8 C 9.19 g/m*3 10.8 C 0 km/h
2365 14-06-2017 05:00:00 10.8 C 9.19 g/m*3 10.8 C 0 km/h
2366 14-06-2017 05:05:00 10.7 C 9.13 g/m*3 10.7 C 0 km/h
2367 14-06-2017 05:10:00 10.7 C 9.13 g/m*3 10.7 C 0 km/h
2368 14-06-2017 05:15:00 10.6 C 9.08 g/m*3 10.6 C 0 km/h
2369 14-06-2017 05:20:00 10.6 C 9.08 g/m*3 10.6 C 0 km/h
2370 14-06-2017 05:25:00 10.6 C 9.08 g/m*3 10.6 C 0 km/h
2371 14-06-2017 05:30:00 10.6 C 9.08 g/m*3 10.6 C 0 km/h
2372 14-06-2017 05:35:00 10.6 C 9.08 g/m*3 10.6 C 0 km/h
2373 14-06-2017 05:40:00 10.6 C 9.08 g/m*3 10.6 C 0 km/h
2374 14-06-2017 05:45:00 10.6 C 9.17 g/m*3 10.6 C 0 km/h
2375 14-06-2017 05:50:00 10.6 C 9.17 g/m*3 10.6 C 0 km/h
Sensor: Nr:Datum:Temp:Abs-Feuchte:Windchill:Wind:
Aussen-T/F 2376 14-06-2017 05:55:00 10.5 C 9.12 g/m*3 10.5 C 0 km/h
2377 14-06-2017 06:00:00 10.6 C 9.17 g/m*3 10.6 C 0 km/h
2378 14-06-2017 06:05:00 10.6 C 9.17 g/m*3 10.6 C 0 km/h
2379 14-06-2017 06:10:00 10.6 C 9.17 g/m*3 10.6 C 0 km/h
2380 14-06-2017 06:15:00 10.6 C 9.17 g/m*3 10.6 C 0 km/h
2381 14-06-2017 06:20:00 10.7 C 9.23 g/m*3 10.7 C 0 km/h
2382 14-06-2017 06:25:00 10.8 C 9.29 g/m*3 10.8 C 0 km/h
2383 14-06-2017 06:30:00 10.8 C 9.29 g/m*3 10.8 C 0 km/h
2384 14-06-2017 06:35:00 10.8 C 9.29 g/m*3 10.8 C 0 km/h
2385 14-06-2017 06:40:00 10.8 C 9.29 g/m*3 10.8 C 0 km/h
2386 14-06-2017 06:45:00 10.8 C 9.29 g/m*3 10.8 C 0 km/h
2387 14-06-2017 06:50:00 10.9 C 9.35 g/m*3 10.9 C 0 km/h
2388 14-06-2017 06:55:00 10.9 C 9.35 g/m*3 10.9 C 0 km/h
2389 14-06-2017 07:00:00 10.9 C 9.35 g/m*3 10.9 C 0 km/h
2390 14-06-2017 07:05:00 11 C 9.41 g/m*3 11 C 0 km/h
2391 14-06-2017 07:10:00 11.1 C 9.47 g/m*3 11.1 C 0 km/h
2392 14-06-2017 07:15:00 11.1 C 9.47 g/m*3 11.1 C 0 km/h
2393 14-06-2017 07:20:00 11.2 C 9.53 g/m*3 11.2 C 0 km/h
2394 14-06-2017 07:25:00 11.3 C 9.59 g/m*3 11.3 C 0 km/h
2395 14-06-2017 07:30:00 11.3 C 9.69 g/m*3 11.3 C 0 km/h
2396 14-06-2017 07:35:00 11.4 C 9.75 g/m*3 11.4 C 0 km/h
2397 14-06-2017 07:40:00 11.5 C 9.71 g/m*3 11.5 C 0 km/h
2398 14-06-2017 07:45:00 11.6 C 9.77 g/m*3 11.6 C 0 km/h
2399 14-06-2017 07:50:00 11.7 C 9.83 g/m*3 11.7 C 0 km/h
2400 14-06-2017 07:55:00 11.7 C 9.94 g/m*3 11.7 C 0 km/h
Sensor: Nr:Datum:Temp:Abs-Feuchte:Windchill:Wind:
Aussen-T/F 2401 14-06-2017 08:00:00 11.8 C 10 g/m*3 11.8 C 0 km/h
2402 14-06-2017 08:05:00 11.9 C 10.06 g/m*3 11.9 C 0 km/h
2403 14-06-2017 08:10:00 12.1 C 10.19 g/m*3 12.1 C 0 km/h
2404 14-06-2017 08:15:00 12.2 C 10.25 g/m*3 12.2 C 0 km/h
2405 14-06-2017 08:20:00 12.3 C 10.32 g/m*3 12.3 C 0 km/h
2406 14-06-2017 08:25:00 12.4 C 10.38 g/m*3 12.4 C 0 km/h
2407 14-06-2017 08:30:00 12.6 C 10.51 g/m*3 12.6 C 0 km/h
2408 14-06-2017 08:35:00 12.7 C 10.58 g/m*3 12.7 C 0 km/h
2409 14-06-2017 08:40:00 12.8 C 10.64 g/m*3 12.8 C 0 km/h
2410 14-06-2017 08:45:00 12.9 C 10.71 g/m*3 12.9 C 3.2 km/h
2411 14-06-2017 08:50:00 13.2 C 10.91 g/m*3 13.2 C 4.8 km/h
2412 14-06-2017 08:55:00 13.3 C 10.86 g/m*3 13.3 C 1.6 km/h
2413 14-06-2017 09:00:00 13.5 C 11.11 g/m*3 13.5 C 3.2 km/h
2414 14-06-2017 09:05:00 13.8 C 11.2 g/m*3 13.8 C 1.6 km/h
2415 14-06-2017 09:10:00 13.9 C 11.15 g/m*3 13.9 C 6.4 km/h
2416 14-06-2017 09:15:00 14.4 C 11.13 g/m*3 14.4 C 8.1 km/h
2417 14-06-2017 09:20:00 14.9 C 11.09 g/m*3 14.9 C 6.4 km/h
2418 14-06-2017 09:25:00 15.4 C 11.04 g/m*3 15.4 C 6.4 km/h
2419 14-06-2017 09:30:00 15.8 C 11.31 g/m*3 15.8 C 6.4 km/h
2420 14-06-2017 09:35:00 16.1 C 10.97 g/m*3 16.1 C 8.1 km/h
2421 14-06-2017 09:40:00 16.4 C 11.03 g/m*3 16.4 C 6.4 km/h
2422 14-06-2017 09:45:00 16.8 C 11.15 g/m*3 16.8 C 6.4 km/h
2423 14-06-2017 09:50:00 17.1 C 11.35 g/m*3 17.1 C 6.4 km/h
2424 14-06-2017 09:55:00 17.2 C 10.98 g/m*3 17.2 C 8.1 km/h
2425 14-06-2017 10:00:00 17.6 C 11.1 g/m*3 17.6 C 6.4 km/h
Sensor: Nr:Datum:Temp:Abs-Feuchte:Windchill:Wind:
Aussen-T/F 2426 14-06-2017 10:05:00 17.8 C 11.23 g/m*3 17.8 C 8.1 km/h
2427 14-06-2017 10:10:00 18.1 C 11.28 g/m*3 18.1 C 9.7 km/h
2428 14-06-2017 10:15:00 18.4 C 11.32 g/m*3 18.4 C 9.7 km/h
2429 14-06-2017 10:20:00 18.8 C 11.6 g/m*3 18.8 C 8.1 km/h
2430 14-06-2017 10:25:00 19.1 C 11.15 g/m*3 19.1 C 8.1 km/h
2431 14-06-2017 10:30:00 19.4 C 11.18 g/m*3 19.4 C 9.7 km/h
2432 14-06-2017 10:35:00 19.7 C 11.04 g/m*3 19.7 C 9.7 km/h
2433 14-06-2017 10:40:00 19.9 C 11.17 g/m*3 19.9 C 8.1 km/h
2434 14-06-2017 10:45:00 20 C 11.06 g/m*3 20 C 9.7 km/h
2435 14-06-2017 10:50:00 20 C 10.89 g/m*3 20 C 9.7 km/h
2436 14-06-2017 10:55:00 20.1 C 10.78 g/m*3 20.1 C 9.7 km/h
2437 14-06-2017 11:00:00 20.1 C 10.78 g/m*3 20.1 C 8.1 km/h
2438 14-06-2017 11:05:00 20.2 C 11.02 g/m*3 20.2 C 8.1 km/h
2439 14-06-2017 11:10:00 20.3 C 10.9 g/m*3 20.3 C 11.3 km/h
2440 14-06-2017 11:15:00 20.3 C 11.43 g/m*3 20.3 C 3.2 km/h
2441 14-06-2017 11:20:00 20.1 C 10.95 g/m*3 20.1 C 8.1 km/h
2442 14-06-2017 11:25:00 20.1 C 11.13 g/m*3 20.1 C 6.4 km/h
2443 14-06-2017 11:30:00 20.2 C 10.67 g/m*3 20.2 C 6.4 km/h
2444 14-06-2017 11:35:00 20.2 C 10.84 g/m*3 20.2 C 4.8 km/h
2445 14-06-2017 11:40:00 20.2 C 11.02 g/m*3 20.2 C 3.2 km/h
2446 14-06-2017 11:45:00 20.3 C 10.73 g/m*3 20.3 C 4.8 km/h
2447 14-06-2017 11:50:00 20.5 C 11.03 g/m*3 20.5 C 11.3 km/h
2448 14-06-2017 11:55:00 20.7 C 10.62 g/m*3 20.7 C 11.3 km/h
2449 14-06-2017 12:00:00 20.9 C 10.93 g/m*3 20.9 C 8.1 km/h
2450 14-06-2017 12:05:00 21.1 C 10.69 g/m*3 21.1 C 9.7 km/h
Sensor: Nr:Datum:Temp:Abs-Feuchte:Windchill:Wind:
Aussen-T/F 2451 14-06-2017 12:10:00 21.1 C 10.87 g/m*3 21.1 C 8.1 km/h
2452 14-06-2017 12:15:00 21.2 C 10.93 g/m*3 21.2 C 8.1 km/h
2453 14-06-2017 12:20:00 21.3 C 11.18 g/m*3 21.3 C 6.4 km/h
2454 14-06-2017 12:25:00 21.4 C 11.06 g/m*3 21.4 C 11.3 km/h
2455 14-06-2017 12:30:00 21.4 C 10.5 g/m*3 21.4 C 9.7 km/h
2456 14-06-2017 12:35:00 21.6 C 10.81 g/m*3 21.6 C 11.3 km/h
2457 14-06-2017 12:40:00 21.7 C 10.87 g/m*3 21.7 C 14.5 km/h
2458 14-06-2017 12:45:00 21.8 C 10.94 g/m*3 21.8 C 14.5 km/h
2459 14-06-2017 12:50:00 21.8 C 10.94 g/m*3 21.8 C 6.4 km/h
2460 14-06-2017 12:55:00 21.9 C 11 g/m*3 21.9 C 11.3 km/h
2461 14-06-2017 13:00:00 21.9 C 11 g/m*3 21.9 C 9.7 km/h
2462 14-06-2017 13:05:00 22.1 C 11.13 g/m*3 22.1 C 6.4 km/h
2463 14-06-2017 13:10:00 22.1 C 10.93 g/m*3 22.1 C 11.3 km/h
2464 14-06-2017 13:15:00 22.2 C 10.99 g/m*3 22.2 C 8.1 km/h
2465 14-06-2017 13:20:00 22.3 C 11.26 g/m*3 22.3 C 6.4 km/h
2466 14-06-2017 13:25:00 22.4 C 11.12 g/m*3 22.4 C 9.7 km/h
2467 14-06-2017 13:30:00 22.4 C 10.92 g/m*3 22.4 C 9.7 km/h
2468 14-06-2017 13:35:00 22.6 C 10.85 g/m*3 22.6 C 9.7 km/h
2469 14-06-2017 13:40:00 22.6 C 11.05 g/m*3 22.6 C 8.1 km/h
2470 14-06-2017 13:45:00 22.6 C 11.05 g/m*3 22.6 C 6.4 km/h
2471 14-06-2017 13:50:00 22.7 C 10.91 g/m*3 22.7 C 9.7 km/h
2472 14-06-2017 13:55:00 22.8 C 10.97 g/m*3 22.8 C 11.3 km/h
2473 14-06-2017 14:00:00 22.9 C 11.04 g/m*3 22.9 C 12.9 km/h
2474 14-06-2017 14:05:00 23 C 10.89 g/m*3 23 C 8.1 km/h
2475 14-06-2017 14:10:00 23.1 C 10.96 g/m*3 23.1 C 6.4 km/h
Sensor: Nr:Datum:Temp:Abs-Feuchte:Windchill:Wind:
Aussen-T/F 2476 14-06-2017 14:15:00 23.2 C 10.6 g/m*3 23.2 C 9.7 km/h
2477 14-06-2017 14:20:00 23.2 C 11.02 g/m*3 23.2 C 6.4 km/h
2478 14-06-2017 14:25:00 23.3 C 11.29 g/m*3 23.3 C 8.1 km/h
2479 14-06-2017 14:30:00 23.6 C 11.27 g/m*3 23.6 C 14.5 km/h
2480 14-06-2017 14:35:00 23.7 C 11.34 g/m*3 23.7 C 14.5 km/h
2481 14-06-2017 14:40:00 23.7 C 11.34 g/m*3 23.7 C 8.1 km/h
2482 14-06-2017 14:45:00 23.8 C 10.97 g/m*3 23.8 C 6.4 km/h
2483 14-06-2017 14:50:00 23.8 C 10.97 g/m*3 23.8 C 6.4 km/h
2484 14-06-2017 14:55:00 23.9 C 10.82 g/m*3 23.9 C 6.4 km/h
2485 14-06-2017 15:00:00 24.2 C 11.22 g/m*3 24.2 C 9.7 km/h
2486 14-06-2017 15:05:00 24.3 C 10.84 g/m*3 24.3 C 6.4 km/h
2487 14-06-2017 15:10:00 24.4 C 11.13 g/m*3 24.4 C 6.4 km/h
2488 14-06-2017 15:15:00 24.7 C 11.32 g/m*3 24.7 C 4.8 km/h
2489 14-06-2017 15:20:00 24.9 C 10.99 g/m*3 24.9 C 4.8 km/h
2490 14-06-2017 15:25:00 25.2 C 11.41 g/m*3 25.2 C 4.8 km/h
2491 14-06-2017 15:30:00 25.4 C 11.3 g/m*3 25.4 C 11.3 km/h
2492 14-06-2017 15:35:00 25.8 C 11.07 g/m*3 25.8 C 11.3 km/h
2493 14-06-2017 15:40:00 25.9 C 11.14 g/m*3 25.9 C 11.3 km/h
2494 14-06-2017 15:45:00 26.1 C 11.26 g/m*3 26.1 C 11.3 km/h
2495 14-06-2017 15:50:00 26.4 C 11.2 g/m*3 26.4 C 6.4 km/h
2496 14-06-2017 15:55:00 26.7 C 11.64 g/m*3 26.7 C 3.2 km/h
2497 14-06-2017 16:00:00 26.9 C 11.01 g/m*3 26.9 C 11.3 km/h
2498 14-06-2017 16:05:00 26.9 C 11.26 g/m*3 26.9 C 14.5 km/h
2499 14-06-2017 16:10:00 26.9 C 11.77 g/m*3 26.9 C 12.9 km/h
2500 14-06-2017 16:15:00 27 C 10.81 g/m*3 27 C 14.5 km/h
Sensor: Nr:Datum:Temp:Abs-Feuchte:Windchill:Wind:
Aussen-T/F 2501 14-06-2017 16:20:00 26.8 C 11.2 g/m*3 26.8 C 12.9 km/h
2502 14-06-2017 16:25:00 26.8 C 10.94 g/m*3 26.8 C 12.9 km/h
2503 14-06-2017 16:30:00 26.8 C 11.45 g/m*3 26.8 C 11.3 km/h
2504 14-06-2017 16:35:00 27.2 C 11.45 g/m*3 27.2 C 8.1 km/h
2505 14-06-2017 16:40:00 27.4 C 10.79 g/m*3 27.4 C 17.7 km/h
2506 14-06-2017 16:45:00 27.2 C 11.19 g/m*3 27.2 C 8.1 km/h
2507 14-06-2017 16:50:00 27.1 C 10.87 g/m*3 27.1 C 12.9 km/h
2508 14-06-2017 16:55:00 27.2 C 10.93 g/m*3 27.2 C 6.4 km/h
2509 14-06-2017 17:00:00 27.2 C 11.19 g/m*3 27.2 C 6.4 km/h
2510 14-06-2017 17:05:00 27.5 C 11.38 g/m*3 27.5 C 8.1 km/h
2511 14-06-2017 17:10:00 27.8 C 11.3 g/m*3 27.8 C 9.7 km/h
2512 14-06-2017 17:15:00 28.1 C 10.94 g/m*3 28.1 C 8.1 km/h
2513 14-06-2017 17:20:00 28.2 C 11.27 g/m*3 28.2 C 9.7 km/h
2514 14-06-2017 17:25:00 28.1 C 11.21 g/m*3 28.1 C 11.3 km/h
2515 14-06-2017 17:30:00 28.1 C 10.94 g/m*3 28.1 C 9.7 km/h
2516 14-06-2017 17:35:00 27.8 C 11.03 g/m*3 27.8 C 11.3 km/h
2517 14-06-2017 17:40:00 27.6 C 11.17 g/m*3 27.6 C 12.9 km/h
2518 14-06-2017 17:45:00 27.4 C 11.05 g/m*3 27.4 C 8.1 km/h
2519 14-06-2017 17:50:00 27.5 C 11.11 g/m*3 27.5 C 8.1 km/h
2520 14-06-2017 17:55:00 27.8 C 11.3 g/m*3 27.8 C 3.2 km/h
2521 14-06-2017 18:00:00 28.1 C 10.94 g/m*3 28.1 C 6.4 km/h
2522 14-06-2017 18:05:00 28.2 C 11.27 g/m*3 28.2 C 4.8 km/h
2523 14-06-2017 18:10:00 28.3 C 10.78 g/m*3 28.3 C 8.1 km/h
2524 14-06-2017 18:15:00 28.3 C 10.78 g/m*3 28.3 C 8.1 km/h
2525 14-06-2017 18:20:00 28.2 C 11 g/m*3 28.2 C 6.4 km/h
Sensor: Nr:Datum:Temp:Abs-Feuchte:Windchill:Wind:
Aussen-T/F 2526 14-06-2017 18:25:00 28.3 C 11.06 g/m*3 28.3 C 9.7 km/h
2527 14-06-2017 18:30:00 28.2 C 11 g/m*3 28.2 C 9.7 km/h
2528 14-06-2017 18:35:00 28.2 C 10.72 g/m*3 28.2 C 8.1 km/h
2529 14-06-2017 18:40:00 28.1 C 10.94 g/m*3 28.1 C 8.1 km/h
2530 14-06-2017 18:45:00 28.2 C 11 g/m*3 28.2 C 4.8 km/h
2531 14-06-2017 18:50:00 28.4 C 10.84 g/m*3 28.4 C 6.4 km/h
2532 14-06-2017 18:55:00 28.6 C 10.96 g/m*3 28.6 C 6.4 km/h
2533 14-06-2017 19:00:00 28.6 C 10.96 g/m*3 28.6 C 4.8 km/h
2534 14-06-2017 19:05:00 28.6 C 10.96 g/m*3 28.6 C 6.4 km/h
2535 14-06-2017 19:10:00 28.3 C 11.06 g/m*3 28.3 C 6.4 km/h
2536 14-06-2017 19:15:00 28.3 C 11.33 g/m*3 28.3 C 4.8 km/h
2537 14-06-2017 19:20:00 28.2 C 11 g/m*3 28.2 C 6.4 km/h
2538 14-06-2017 19:25:00 27.6 C 10.91 g/m*3 27.6 C 11.3 km/h
2539 14-06-2017 19:30:00 26.8 C 10.94 g/m*3 26.8 C 14.5 km/h
2540 14-06-2017 19:35:00 26.5 C 10.76 g/m*3 26.5 C 8.1 km/h
2541 14-06-2017 19:40:00 26.3 C 11.14 g/m*3 26.3 C 9.7 km/h
2542 14-06-2017 19:45:00 26.3 C 11.14 g/m*3 26.3 C 8.1 km/h
2543 14-06-2017 19:50:00 26.3 C 11.14 g/m*3 26.3 C 9.7 km/h
2544 14-06-2017 19:55:00 26.2 C 11.08 g/m*3 26.2 C 6.4 km/h
2545 14-06-2017 20:00:00 26.2 C 11.08 g/m*3 26.2 C 8.1 km/h
2546 14-06-2017 20:05:00 26.1 C 11.26 g/m*3 26.1 C 6.4 km/h
2547 14-06-2017 20:10:00 26 C 11.2 g/m*3 26 C 8.1 km/h
2548 14-06-2017 20:15:00 25.9 C 11.38 g/m*3 25.9 C 6.4 km/h
2549 14-06-2017 20:20:00 25.8 C 11.32 g/m*3 25.8 C 4.8 km/h
2550 14-06-2017 20:25:00 25.8 C 11.32 g/m*3 25.8 C 6.4 km/h
Sensor: Nr:Datum:Temp:Abs-Feuchte:Windchill:Wind:
Aussen-T/F 2551 14-06-2017 20:30:00 25.8 C 11.32 g/m*3 25.8 C 3.2 km/h
2552 14-06-2017 20:35:00 25.7 C 11.49 g/m*3 25.7 C 3.2 km/h
2553 14-06-2017 20:40:00 25.7 C 11.73 g/m*3 25.7 C 3.2 km/h
2554 14-06-2017 20:45:00 25.5 C 12.55 g/m*3 25.5 C 3.2 km/h
2555 14-06-2017 20:50:00 25.2 C 12.8 g/m*3 25.2 C 1.6 km/h
2556 14-06-2017 20:55:00 24.9 C 12.82 g/m*3 24.9 C 0 km/h
2557 14-06-2017 21:00:00 24.4 C 12.46 g/m*3 24.4 C 0 km/h
2558 14-06-2017 21:05:00 24 C 12.4 g/m*3 24 C 0 km/h
2559 14-06-2017 21:10:00 23.6 C 12.34 g/m*3 23.6 C 0 km/h
2560 14-06-2017 21:15:00 23.1 C 12.2 g/m*3 23.1 C 0 km/h
2561 14-06-2017 21:20:00 22.6 C 12.05 g/m*3 22.6 C 0 km/h
2562 14-06-2017 21:25:00 22.1 C 11.91 g/m*3 22.1 C 0 km/h
2563 14-06-2017 21:30:00 21.7 C 11.83 g/m*3 21.7 C 0 km/h
2564 14-06-2017 21:35:00 21.3 C 11.74 g/m*3 21.3 C 1.6 km/h
2565 14-06-2017 21:40:00 20.9 C 11.84 g/m*3 20.9 C 0 km/h
2566 14-06-2017 21:45:00 20.6 C 11.63 g/m*3 20.6 C 0 km/h
2567 14-06-2017 21:50:00 20.3 C 11.43 g/m*3 20.3 C 0 km/h
2568 14-06-2017 21:55:00 20 C 11.41 g/m*3 20 C 0 km/h
2569 14-06-2017 22:00:00 19.8 C 11.44 g/m*3 19.8 C 0 km/h
2570 14-06-2017 22:05:00 19.6 C 11.48 g/m*3 19.6 C 0 km/h
2571 14-06-2017 22:10:00 19.4 C 11.51 g/m*3 19.4 C 0 km/h
2572 14-06-2017 22:15:00 19.3 C 11.44 g/m*3 19.3 C 0 km/h
2573 14-06-2017 22:20:00 19.1 C 11.31 g/m*3 19.1 C 0 km/h
2574 14-06-2017 22:25:00 19 C 11.41 g/m*3 19 C 0 km/h
2575 14-06-2017 22:30:00 18.9 C 11.18 g/m*3 18.9 C 1.6 km/h
Sensor: Nr:Datum:Temp:Abs-Feuchte:Windchill:Wind:
Aussen-T/F 2576 14-06-2017 22:35:00 18.8 C 11.11 g/m*3 18.8 C 0 km/h
2577 14-06-2017 22:40:00 18.7 C 11.21 g/m*3 18.7 C 0 km/h
2578 14-06-2017 22:45:00 18.6 C 11.14 g/m*3 18.6 C 0 km/h
2579 14-06-2017 22:50:00 18.6 C 11.14 g/m*3 18.6 C 1.6 km/h
2580 14-06-2017 22:55:00 18.4 C 11.17 g/m*3 18.4 C 0 km/h
2581 14-06-2017 23:00:00 18.3 C 11.26 g/m*3 18.3 C 0 km/h
2582 14-06-2017 23:05:00 18.2 C 11.19 g/m*3 18.2 C 0 km/h
2583 14-06-2017 23:10:00 18.1 C 11.28 g/m*3 18.1 C 0 km/h
2584 14-06-2017 23:15:00 18 C 11.21 g/m*3 18 C 0 km/h
2585 14-06-2017 23:20:00 17.8 C 11.23 g/m*3 17.8 C 0 km/h
2586 14-06-2017 23:25:00 17.7 C 11.16 g/m*3 17.7 C 0 km/h
2587 14-06-2017 23:30:00 17.6 C 11.1 g/m*3 17.6 C 0 km/h
2588 14-06-2017 23:35:00 17.5 C 11.03 g/m*3 17.5 C 0 km/h
2589 14-06-2017 23:40:00 17.4 C 11.12 g/m*3 17.4 C 0 km/h
2590 14-06-2017 23:45:00 17.3 C 11.2 g/m*3 17.3 C 0 km/h
2591 14-06-2017 23:50:00 17.2 C 11.13 g/m*3 17.2 C 0 km/h
2592 14-06-2017 23:55:00 17.1 C 11.21 g/m*3 17.1 C 0 km/h
2593 15-06-2017 00:00:00 17 C 11.14 g/m*3 17 C 0 km/h
2594 15-06-2017 00:05:00 16.9 C 11.08 g/m*3 16.9 C 0 km/h
2595 15-06-2017 00:10:00 16.8 C 11.01 g/m*3 16.8 C 0 km/h
2596 15-06-2017 00:15:00 16.8 C 11.01 g/m*3 16.8 C 0 km/h
2597 15-06-2017 00:20:00 16.7 C 11.08 g/m*3 16.7 C 0 km/h
2598 15-06-2017 00:25:00 16.7 C 10.94 g/m*3 16.7 C 0 km/h
2599 15-06-2017 00:30:00 16.6 C 11.02 g/m*3 16.6 C 0 km/h
2600 15-06-2017 00:35:00 16.5 C 10.95 g/m*3 16.5 C 0 km/h
Sensor: Nr:Datum:Temp:Abs-Feuchte:Windchill:Wind:
Aussen-T/F 2601 15-06-2017 00:40:00 16.4 C 10.89 g/m*3 16.4 C 0 km/h
2602 15-06-2017 00:45:00 16.3 C 10.82 g/m*3 16.3 C 0 km/h
2603 15-06-2017 00:50:00 16.2 C 10.89 g/m*3 16.2 C 0 km/h
2604 15-06-2017 00:55:00 16.1 C 10.83 g/m*3 16.1 C 0 km/h
2605 15-06-2017 01:00:00 16.1 C 10.83 g/m*3 16.1 C 0 km/h
2606 15-06-2017 01:05:00 16 C 10.9 g/m*3 16 C 0 km/h
2607 15-06-2017 01:10:00 15.9 C 10.83 g/m*3 15.9 C 0 km/h
2608 15-06-2017 01:15:00 15.8 C 10.77 g/m*3 15.8 C 0 km/h
2609 15-06-2017 01:20:00 15.8 C 10.77 g/m*3 15.8 C 0 km/h
2610 15-06-2017 01:25:00 15.7 C 10.84 g/m*3 15.7 C 0 km/h
2611 15-06-2017 01:30:00 15.6 C 10.77 g/m*3 15.6 C 0 km/h
2612 15-06-2017 01:35:00 15.5 C 10.71 g/m*3 15.5 C 0 km/h
2613 15-06-2017 01:40:00 15.4 C 10.77 g/m*3 15.4 C 0 km/h
2614 15-06-2017 01:45:00 15.3 C 10.71 g/m*3 15.3 C 0 km/h
2615 15-06-2017 01:50:00 15.2 C 10.64 g/m*3 15.2 C 0 km/h
2616 15-06-2017 01:55:00 15.1 C 10.71 g/m*3 15.1 C 0 km/h
2617 15-06-2017 02:00:00 15 C 10.64 g/m*3 15 C 0 km/h
2618 15-06-2017 02:05:00 14.8 C 10.64 g/m*3 14.8 C 0 km/h
2619 15-06-2017 02:10:00 14.8 C 10.64 g/m*3 14.8 C 0 km/h
2620 15-06-2017 02:15:00 14.7 C 10.58 g/m*3 14.7 C 0 km/h
2621 15-06-2017 02:20:00 14.7 C 10.7 g/m*3 14.7 C 0 km/h
2622 15-06-2017 02:25:00 14.6 C 10.64 g/m*3 14.6 C 0 km/h
2623 15-06-2017 02:30:00 14.6 C 10.64 g/m*3 14.6 C 0 km/h
2624 15-06-2017 02:35:00 14.5 C 10.7 g/m*3 14.5 C 0 km/h
2625 15-06-2017 02:40:00 14.4 C 10.63 g/m*3 14.4 C 0 km/h
Sensor: Nr:Datum:Temp:Abs-Feuchte:Windchill:Wind:
Aussen-T/F 2626 15-06-2017 02:45:00 14.4 C 10.63 g/m*3 14.4 C 0 km/h
2627 15-06-2017 02:50:00 14.3 C 10.57 g/m*3 14.3 C 1.6 km/h
2628 15-06-2017 02:55:00 14.3 C 10.57 g/m*3 14.3 C 0 km/h
2629 15-06-2017 03:00:00 14.3 C 10.57 g/m*3 14.3 C 0 km/h
2630 15-06-2017 03:05:00 14.2 C 10.62 g/m*3 14.2 C 0 km/h
2631 15-06-2017 03:10:00 14.2 C 10.62 g/m*3 14.2 C 0 km/h
2632 15-06-2017 03:15:00 14.2 C 10.62 g/m*3 14.2 C 0 km/h
2633 15-06-2017 03:20:00 14.1 C 10.56 g/m*3 14.1 C 0 km/h
2634 15-06-2017 03:25:00 14.2 C 10.62 g/m*3 14.2 C 0 km/h
2635 15-06-2017 03:30:00 14.2 C 10.75 g/m*3 14.2 C 0 km/h
2636 15-06-2017 03:35:00 14.2 C 10.75 g/m*3 14.2 C 0 km/h
2637 15-06-2017 03:40:00 14.2 C 10.62 g/m*3 14.2 C 0 km/h
2638 15-06-2017 03:45:00 14.1 C 10.68 g/m*3 14.1 C 0 km/h
2639 15-06-2017 03:50:00 14.1 C 10.68 g/m*3 14.1 C 0 km/h
2640 15-06-2017 03:55:00 13.9 C 10.55 g/m*3 13.9 C 0 km/h
2641 15-06-2017 04:00:00 13.9 C 10.55 g/m*3 13.9 C 0 km/h
2642 15-06-2017 04:05:00 13.8 C 10.48 g/m*3 13.8 C 0 km/h
2643 15-06-2017 04:10:00 13.7 C 10.42 g/m*3 13.7 C 0 km/h
2644 15-06-2017 04:15:00 13.6 C 10.36 g/m*3 13.6 C 0 km/h
2645 15-06-2017 04:20:00 13.6 C 10.36 g/m*3 13.6 C 0 km/h
2646 15-06-2017 04:25:00 13.4 C 10.23 g/m*3 13.4 C 0 km/h
2647 15-06-2017 04:30:00 13.4 C 10.35 g/m*3 13.4 C 0 km/h
2648 15-06-2017 04:35:00 13.3 C 10.28 g/m*3 13.3 C 0 km/h
2649 15-06-2017 04:40:00 13.3 C 10.28 g/m*3 13.3 C 0 km/h
2650 15-06-2017 04:45:00 13.2 C 10.22 g/m*3 13.2 C 0 km/h
Sensor: Nr:Datum:Temp:Abs-Feuchte:Windchill:Wind:
Aussen-T/F 2651 15-06-2017 04:50:00 13.1 C 10.27 g/m*3 13.1 C 0 km/h
2652 15-06-2017 04:55:00 13.1 C 10.27 g/m*3 13.1 C 0 km/h
2653 15-06-2017 05:00:00 13.1 C 10.27 g/m*3 13.1 C 0 km/h
2654 15-06-2017 05:05:00 12.9 C 10.14 g/m*3 12.9 C 0 km/h
2655 15-06-2017 05:10:00 12.9 C 10.14 g/m*3 12.9 C 0 km/h
2656 15-06-2017 05:15:00 12.9 C 10.14 g/m*3 12.9 C 0 km/h
2657 15-06-2017 05:20:00 12.9 C 10.26 g/m*3 12.9 C 0 km/h
2658 15-06-2017 05:25:00 12.9 C 10.26 g/m*3 12.9 C 0 km/h
2659 15-06-2017 05:30:00 12.8 C 10.08 g/m*3 12.8 C 0 km/h
2660 15-06-2017 05:35:00 12.8 C 10.19 g/m*3 12.8 C 0 km/h
2661 15-06-2017 05:40:00 12.7 C 10.13 g/m*3 12.7 C 0 km/h
2662 15-06-2017 05:45:00 12.7 C 10.13 g/m*3 12.7 C 0 km/h
2663 15-06-2017 05:50:00 12.7 C 10.13 g/m*3 12.7 C 0 km/h
2664 15-06-2017 05:55:00 12.8 C 10.3 g/m*3 12.8 C 1.6 km/h
2665 15-06-2017 06:00:00 12.9 C 10.37 g/m*3 12.9 C 0 km/h
2666 15-06-2017 06:05:00 13 C 10.43 g/m*3 13 C 0 km/h
2667 15-06-2017 06:10:00 13.1 C 10.5 g/m*3 13.1 C 0 km/h
2668 15-06-2017 06:15:00 13.1 C 10.5 g/m*3 13.1 C 0 km/h
2669 15-06-2017 06:20:00 13.1 C 10.5 g/m*3 13.1 C 0 km/h
2670 15-06-2017 06:25:00 13 C 10.43 g/m*3 13 C 0 km/h
2671 15-06-2017 06:30:00 13 C 10.43 g/m*3 13 C 0 km/h
2672 15-06-2017 06:35:00 13 C 10.43 g/m*3 13 C 0 km/h
2673 15-06-2017 06:40:00 13.1 C 10.5 g/m*3 13.1 C 0 km/h
2674 15-06-2017 06:45:00 13.1 C 10.5 g/m*3 13.1 C 0 km/h
2675 15-06-2017 06:50:00 13.2 C 10.56 g/m*3 13.2 C 0 km/h
Sensor: Nr:Datum:Temp:Abs-Feuchte:Windchill:Wind:
Aussen-T/F 2676 15-06-2017 06:55:00 13.2 C 10.56 g/m*3 13.2 C 0 km/h
2677 15-06-2017 07:00:00 13.3 C 10.63 g/m*3 13.3 C 0 km/h
2678 15-06-2017 07:05:00 13.3 C 10.63 g/m*3 13.3 C 0 km/h
2679 15-06-2017 07:10:00 13.3 C 10.63 g/m*3 13.3 C 0 km/h
2680 15-06-2017 07:15:00 13.4 C 10.81 g/m*3 13.4 C 0 km/h
2681 15-06-2017 07:20:00 13.5 C 10.88 g/m*3 13.5 C 0 km/h
2682 15-06-2017 07:25:00 13.6 C 10.95 g/m*3 13.6 C 0 km/h
2683 15-06-2017 07:30:00 13.7 C 11.01 g/m*3 13.7 C 0 km/h
2684 15-06-2017 07:35:00 13.7 C 11.01 g/m*3 13.7 C 0 km/h
2685 15-06-2017 07:40:00 13.8 C 11.08 g/m*3 13.8 C 0 km/h
2686 15-06-2017 07:45:00 13.9 C 11.15 g/m*3 13.9 C 0 km/h
2687 15-06-2017 07:50:00 14.1 C 11.29 g/m*3 14.1 C 1.6 km/h
2688 15-06-2017 07:55:00 14.2 C 11.23 g/m*3 14.2 C 0 km/h
2689 15-06-2017 08:00:00 14.3 C 11.3 g/m*3 14.3 C 3.2 km/h
2690 15-06-2017 08:05:00 14.4 C 11.37 g/m*3 14.4 C 3.2 km/h
2691 15-06-2017 08:10:00 14.6 C 11.51 g/m*3 14.6 C 0 km/h
2692 15-06-2017 08:15:00 14.7 C 11.58 g/m*3 14.7 C 0 km/h
2693 15-06-2017 08:20:00 14.8 C 11.65 g/m*3 14.8 C 0 km/h
2694 15-06-2017 08:25:00 14.9 C 11.73 g/m*3 14.9 C 0 km/h
2695 15-06-2017 08:30:00 15.1 C 11.87 g/m*3 15.1 C 0 km/h
2696 15-06-2017 08:35:00 15.2 C 11.94 g/m*3 15.2 C 0 km/h
2697 15-06-2017 08:40:00 15.4 C 12.09 g/m*3 15.4 C 0 km/h
2698 15-06-2017 08:45:00 15.5 C 12.16 g/m*3 15.5 C 0 km/h
2699 15-06-2017 08:50:00 15.7 C 12.31 g/m*3 15.7 C 0 km/h
2700 15-06-2017 08:55:00 15.9 C 12.32 g/m*3 15.9 C 0 km/h
Sensor: Nr:Datum:Temp:Abs-Feuchte:Windchill:Wind:
Aussen-T/F 2701 15-06-2017 09:00:00 16.1 C 12.47 g/m*3 16.1 C 0 km/h
2702 15-06-2017 09:05:00 16.2 C 12.41 g/m*3 16.2 C 0 km/h
2703 15-06-2017 09:10:00 16.4 C 12.56 g/m*3 16.4 C 0 km/h
2704 15-06-2017 09:15:00 16.6 C 12.71 g/m*3 16.6 C 0 km/h
2705 15-06-2017 09:20:00 16.8 C 12.87 g/m*3 16.8 C 0 km/h
2706 15-06-2017 09:25:00 16.9 C 12.8 g/m*3 16.9 C 0 km/h
2707 15-06-2017 09:30:00 17.1 C 12.96 g/m*3 17.1 C 0 km/h
2708 15-06-2017 09:35:00 17.2 C 13.03 g/m*3 17.2 C 0 km/h
2709 15-06-2017 09:40:00 17.3 C 13.11 g/m*3 17.3 C 0 km/h
2710 15-06-2017 09:45:00 17.5 C 13.12 g/m*3 17.5 C 0 km/h
2711 15-06-2017 09:50:00 17.7 C 13.28 g/m*3 17.7 C 0 km/h
2712 15-06-2017 09:55:00 17.9 C 13.13 g/m*3 17.9 C 0 km/h
2713 15-06-2017 10:00:00 18.1 C 13.29 g/m*3 18.1 C 1.6 km/h
2714 15-06-2017 10:05:00 18.4 C 13.37 g/m*3 18.4 C 1.6 km/h
2715 15-06-2017 10:10:00 18.6 C 13.53 g/m*3 18.6 C 0 km/h
2716 15-06-2017 10:15:00 18.9 C 13.61 g/m*3 18.9 C 1.6 km/h
2717 15-06-2017 10:20:00 19.3 C 13.77 g/m*3 19.3 C 1.6 km/h
2718 15-06-2017 10:25:00 19.8 C 14.18 g/m*3 19.8 C 1.6 km/h
2719 15-06-2017 10:30:00 20.4 C 14.15 g/m*3 20.4 C 0 km/h
2720 15-06-2017 10:35:00 20.8 C 14.3 g/m*3 20.8 C 0 km/h
2721 15-06-2017 10:40:00 21.3 C 14.54 g/m*3 21.3 C 0 km/h
2722 15-06-2017 10:45:00 21.8 C 14.58 g/m*3 21.8 C 0 km/h
2723 15-06-2017 10:50:00 22.1 C 14.45 g/m*3 22.1 C 0 km/h
2724 15-06-2017 10:55:00 22.3 C 14.41 g/m*3 22.3 C 1.6 km/h
2725 15-06-2017 11:00:00 22.4 C 14.7 g/m*3 22.4 C 0 km/h
Sensor: Nr:Datum:Temp:Abs-Feuchte:Windchill:Wind:
Aussen-T/F 2726 15-06-2017 11:05:00 22.4 C 14.7 g/m*3 22.4 C 0 km/h
2727 15-06-2017 11:10:00 22.5 C 14.38 g/m*3 22.5 C 3.2 km/h
2728 15-06-2017 11:15:00 22.8 C 14.63 g/m*3 22.8 C 1.6 km/h
2729 15-06-2017 11:20:00 22.8 C 14.63 g/m*3 22.8 C 0 km/h
2730 15-06-2017 11:25:00 22.9 C 14.31 g/m*3 22.9 C 1.6 km/h
2731 15-06-2017 11:30:00 23.2 C 14.76 g/m*3 23.2 C 0 km/h
2732 15-06-2017 11:35:00 23.2 C 15.18 g/m*3 23.2 C 0 km/h
2733 15-06-2017 11:40:00 23.2 C 14.55 g/m*3 23.2 C 0 km/h
2734 15-06-2017 11:45:00 23.4 C 14.3 g/m*3 23.4 C 0 km/h
2735 15-06-2017 11:50:00 23.7 C 13.48 g/m*3 23.7 C 6.4 km/h
2736 15-06-2017 11:55:00 24.2 C 13.64 g/m*3 24.2 C 6.4 km/h
2737 15-06-2017 12:00:00 24.8 C 13.88 g/m*3 24.8 C 9.7 km/h
2738 15-06-2017 12:05:00 25.3 C 14.28 g/m*3 25.3 C 9.7 km/h
2739 15-06-2017 12:10:00 25.6 C 13.57 g/m*3 25.6 C 16.1 km/h
2740 15-06-2017 12:15:00 25.8 C 13.24 g/m*3 25.8 C 8.1 km/h
2741 15-06-2017 12:20:00 26.1 C 13.95 g/m*3 26.1 C 8.1 km/h
2742 15-06-2017 12:25:00 26.2 C 13.05 g/m*3 26.2 C 8.1 km/h
2743 15-06-2017 12:30:00 26.5 C 12.52 g/m*3 26.5 C 11.3 km/h
2744 15-06-2017 12:35:00 26.8 C 12.22 g/m*3 26.8 C 6.4 km/h
2745 15-06-2017 12:40:00 27.1 C 12.68 g/m*3 27.1 C 9.7 km/h
2746 15-06-2017 12:45:00 27.2 C 12.49 g/m*3 27.2 C 9.7 km/h
2747 15-06-2017 12:50:00 27.3 C 12.3 g/m*3 27.3 C 11.3 km/h
2748 15-06-2017 12:55:00 27.4 C 11.84 g/m*3 27.4 C 12.9 km/h
2749 15-06-2017 13:00:00 27.3 C 11.77 g/m*3 27.3 C 8.1 km/h
2750 15-06-2017 13:05:00 27.3 C 12.3 g/m*3 27.3 C 9.7 km/h
Sensor: Nr:Datum:Temp:Abs-Feuchte:Windchill:Wind:
Aussen-T/F 2751 15-06-2017 13:10:00 27.5 C 12.17 g/m*3 27.5 C 11.3 km/h
2752 15-06-2017 13:15:00 27.7 C 12.3 g/m*3 27.7 C 11.3 km/h
2753 15-06-2017 13:20:00 27.8 C 12.1 g/m*3 27.8 C 11.3 km/h
2754 15-06-2017 13:25:00 27.9 C 11.9 g/m*3 27.9 C 14.5 km/h
2755 15-06-2017 13:30:00 28.1 C 11.76 g/m*3 28.1 C 17.7 km/h
2756 15-06-2017 13:35:00 28.1 C 11.76 g/m*3 28.1 C 16.1 km/h
2757 15-06-2017 13:40:00 28.2 C 12.1 g/m*3 28.2 C 8.1 km/h
2758 15-06-2017 13:45:00 28.3 C 11.89 g/m*3 28.3 C 9.7 km/h
2759 15-06-2017 13:50:00 28.4 C 11.95 g/m*3 28.4 C 12.9 km/h
2760 15-06-2017 13:55:00 28.6 C 11.24 g/m*3 28.6 C 12.9 km/h
2761 15-06-2017 14:00:00 28.7 C 11.59 g/m*3 28.7 C 12.9 km/h
2762 15-06-2017 14:05:00 28.7 C 12.15 g/m*3 28.7 C 11.3 km/h
2763 15-06-2017 14:10:00 28.8 C 11.36 g/m*3 28.8 C 12.9 km/h
2764 15-06-2017 14:15:00 28.9 C 11.43 g/m*3 28.9 C 11.3 km/h
2765 15-06-2017 14:20:00 29.1 C 12.13 g/m*3 29.1 C 8.1 km/h
2766 15-06-2017 14:25:00 29.1 C 12.71 g/m*3 29.1 C 1.6 km/h
2767 15-06-2017 14:30:00 28.9 C 11.43 g/m*3 28.9 C 14.5 km/h
2768 15-06-2017 14:35:00 28.9 C 12.57 g/m*3 28.9 C 9.7 km/h
2769 15-06-2017 14:40:00 28.9 C 12.28 g/m*3 28.9 C 12.9 km/h
2770 15-06-2017 14:45:00 28.9 C 11.14 g/m*3 28.9 C 9.7 km/h
2771 15-06-2017 14:50:00 28.9 C 11.43 g/m*3 28.9 C 4.8 km/h
2772 15-06-2017 14:55:00 29.2 C 11.32 g/m*3 29.2 C 9.7 km/h
2773 15-06-2017 15:00:00 29.8 C 12 g/m*3 29.8 C 11.3 km/h
2774 15-06-2017 15:05:00 30.3 C 11.71 g/m*3 30.3 C 11.3 km/h
2775 15-06-2017 15:10:00 30.8 C 11.71 g/m*3 30.8 C 11.3 km/h
Sensor: Nr:Datum:Temp:Abs-Feuchte:Windchill:Wind:
Aussen-T/F 2776 15-06-2017 15:15:00 31.1 C 11.26 g/m*3 31.1 C 11.3 km/h
2777 15-06-2017 15:20:00 31.2 C 12.94 g/m*3 31.2 C 8.1 km/h
2778 15-06-2017 15:25:00 31.3 C 12.03 g/m*3 31.3 C 8.1 km/h
2779 15-06-2017 15:30:00 31.7 C 11.96 g/m*3 31.7 C 9.7 km/h
2780 15-06-2017 15:35:00 32 C 12.15 g/m*3 32 C 8.1 km/h
2781 15-06-2017 15:40:00 32.4 C 12.76 g/m*3 32.4 C 9.7 km/h
2782 15-06-2017 15:45:00 32.8 C 12.33 g/m*3 32.8 C 17.7 km/h
2783 15-06-2017 15:50:00 32.9 C 12.04 g/m*3 32.9 C 14.5 km/h
2784 15-06-2017 15:55:00 32.7 C 11.56 g/m*3 32.7 C 12.9 km/h
2785 15-06-2017 16:00:00 32.6 C 12.2 g/m*3 32.6 C 8.1 km/h
2786 15-06-2017 16:05:00 32.4 C 12.07 g/m*3 32.4 C 11.3 km/h
2787 15-06-2017 16:10:00 32.2 C 12.97 g/m*3 32.2 C 3.2 km/h
2788 15-06-2017 16:15:00 31.9 C 14.44 g/m*3 31.9 C 1.6 km/h
2789 15-06-2017 16:20:00 31.4 C 15.04 g/m*3 31.4 C 1.6 km/h
2790 15-06-2017 16:25:00 30.9 C 15.6 g/m*3 30.9 C 0 km/h
2791 15-06-2017 16:30:00 30.4 C 15.18 g/m*3 30.4 C 0 km/h
2792 15-06-2017 16:35:00 30.1 C 15.85 g/m*3 30.1 C 3.2 km/h
2793 15-06-2017 16:40:00 29.6 C 14.54 g/m*3 29.6 C 1.6 km/h
2794 15-06-2017 16:45:00 29.1 C 14.44 g/m*3 29.1 C 1.6 km/h
2795 15-06-2017 16:50:00 28.8 C 15.06 g/m*3 28.8 C 1.6 km/h
2796 15-06-2017 16:55:00 28.6 C 15.46 g/m*3 28.6 C 1.6 km/h
2797 15-06-2017 17:00:00 28.2 C 15.12 g/m*3 28.2 C 1.6 km/h
2798 15-06-2017 17:05:00 27.9 C 15.42 g/m*3 27.9 C 0 km/h
2799 15-06-2017 17:10:00 27.6 C 15.43 g/m*3 27.6 C 0 km/h
2800 15-06-2017 17:15:00 27.3 C 15.44 g/m*3 27.3 C 0 km/h
Sensor: Nr:Datum:Temp:Abs-Feuchte:Windchill:Wind:
Aussen-T/F 2801 15-06-2017 17:20:00 27 C 15.18 g/m*3 27 C 0 km/h
2802 15-06-2017 17:25:00 26.7 C 15.19 g/m*3 26.7 C 1.6 km/h
2803 15-06-2017 17:30:00 26.4 C 14.94 g/m*3 26.4 C 0 km/h
2804 15-06-2017 17:35:00 26.3 C 15.35 g/m*3 26.3 C 1.6 km/h
2805 15-06-2017 17:40:00 26.1 C 15.18 g/m*3 26.1 C 1.6 km/h
2806 15-06-2017 17:45:00 25.9 C 15.25 g/m*3 25.9 C 1.6 km/h
2807 15-06-2017 17:50:00 25.7 C 14.6 g/m*3 25.7 C 0 km/h
2808 15-06-2017 17:55:00 25.6 C 15 g/m*3 25.6 C 0 km/h
2809 15-06-2017 18:00:00 25.4 C 15.3 g/m*3 25.4 C 1.6 km/h
2810 15-06-2017 18:05:00 25.3 C 15.22 g/m*3 25.3 C 1.6 km/h
2811 15-06-2017 18:10:00 25.2 C 14.67 g/m*3 25.2 C 1.6 km/h
2812 15-06-2017 18:15:00 25.1 C 14.58 g/m*3 25.1 C 0 km/h
2813 15-06-2017 18:20:00 25.1 C 14.82 g/m*3 25.1 C 1.6 km/h
2814 15-06-2017 18:25:00 25.2 C 13.97 g/m*3 25.2 C 6.4 km/h
2815 15-06-2017 18:30:00 25.3 C 13.11 g/m*3 25.3 C 11.3 km/h
2816 15-06-2017 18:35:00 25.5 C 13.49 g/m*3 25.5 C 1.6 km/h
2817 15-06-2017 18:40:00 25.5 C 13.49 g/m*3 25.5 C 1.6 km/h
2818 15-06-2017 18:45:00 25.4 C 13.42 g/m*3 25.4 C 0 km/h
2819 15-06-2017 18:50:00 25.4 C 13.65 g/m*3 25.4 C 1.6 km/h
2820 15-06-2017 18:55:00 25.3 C 13.11 g/m*3 25.3 C 3.2 km/h
2821 15-06-2017 19:00:00 25.3 C 14.05 g/m*3 25.3 C 3.2 km/h
2822 15-06-2017 19:05:00 25.4 C 14.13 g/m*3 25.4 C 1.6 km/h
2823 15-06-2017 19:10:00 25.4 C 14.36 g/m*3 25.4 C 3.2 km/h
2824 15-06-2017 19:15:00 25.5 C 14.44 g/m*3 25.5 C 1.6 km/h
2825 15-06-2017 19:20:00 25.4 C 13.89 g/m*3 25.4 C 3.2 km/h
Sensor: Nr:Datum:Temp:Abs-Feuchte:Windchill:Wind:
Aussen-T/F 2826 15-06-2017 19:25:00 25.3 C 13.81 g/m*3 25.3 C 1.6 km/h
2827 15-06-2017 19:30:00 25.5 C 13.97 g/m*3 25.5 C 1.6 km/h
2828 15-06-2017 19:35:00 25.7 C 14.84 g/m*3 25.7 C 4.8 km/h
2829 15-06-2017 19:40:00 25.8 C 14.69 g/m*3 25.8 C 0 km/h
2830 15-06-2017 19:45:00 25.8 C 14.93 g/m*3 25.8 C 0 km/h
2831 15-06-2017 19:50:00 25.7 C 14.84 g/m*3 25.7 C 1.6 km/h
2832 15-06-2017 19:55:00 25.7 C 15.08 g/m*3 25.7 C 0 km/h
2833 15-06-2017 20:00:00 26 C 14.61 g/m*3 26 C 8.1 km/h
2834 15-06-2017 20:05:00 26.6 C 15.1 g/m*3 26.6 C 1.6 km/h
2835 15-06-2017 20:10:00 27.1 C 15.53 g/m*3 27.1 C 0 km/h
2836 15-06-2017 20:15:00 27.3 C 14.91 g/m*3 27.3 C 4.8 km/h
2837 15-06-2017 20:20:00 27.5 C 15.61 g/m*3 27.5 C 1.6 km/h
2838 15-06-2017 20:25:00 27.5 C 15.34 g/m*3 27.5 C 4.8 km/h
2839 15-06-2017 20:30:00 27.2 C 15.09 g/m*3 27.2 C 1.6 km/h
2840 15-06-2017 20:35:00 26.7 C 14.93 g/m*3 26.7 C 0 km/h
2841 15-06-2017 20:40:00 26.4 C 14.94 g/m*3 26.4 C 3.2 km/h
2842 15-06-2017 20:45:00 26.4 C 15.19 g/m*3 26.4 C 3.2 km/h
2843 15-06-2017 20:50:00 26.3 C 14.85 g/m*3 26.3 C 0 km/h
2844 15-06-2017 20:55:00 26.1 C 15.42 g/m*3 26.1 C 0 km/h
2845 15-06-2017 21:00:00 25.9 C 15.25 g/m*3 25.9 C 0 km/h
2846 15-06-2017 21:05:00 25.7 C 15.08 g/m*3 25.7 C 0 km/h
2847 15-06-2017 21:10:00 25.4 C 15.07 g/m*3 25.4 C 0 km/h
2848 15-06-2017 21:15:00 25.1 C 15.05 g/m*3 25.1 C 0 km/h
2849 15-06-2017 21:20:00 24.8 C 15.02 g/m*3 24.8 C 4.8 km/h
2850 15-06-2017 21:25:00 24.5 C 14.99 g/m*3 24.5 C 6.4 km/h
Sensor: Nr:Datum:Temp:Abs-Feuchte:Windchill:Wind:
Aussen-T/F 2851 15-06-2017 21:30:00 24.3 C 14.83 g/m*3 24.3 C 4.8 km/h
2852 15-06-2017 21:35:00 24.1 C 14.66 g/m*3 24.1 C 6.4 km/h
2853 15-06-2017 21:40:00 23.9 C 14.49 g/m*3 23.9 C 1.6 km/h
2854 15-06-2017 21:45:00 23.7 C 14.33 g/m*3 23.7 C 1.6 km/h
2855 15-06-2017 21:50:00 23.6 C 14.46 g/m*3 23.6 C 0 km/h
2856 15-06-2017 21:55:00 23.4 C 14.3 g/m*3 23.4 C 3.2 km/h
2857 15-06-2017 22:00:00 23.2 C 14.14 g/m*3 23.2 C 1.6 km/h
2858 15-06-2017 22:05:00 23.1 C 14.26 g/m*3 23.1 C 1.6 km/h
2859 15-06-2017 22:10:00 22.9 C 14.31 g/m*3 22.9 C 1.6 km/h
2860 15-06-2017 22:15:00 22.8 C 14.43 g/m*3 22.8 C 0 km/h
2861 15-06-2017 22:20:00 22.6 C 14.26 g/m*3 22.6 C 0 km/h
2862 15-06-2017 22:25:00 22.4 C 14.3 g/m*3 22.4 C 1.6 km/h
2863 15-06-2017 22:30:00 22.3 C 14.22 g/m*3 22.3 C 0 km/h
2864 15-06-2017 22:35:00 22.2 C 14.33 g/m*3 22.2 C 3.2 km/h
2865 15-06-2017 22:40:00 22.3 C 14.41 g/m*3 22.3 C 1.6 km/h
2866 15-06-2017 22:45:00 22.3 C 14.22 g/m*3 22.3 C 1.6 km/h
2867 15-06-2017 22:50:00 22.3 C 14.22 g/m*3 22.3 C 1.6 km/h
2868 15-06-2017 22:55:00 22.3 C 14.22 g/m*3 22.3 C 1.6 km/h
2869 15-06-2017 23:00:00 22.3 C 13.82 g/m*3 22.3 C 6.4 km/h
2870 15-06-2017 23:05:00 22.3 C 13.62 g/m*3 22.3 C 8.1 km/h
2871 15-06-2017 23:10:00 22.4 C 13.11 g/m*3 22.4 C 12.9 km/h
2872 15-06-2017 23:15:00 22.4 C 12.91 g/m*3 22.4 C 12.9 km/h
2873 15-06-2017 23:20:00 22.5 C 12.78 g/m*3 22.5 C 6.4 km/h
2874 15-06-2017 23:25:00 22.4 C 12.91 g/m*3 22.4 C 3.2 km/h
2875 15-06-2017 23:30:00 22.3 C 12.83 g/m*3 22.3 C 8.1 km/h
Sensor: Nr:Datum:Temp:Abs-Feuchte:Windchill:Wind:
Aussen-T/F 2876 15-06-2017 23:35:00 22.1 C 11.91 g/m*3 22.1 C 19.3 km/h
2877 15-06-2017 23:40:00 22.2 C 11.39 g/m*3 22.2 C 19.3 km/h
2878 15-06-2017 23:45:00 22.4 C 11.72 g/m*3 22.4 C 12.9 km/h
2879 15-06-2017 23:50:00 22.4 C 11.52 g/m*3 22.4 C 9.7 km/h
2880 15-06-2017 23:55:00 22.4 C 11.72 g/m*3 22.4 C 3.2 km/h
2881 16-06-2017 00:00:00 22.3 C 11.45 g/m*3 22.3 C 4.8 km/h
2882 16-06-2017 00:05:00 22.2 C 11.78 g/m*3 22.2 C 3.2 km/h
2883 16-06-2017 00:10:00 21.9 C 11.77 g/m*3 21.9 C 1.6 km/h
2884 16-06-2017 00:15:00 21.6 C 11.76 g/m*3 21.6 C 3.2 km/h
2885 16-06-2017 00:20:00 21.3 C 11.74 g/m*3 21.3 C 1.6 km/h
2886 16-06-2017 00:25:00 21.1 C 11.61 g/m*3 21.1 C 1.6 km/h
2887 16-06-2017 00:30:00 20.8 C 11.23 g/m*3 20.8 C 6.4 km/h
2888 16-06-2017 00:35:00 20.6 C 10.92 g/m*3 20.6 C 3.2 km/h
2889 16-06-2017 00:40:00 20.4 C 10.61 g/m*3 20.4 C 1.6 km/h
2890 16-06-2017 00:45:00 20.4 C 10.97 g/m*3 20.4 C 4.8 km/h
2891 16-06-2017 00:50:00 20.3 C 10.73 g/m*3 20.3 C 1.6 km/h
2892 16-06-2017 00:55:00 20.3 C 10.55 g/m*3 20.3 C 6.4 km/h
2893 16-06-2017 01:00:00 20.3 C 10.55 g/m*3 20.3 C 3.2 km/h
2894 16-06-2017 01:05:00 20.2 C 10.49 g/m*3 20.2 C 1.6 km/h
2895 16-06-2017 01:10:00 20.1 C 10.6 g/m*3 20.1 C 0 km/h
2896 16-06-2017 01:15:00 19.9 C 10.65 g/m*3 19.9 C 0 km/h
2897 16-06-2017 01:20:00 19.7 C 10.53 g/m*3 19.7 C 1.6 km/h
2898 16-06-2017 01:25:00 19.4 C 10.51 g/m*3 19.4 C 8.1 km/h
2899 16-06-2017 01:30:00 19.3 C 10.45 g/m*3 19.3 C 4.8 km/h
2900 16-06-2017 01:35:00 19.3 C 10.62 g/m*3 19.3 C 1.6 km/h
Sensor: Nr:Datum:Temp:Abs-Feuchte:Windchill:Wind:
Aussen-T/F 2901 16-06-2017 01:40:00 19.2 C 10.39 g/m*3 19.2 C 6.4 km/h
2902 16-06-2017 01:45:00 19.2 C 10.22 g/m*3 19.2 C 8.1 km/h
2903 16-06-2017 01:50:00 19.3 C 10.28 g/m*3 19.3 C 6.4 km/h
2904 16-06-2017 01:55:00 19.2 C 10.39 g/m*3 19.2 C 4.8 km/h
2905 16-06-2017 02:00:00 19.2 C 10.06 g/m*3 19.2 C 9.7 km/h
2906 16-06-2017 02:05:00 19.3 C 10.12 g/m*3 19.3 C 8.1 km/h
2907 16-06-2017 02:10:00 19.4 C 10.18 g/m*3 19.4 C 8.1 km/h
2908 16-06-2017 02:15:00 19.4 C 10.34 g/m*3 19.4 C 3.2 km/h
2909 16-06-2017 02:20:00 19.4 C 10.51 g/m*3 19.4 C 0 km/h
2910 16-06-2017 02:25:00 19.2 C 10.72 g/m*3 19.2 C 0 km/h
2911 16-06-2017 02:30:00 18.9 C 10.53 g/m*3 18.9 C 0 km/h
2912 16-06-2017 02:35:00 18.7 C 10.57 g/m*3 18.7 C 1.6 km/h
2913 16-06-2017 02:40:00 18.4 C 10.54 g/m*3 18.4 C 1.6 km/h
2914 16-06-2017 02:45:00 18.2 C 10.57 g/m*3 18.2 C 0 km/h
2915 16-06-2017 02:50:00 18.1 C 10.51 g/m*3 18.1 C 1.6 km/h
2916 16-06-2017 02:55:00 17.9 C 10.54 g/m*3 17.9 C 0 km/h
2917 16-06-2017 03:00:00 17.8 C 10.62 g/m*3 17.8 C 0 km/h
2918 16-06-2017 03:05:00 17.6 C 10.5 g/m*3 17.6 C 0 km/h
2919 16-06-2017 03:10:00 17.5 C 10.59 g/m*3 17.5 C 0 km/h
2920 16-06-2017 03:15:00 17.4 C 10.67 g/m*3 17.4 C 0 km/h
2921 16-06-2017 03:20:00 17.3 C 10.61 g/m*3 17.3 C 0 km/h
2922 16-06-2017 03:25:00 17.2 C 10.69 g/m*3 17.2 C 0 km/h
2923 16-06-2017 03:30:00 17.1 C 10.63 g/m*3 17.1 C 0 km/h
2924 16-06-2017 03:35:00 16.9 C 10.64 g/m*3 16.9 C 0 km/h
2925 16-06-2017 03:40:00 16.8 C 10.72 g/m*3 16.8 C 1.6 km/h
Sensor: Nr:Datum:Temp:Abs-Feuchte:Windchill:Wind:
Aussen-T/F 2926 16-06-2017 03:45:00 16.8 C 10.87 g/m*3 16.8 C 0 km/h
2927 16-06-2017 03:50:00 16.7 C 10.8 g/m*3 16.7 C 0 km/h
2928 16-06-2017 03:55:00 16.6 C 10.74 g/m*3 16.6 C 0 km/h
2929 16-06-2017 04:00:00 16.6 C 10.88 g/m*3 16.6 C 0 km/h
2930 16-06-2017 04:05:00 16.6 C 10.74 g/m*3 16.6 C 8.1 km/h
2931 16-06-2017 04:10:00 16.6 C 10.88 g/m*3 16.6 C 0 km/h
2932 16-06-2017 04:15:00 16.6 C 10.74 g/m*3 16.6 C 4.8 km/h
2933 16-06-2017 04:20:00 16.7 C 10.8 g/m*3 16.7 C 1.6 km/h
2934 16-06-2017 04:25:00 16.8 C 10.72 g/m*3 16.8 C 8.1 km/h
2935 16-06-2017 04:30:00 16.9 C 10.79 g/m*3 16.9 C 3.2 km/h
2936 16-06-2017 04:35:00 17 C 10.85 g/m*3 17 C 1.6 km/h
2937 16-06-2017 04:40:00 17.1 C 10.77 g/m*3 17.1 C 3.2 km/h
2938 16-06-2017 04:45:00 17.1 C 10.92 g/m*3 17.1 C 8.1 km/h
2939 16-06-2017 04:50:00 17.2 C 10.98 g/m*3 17.2 C 3.2 km/h
2940 16-06-2017 04:55:00 17.2 C 10.84 g/m*3 17.2 C 4.8 km/h
2941 16-06-2017 05:00:00 17.2 C 10.84 g/m*3 17.2 C 1.6 km/h
2942 16-06-2017 05:05:00 17.2 C 10.84 g/m*3 17.2 C 3.2 km/h
2943 16-06-2017 05:10:00 17.2 C 10.84 g/m*3 17.2 C 8.1 km/h
2944 16-06-2017 05:15:00 17.2 C 10.69 g/m*3 17.2 C 8.1 km/h
2945 16-06-2017 05:20:00 17.2 C 10.84 g/m*3 17.2 C 4.8 km/h
2946 16-06-2017 05:25:00 17.2 C 10.84 g/m*3 17.2 C 8.1 km/h
2947 16-06-2017 05:30:00 17.2 C 10.84 g/m*3 17.2 C 4.8 km/h
2948 16-06-2017 05:35:00 17.2 C 10.84 g/m*3 17.2 C 6.4 km/h
2949 16-06-2017 05:40:00 17.2 C 10.84 g/m*3 17.2 C 9.7 km/h
2950 16-06-2017 05:45:00 17.1 C 10.77 g/m*3 17.1 C 9.7 km/h
Sensor: Nr:Datum:Temp:Abs-Feuchte:Windchill:Wind:
Aussen-T/F 2951 16-06-2017 05:50:00 17.1 C 10.92 g/m*3 17.1 C 4.8 km/h
2952 16-06-2017 05:55:00 17.1 C 10.92 g/m*3 17.1 C 6.4 km/h
2953 16-06-2017 06:00:00 17.1 C 10.92 g/m*3 17.1 C 3.2 km/h
2954 16-06-2017 06:05:00 17 C 11 g/m*3 17 C 1.6 km/h
2955 16-06-2017 06:10:00 16.9 C 10.93 g/m*3 16.9 C 4.8 km/h
2956 16-06-2017 06:15:00 16.9 C 10.93 g/m*3 16.9 C 3.2 km/h
2957 16-06-2017 06:20:00 16.8 C 10.87 g/m*3 16.8 C 1.6 km/h
2958 16-06-2017 06:25:00 16.7 C 10.94 g/m*3 16.7 C 3.2 km/h
2959 16-06-2017 06:30:00 16.6 C 10.88 g/m*3 16.6 C 0 km/h
2960 16-06-2017 06:35:00 16.4 C 10.89 g/m*3 16.4 C 1.6 km/h
2961 16-06-2017 06:40:00 16.3 C 10.82 g/m*3 16.3 C 3.2 km/h
2962 16-06-2017 06:45:00 16.3 C 10.96 g/m*3 16.3 C 1.6 km/h
2963 16-06-2017 06:50:00 16.2 C 10.89 g/m*3 16.2 C 0 km/h
2964 16-06-2017 06:55:00 16.1 C 10.97 g/m*3 16.1 C 3.2 km/h
2965 16-06-2017 07:00:00 16.1 C 10.97 g/m*3 16.1 C 3.2 km/h
2966 16-06-2017 07:05:00 16 C 10.9 g/m*3 16 C 0 km/h
2967 16-06-2017 07:10:00 15.9 C 10.97 g/m*3 15.9 C 0 km/h
2968 16-06-2017 07:15:00 15.9 C 10.97 g/m*3 15.9 C 0 km/h
2969 16-06-2017 07:20:00 15.8 C 10.9 g/m*3 15.8 C 0 km/h
2970 16-06-2017 07:25:00 15.8 C 10.9 g/m*3 15.8 C 0 km/h
2971 16-06-2017 07:30:00 15.8 C 11.04 g/m*3 15.8 C 1.6 km/h
2972 16-06-2017 07:35:00 15.8 C 11.04 g/m*3 15.8 C 0 km/h
2973 16-06-2017 07:40:00 15.8 C 11.17 g/m*3 15.8 C 0 km/h
2974 16-06-2017 07:45:00 15.8 C 11.17 g/m*3 15.8 C 0 km/h
2975 16-06-2017 07:50:00 15.9 C 11.24 g/m*3 15.9 C 0 km/h
Sensor: Nr:Datum:Temp:Abs-Feuchte:Windchill:Wind:
Aussen-T/F 2976 16-06-2017 07:55:00 15.9 C 11.1 g/m*3 15.9 C 1.6 km/h
2977 16-06-2017 08:00:00 15.9 C 11.1 g/m*3 15.9 C 1.6 km/h
2978 16-06-2017 08:05:00 15.9 C 10.97 g/m*3 15.9 C 6.4 km/h
2979 16-06-2017 08:10:00 16.1 C 10.97 g/m*3 16.1 C 6.4 km/h
2980 16-06-2017 08:15:00 16.2 C 11.03 g/m*3 16.2 C 3.2 km/h
2981 16-06-2017 08:20:00 16.3 C 10.96 g/m*3 16.3 C 4.8 km/h
2982 16-06-2017 08:25:00 16.4 C 10.89 g/m*3 16.4 C 8.1 km/h
2983 16-06-2017 08:30:00 16.6 C 10.74 g/m*3 16.6 C 11.3 km/h
2984 16-06-2017 08:35:00 16.8 C 10.87 g/m*3 16.8 C 8.1 km/h
2985 16-06-2017 08:40:00 17 C 11 g/m*3 17 C 1.6 km/h
2986 16-06-2017 08:45:00 17.2 C 10.69 g/m*3 17.2 C 9.7 km/h
2987 16-06-2017 08:50:00 17.3 C 10.61 g/m*3 17.3 C 9.7 km/h
2988 16-06-2017 08:55:00 17.5 C 10.44 g/m*3 17.5 C 12.9 km/h
2989 16-06-2017 09:00:00 17.6 C 10.35 g/m*3 17.6 C 11.3 km/h
2990 16-06-2017 09:05:00 17.8 C 10.32 g/m*3 17.8 C 14.5 km/h
2991 16-06-2017 09:10:00 17.9 C 10.38 g/m*3 17.9 C 6.4 km/h
2992 16-06-2017 09:15:00 18.2 C 10.41 g/m*3 18.2 C 11.3 km/h
2993 16-06-2017 09:20:00 18.3 C 10.63 g/m*3 18.3 C 6.4 km/h
2994 16-06-2017 09:25:00 18.4 C 10.38 g/m*3 18.4 C 12.9 km/h
2995 16-06-2017 09:30:00 18.4 C 10.54 g/m*3 18.4 C 11.3 km/h
2996 16-06-2017 09:35:00 18.4 C 10.7 g/m*3 18.4 C 9.7 km/h
2997 16-06-2017 09:40:00 18.5 C 10.44 g/m*3 18.5 C 11.3 km/h
2998 16-06-2017 09:45:00 18.6 C 10.66 g/m*3 18.6 C 8.1 km/h
2999 16-06-2017 09:50:00 18.6 C 10.5 g/m*3 18.6 C 12.9 km/h
3000 16-06-2017 09:55:00 18.8 C 10.31 g/m*3 18.8 C 17.7 km/h
Sensor: Nr:Datum:Temp:Abs-Feuchte:Windchill:Wind:
Aussen-T/F 3001 16-06-2017 10:00:00 19 C 10.27 g/m*3 19 C 12.9 km/h
3002 16-06-2017 10:05:00 19.1 C 10.33 g/m*3 19.1 C 9.7 km/h
3003 16-06-2017 10:10:00 19.2 C 10.39 g/m*3 19.2 C 9.7 km/h
3004 16-06-2017 10:15:00 19.2 C 10.22 g/m*3 19.2 C 9.7 km/h
3005 16-06-2017 10:20:00 19.3 C 10.28 g/m*3 19.3 C 11.3 km/h
3006 16-06-2017 10:25:00 19.7 C 10.02 g/m*3 19.7 C 11.3 km/h
3007 16-06-2017 10:30:00 19.9 C 10.31 g/m*3 19.9 C 11.3 km/h
3008 16-06-2017 10:35:00 19.9 C 9.97 g/m*3 19.9 C 16.1 km/h
3009 16-06-2017 10:40:00 20 C 10.02 g/m*3 20 C 11.3 km/h
3010 16-06-2017 10:45:00 20.2 C 9.97 g/m*3 20.2 C 8.1 km/h
3011 16-06-2017 10:50:00 20.2 C 10.14 g/m*3 20.2 C 6.4 km/h
3012 16-06-2017 10:55:00 20.3 C 10.02 g/m*3 20.3 C 14.5 km/h
3013 16-06-2017 11:00:00 20.5 C 10.32 g/m*3 20.5 C 12.9 km/h
3014 16-06-2017 11:05:00 20.4 C 10.44 g/m*3 20.4 C 16.1 km/h
3015 16-06-2017 11:10:00 20.3 C 10.38 g/m*3 20.3 C 11.3 km/h
3016 16-06-2017 11:15:00 20.2 C 10.67 g/m*3 20.2 C 12.9 km/h
3017 16-06-2017 11:20:00 20.1 C 10.43 g/m*3 20.1 C 6.4 km/h
3018 16-06-2017 11:25:00 20.2 C 10.49 g/m*3 20.2 C 6.4 km/h
3019 16-06-2017 11:30:00 20.2 C 10.49 g/m*3 20.2 C 9.7 km/h
3020 16-06-2017 11:35:00 20.2 C 10.49 g/m*3 20.2 C 11.3 km/h
3021 16-06-2017 11:40:00 20.1 C 10.6 g/m*3 20.1 C 9.7 km/h
3022 16-06-2017 11:45:00 20.1 C 10.78 g/m*3 20.1 C 8.1 km/h
3023 16-06-2017 11:50:00 20.2 C 10.49 g/m*3 20.2 C 11.3 km/h
3024 16-06-2017 11:55:00 20.2 C 10.14 g/m*3 20.2 C 9.7 km/h
3025 16-06-2017 12:00:00 20.2 C 10.14 g/m*3 20.2 C 6.4 km/h
Sensor: Nr:Datum:Temp:Abs-Feuchte:Windchill:Wind:
Aussen-T/F 3026 16-06-2017 12:05:00 20.3 C 10.38 g/m*3 20.3 C 12.9 km/h
3027 16-06-2017 12:10:00 20.4 C 9.73 g/m*3 20.4 C 12.9 km/h
3028 16-06-2017 12:15:00 20.4 C 9.73 g/m*3 20.4 C 11.3 km/h
3029 16-06-2017 12:20:00 20.6 C 9.66 g/m*3 20.6 C 12.9 km/h
3030 16-06-2017 12:25:00 20.7 C 9.72 g/m*3 20.7 C 12.9 km/h
3031 16-06-2017 12:30:00 20.8 C 9.96 g/m*3 20.8 C 17.7 km/h
3032 16-06-2017 12:35:00 20.8 C 9.6 g/m*3 20.8 C 17.7 km/h
3033 16-06-2017 12:40:00 20.6 C 9.66 g/m*3 20.6 C 12.9 km/h
3034 16-06-2017 12:45:00 20.5 C 9.61 g/m*3 20.5 C 17.7 km/h
3035 16-06-2017 12:50:00 20.5 C 9.43 g/m*3 20.5 C 11.3 km/h
3036 16-06-2017 12:55:00 20.5 C 9.25 g/m*3 20.5 C 17.7 km/h
3037 16-06-2017 13:00:00 20.4 C 9.38 g/m*3 20.4 C 12.9 km/h
3038 16-06-2017 13:05:00 20.6 C 9.66 g/m*3 20.6 C 11.3 km/h
3039 16-06-2017 13:10:00 20.7 C 9.54 g/m*3 20.7 C 14.5 km/h
3040 16-06-2017 13:15:00 20.8 C 9.6 g/m*3 20.8 C 11.3 km/h
3041 16-06-2017 13:20:00 20.8 C 9.78 g/m*3 20.8 C 11.3 km/h
3042 16-06-2017 13:25:00 20.9 C 9.47 g/m*3 20.9 C 8.1 km/h
3043 16-06-2017 13:30:00 21.1 C 9.58 g/m*3 21.1 C 14.5 km/h
3044 16-06-2017 13:35:00 21.2 C 9.64 g/m*3 21.2 C 12.9 km/h
3045 16-06-2017 13:40:00 21.4 C 9.75 g/m*3 21.4 C 9.7 km/h
3046 16-06-2017 13:45:00 21.6 C 9.1 g/m*3 21.6 C 11.3 km/h
3047 16-06-2017 13:50:00 21.4 C 8.81 g/m*3 21.4 C 22.5 km/h
3048 16-06-2017 13:55:00 21.3 C 9.32 g/m*3 21.3 C 20.9 km/h
3049 16-06-2017 14:00:00 21.2 C 9.08 g/m*3 21.2 C 20.9 km/h
3050 16-06-2017 14:05:00 21.1 C 9.4 g/m*3 21.1 C 16.1 km/h
Sensor: Nr:Datum:Temp:Abs-Feuchte:Windchill:Wind:
Aussen-T/F 3051 16-06-2017 14:10:00 21.1 C 9.4 g/m*3 21.1 C 19.3 km/h
3052 16-06-2017 14:15:00 21 C 9.71 g/m*3 21 C 12.9 km/h
3053 16-06-2017 14:20:00 21.1 C 9.58 g/m*3 21.1 C 14.5 km/h
3054 16-06-2017 14:25:00 21.2 C 9.45 g/m*3 21.2 C 12.9 km/h
3055 16-06-2017 14:30:00 21.3 C 9.51 g/m*3 21.3 C 11.3 km/h
3056 16-06-2017 14:35:00 21.4 C 9.37 g/m*3 21.4 C 19.3 km/h
3057 16-06-2017 14:40:00 21.4 C 9.56 g/m*3 21.4 C 17.7 km/h
3058 16-06-2017 14:45:00 21.4 C 9.37 g/m*3 21.4 C 17.7 km/h
3059 16-06-2017 14:50:00 21.4 C 9.75 g/m*3 21.4 C 12.9 km/h
3060 16-06-2017 14:55:00 21.4 C 9.56 g/m*3 21.4 C 16.1 km/h
3061 16-06-2017 15:00:00 21.6 C 9.67 g/m*3 21.6 C 16.1 km/h
3062 16-06-2017 15:05:00 21.8 C 9.59 g/m*3 21.8 C 11.3 km/h
3063 16-06-2017 15:10:00 21.7 C 9.35 g/m*3 21.7 C 12.9 km/h
3064 16-06-2017 15:15:00 21.6 C 9.29 g/m*3 21.6 C 14.5 km/h
3065 16-06-2017 15:20:00 21.7 C 9.73 g/m*3 21.7 C 16.1 km/h
3066 16-06-2017 15:25:00 21.8 C 9.78 g/m*3 21.8 C 12.9 km/h
3067 16-06-2017 15:30:00 21.9 C 9.65 g/m*3 21.9 C 19.3 km/h
3068 16-06-2017 15:35:00 21.8 C 9.4 g/m*3 21.8 C 17.7 km/h
3069 16-06-2017 15:40:00 21.7 C 9.73 g/m*3 21.7 C 17.7 km/h
3070 16-06-2017 15:45:00 21.8 C 9.59 g/m*3 21.8 C 14.5 km/h
3071 16-06-2017 15:50:00 21.8 C 9.4 g/m*3 21.8 C 14.5 km/h
3072 16-06-2017 15:55:00 21.7 C 9.35 g/m*3 21.7 C 11.3 km/h
3073 16-06-2017 16:00:00 21.4 C 9.37 g/m*3 21.4 C 11.3 km/h
3074 16-06-2017 16:05:00 21.3 C 9.69 g/m*3 21.3 C 12.9 km/h
3075 16-06-2017 16:10:00 21.2 C 9.27 g/m*3 21.2 C 14.5 km/h
Sensor: Nr:Datum:Temp:Abs-Feuchte:Windchill:Wind:
Aussen-T/F 3076 16-06-2017 16:15:00 21.2 C 9.64 g/m*3 21.2 C 9.7 km/h
3077 16-06-2017 16:20:00 21.2 C 9.82 g/m*3 21.2 C 6.4 km/h
3078 16-06-2017 16:25:00 21.2 C 9.27 g/m*3 21.2 C 12.9 km/h
3079 16-06-2017 16:30:00 21.2 C 9.45 g/m*3 21.2 C 12.9 km/h
3080 16-06-2017 16:35:00 21.2 C 9.45 g/m*3 21.2 C 11.3 km/h
3081 16-06-2017 16:40:00 21.3 C 9.51 g/m*3 21.3 C 9.7 km/h
3082 16-06-2017 16:45:00 21.5 C 9.43 g/m*3 21.5 C 19.3 km/h
3083 16-06-2017 16:50:00 21.3 C 9.69 g/m*3 21.3 C 16.1 km/h
3084 16-06-2017 16:55:00 21.2 C 9.45 g/m*3 21.2 C 9.7 km/h
3085 16-06-2017 17:00:00 21.2 C 9.64 g/m*3 21.2 C 11.3 km/h
3086 16-06-2017 17:05:00 21.2 C 9.64 g/m*3 21.2 C 12.9 km/h
3087 16-06-2017 17:10:00 21.7 C 9.92 g/m*3 21.7 C 14.5 km/h
3088 16-06-2017 17:15:00 21.8 C 9.78 g/m*3 21.8 C 17.7 km/h
3089 16-06-2017 17:20:00 21.6 C 9.67 g/m*3 21.6 C 12.9 km/h
3090 16-06-2017 17:25:00 21.4 C 9.94 g/m*3 21.4 C 11.3 km/h
3091 16-06-2017 17:30:00 21.3 C 9.88 g/m*3 21.3 C 11.3 km/h
3092 16-06-2017 17:35:00 21.3 C 9.88 g/m*3 21.3 C 9.7 km/h
3093 16-06-2017 17:40:00 21.1 C 9.77 g/m*3 21.1 C 14.5 km/h
3094 16-06-2017 17:45:00 20.9 C 9.83 g/m*3 20.9 C 8.1 km/h
3095 16-06-2017 17:50:00 20.7 C 9.72 g/m*3 20.7 C 9.7 km/h
3096 16-06-2017 17:55:00 20.5 C 9.79 g/m*3 20.5 C 8.1 km/h
3097 16-06-2017 18:00:00 20.6 C 10.02 g/m*3 20.6 C 11.3 km/h
3098 16-06-2017 18:05:00 20.6 C 10.02 g/m*3 20.6 C 8.1 km/h
3099 16-06-2017 18:10:00 20.6 C 9.84 g/m*3 20.6 C 14.5 km/h
3100 16-06-2017 18:15:00 20.4 C 9.91 g/m*3 20.4 C 14.5 km/h
Sensor: Nr:Datum:Temp:Abs-Feuchte:Windchill:Wind:
Aussen-T/F 3101 16-06-2017 18:20:00 20.2 C 9.79 g/m*3 20.2 C 19.3 km/h
3102 16-06-2017 18:25:00 20 C 9.85 g/m*3 20 C 9.7 km/h
3103 16-06-2017 18:30:00 19.9 C 9.79 g/m*3 19.9 C 12.9 km/h
3104 16-06-2017 18:35:00 20 C 10.02 g/m*3 20 C 6.4 km/h
3105 16-06-2017 18:40:00 20.1 C 9.91 g/m*3 20.1 C 12.9 km/h
3106 16-06-2017 18:45:00 20 C 9.85 g/m*3 20 C 11.3 km/h
3107 16-06-2017 18:50:00 19.9 C 9.97 g/m*3 19.9 C 8.1 km/h
3108 16-06-2017 18:55:00 19.9 C 9.97 g/m*3 19.9 C 8.1 km/h
3109 16-06-2017 19:00:00 20 C 10.02 g/m*3 20 C 12.9 km/h
3110 16-06-2017 19:05:00 20 C 9.68 g/m*3 20 C 12.9 km/h
3111 16-06-2017 19:10:00 19.9 C 9.79 g/m*3 19.9 C 14.5 km/h
3112 16-06-2017 19:15:00 19.7 C 9.85 g/m*3 19.7 C 16.1 km/h
3113 16-06-2017 19:20:00 19.7 C 9.85 g/m*3 19.7 C 11.3 km/h
3114 16-06-2017 19:25:00 19.6 C 9.79 g/m*3 19.6 C 11.3 km/h
3115 16-06-2017 19:30:00 19.6 C 9.79 g/m*3 19.6 C 14.5 km/h
3116 16-06-2017 19:35:00 19.5 C 9.57 g/m*3 19.5 C 12.9 km/h
3117 16-06-2017 19:40:00 19.4 C 9.68 g/m*3 19.4 C 14.5 km/h
3118 16-06-2017 19:45:00 19.4 C 9.51 g/m*3 19.4 C 16.1 km/h
3119 16-06-2017 19:50:00 19.3 C 9.45 g/m*3 19.3 C 14.5 km/h
3120 16-06-2017 19:55:00 19.3 C 9.45 g/m*3 19.3 C 9.7 km/h
3121 16-06-2017 20:00:00 19.3 C 9.79 g/m*3 19.3 C 11.3 km/h
3122 16-06-2017 20:05:00 19.2 C 9.56 g/m*3 19.2 C 11.3 km/h
3123 16-06-2017 20:10:00 19.2 C 9.56 g/m*3 19.2 C 12.9 km/h
3124 16-06-2017 20:15:00 19.1 C 9.51 g/m*3 19.1 C 9.7 km/h
3125 16-06-2017 20:20:00 19 C 9.45 g/m*3 19 C 8.1 km/h
Sensor: Nr:Datum:Temp:Abs-Feuchte:Windchill:Wind:
Aussen-T/F 3126 16-06-2017 20:25:00 18.9 C 9.4 g/m*3 18.9 C 11.3 km/h
3127 16-06-2017 20:30:00 18.9 C 9.4 g/m*3 18.9 C 12.9 km/h
3128 16-06-2017 20:35:00 18.8 C 9.34 g/m*3 18.8 C 6.4 km/h
3129 16-06-2017 20:40:00 18.9 C 9.4 g/m*3 18.9 C 6.4 km/h
3130 16-06-2017 20:45:00 18.9 C 9.56 g/m*3 18.9 C 8.1 km/h
3131 16-06-2017 20:50:00 18.8 C 9.5 g/m*3 18.8 C 11.3 km/h
3132 16-06-2017 20:55:00 18.7 C 9.45 g/m*3 18.7 C 4.8 km/h
3133 16-06-2017 21:00:00 18.7 C 9.45 g/m*3 18.7 C 8.1 km/h
3134 16-06-2017 21:05:00 18.6 C 9.55 g/m*3 18.6 C 6.4 km/h
3135 16-06-2017 21:10:00 18.4 C 9.12 g/m*3 18.4 C 16.1 km/h
3136 16-06-2017 21:15:00 18.3 C 9.22 g/m*3 18.3 C 6.4 km/h
3137 16-06-2017 21:20:00 18.3 C 9.22 g/m*3 18.3 C 6.4 km/h
3138 16-06-2017 21:25:00 18.2 C 9.17 g/m*3 18.2 C 8.1 km/h
3139 16-06-2017 21:30:00 18.1 C 9.27 g/m*3 18.1 C 6.4 km/h
3140 16-06-2017 21:35:00 18.1 C 9.27 g/m*3 18.1 C 3.2 km/h
3141 16-06-2017 21:40:00 17.9 C 9.16 g/m*3 17.9 C 9.7 km/h
3142 16-06-2017 21:45:00 17.8 C 9.26 g/m*3 17.8 C 4.8 km/h
3143 16-06-2017 21:50:00 17.8 C 9.26 g/m*3 17.8 C 8.1 km/h
3144 16-06-2017 21:55:00 17.7 C 9.2 g/m*3 17.7 C 6.4 km/h
3145 16-06-2017 22:00:00 17.7 C 9.51 g/m*3 17.7 C 8.1 km/h
3146 16-06-2017 22:05:00 17.6 C 9.45 g/m*3 17.6 C 3.2 km/h
3147 16-06-2017 22:10:00 17.4 C 9.19 g/m*3 17.4 C 3.2 km/h
3148 16-06-2017 22:15:00 17.4 C 9.48 g/m*3 17.4 C 4.8 km/h
3149 16-06-2017 22:20:00 17.3 C 9.58 g/m*3 17.3 C 1.6 km/h
3150 16-06-2017 22:25:00 17.3 C 9.58 g/m*3 17.3 C 4.8 km/h
Sensor: Nr:Datum:Temp:Abs-Feuchte:Windchill:Wind:
Aussen-T/F 3151 16-06-2017 22:30:00 17.2 C 9.67 g/m*3 17.2 C 0 km/h
3152 16-06-2017 22:35:00 17.1 C 9.75 g/m*3 17.1 C 0 km/h
3153 16-06-2017 22:40:00 16.9 C 9.64 g/m*3 16.9 C 1.6 km/h
3154 16-06-2017 22:45:00 16.8 C 9.29 g/m*3 16.8 C 4.8 km/h
3155 16-06-2017 22:50:00 16.7 C 9.52 g/m*3 16.7 C 0 km/h
3156 16-06-2017 22:55:00 16.7 C 9.38 g/m*3 16.7 C 6.4 km/h
3157 16-06-2017 23:00:00 16.7 C 9.24 g/m*3 16.7 C 4.8 km/h
3158 16-06-2017 23:05:00 16.7 C 9.38 g/m*3 16.7 C 4.8 km/h
3159 16-06-2017 23:10:00 16.7 C 9.24 g/m*3 16.7 C 8.1 km/h
3160 16-06-2017 23:15:00 16.7 C 9.38 g/m*3 16.7 C 3.2 km/h
3161 16-06-2017 23:20:00 16.6 C 9.61 g/m*3 16.6 C 3.2 km/h
3162 16-06-2017 23:25:00 16.5 C 9.55 g/m*3 16.5 C 0 km/h
3163 16-06-2017 23:30:00 16.3 C 9.43 g/m*3 16.3 C 1.6 km/h
3164 16-06-2017 23:35:00 16.2 C 9.24 g/m*3 16.2 C 6.4 km/h
3165 16-06-2017 23:40:00 16.1 C 9.46 g/m*3 16.1 C 0 km/h
3166 16-06-2017 23:45:00 15.9 C 9.21 g/m*3 15.9 C 1.6 km/h
3167 16-06-2017 23:50:00 15.9 C 9.21 g/m*3 15.9 C 3.2 km/h
3168 16-06-2017 23:55:00 15.8 C 9.42 g/m*3 15.8 C 4.8 km/h
3169 17-06-2017 00:00:00 15.7 C 9.23 g/m*3 15.7 C 6.4 km/h
3170 17-06-2017 00:05:00 15.6 C 9.18 g/m*3 15.6 C 4.8 km/h
3171 17-06-2017 00:10:00 15.6 C 9.31 g/m*3 15.6 C 0 km/h
3172 17-06-2017 00:15:00 15.4 C 9.2 g/m*3 15.4 C 6.4 km/h
3173 17-06-2017 00:20:00 15.3 C 9.27 g/m*3 15.3 C 1.6 km/h
3174 17-06-2017 00:25:00 15.2 C 9.22 g/m*3 15.2 C 1.6 km/h
3175 17-06-2017 00:30:00 15.1 C 9.29 g/m*3 15.1 C 1.6 km/h
Sensor: Nr:Datum:Temp:Abs-Feuchte:Windchill:Wind:
Aussen-T/F 3176 17-06-2017 00:35:00 14.9 C 9.18 g/m*3 14.9 C 0 km/h
3177 17-06-2017 00:40:00 14.8 C 9.12 g/m*3 14.8 C 4.8 km/h
3178 17-06-2017 00:45:00 14.8 C 9.25 g/m*3 14.8 C 8.1 km/h
3179 17-06-2017 00:50:00 14.7 C 9.19 g/m*3 14.7 C 8.1 km/h
3180 17-06-2017 00:55:00 14.6 C 9.26 g/m*3 14.6 C 4.8 km/h
3181 17-06-2017 01:00:00 14.4 C 9.15 g/m*3 14.4 C 1.6 km/h
3182 17-06-2017 01:05:00 14.3 C 9.09 g/m*3 14.3 C 3.2 km/h
3183 17-06-2017 01:10:00 14.2 C 9.04 g/m*3 14.2 C 0 km/h
3184 17-06-2017 01:15:00 14.2 C 9.16 g/m*3 14.2 C 1.6 km/h
3185 17-06-2017 01:20:00 14.1 C 9.1 g/m*3 14.1 C 1.6 km/h
3186 17-06-2017 01:25:00 14 C 9.05 g/m*3 14 C 1.6 km/h
3187 17-06-2017 01:30:00 13.9 C 9.11 g/m*3 13.9 C 0 km/h
3188 17-06-2017 01:35:00 13.8 C 9.06 g/m*3 13.8 C 3.2 km/h
3189 17-06-2017 01:40:00 13.7 C 9 g/m*3 13.7 C 0 km/h
3190 17-06-2017 01:45:00 13.7 C 9.12 g/m*3 13.7 C 0 km/h
3191 17-06-2017 01:50:00 13.6 C 9.06 g/m*3 13.6 C 0 km/h
3192 17-06-2017 01:55:00 13.5 C 9.01 g/m*3 13.5 C 0 km/h
3193 17-06-2017 02:00:00 13.4 C 9.07 g/m*3 13.4 C 0 km/h
3194 17-06-2017 02:05:00 13.4 C 9.07 g/m*3 13.4 C 0 km/h
3195 17-06-2017 02:10:00 13.3 C 9.01 g/m*3 13.3 C 3.2 km/h
3196 17-06-2017 02:15:00 13.3 C 9.01 g/m*3 13.3 C 1.6 km/h
3197 17-06-2017 02:20:00 13.3 C 9.01 g/m*3 13.3 C 0 km/h
3198 17-06-2017 02:25:00 13.3 C 9.01 g/m*3 13.3 C 0 km/h
3199 17-06-2017 02:30:00 13.2 C 8.96 g/m*3 13.2 C 0 km/h
3200 17-06-2017 02:35:00 13.2 C 9.07 g/m*3 13.2 C 0 km/h
Sensor: Nr:Datum:Temp:Abs-Feuchte:Windchill:Wind:
Aussen-T/F 3201 17-06-2017 02:40:00 13.1 C 9.01 g/m*3 13.1 C 0 km/h
3202 17-06-2017 02:45:00 13.1 C 9.01 g/m*3 13.1 C 0 km/h
3203 17-06-2017 02:50:00 13 C 8.96 g/m*3 13 C 0 km/h
3204 17-06-2017 02:55:00 12.9 C 9.02 g/m*3 12.9 C 0 km/h
3205 17-06-2017 03:00:00 12.8 C 8.96 g/m*3 12.8 C 0 km/h
3206 17-06-2017 03:05:00 12.8 C 9.07 g/m*3 12.8 C 0 km/h
3207 17-06-2017 03:10:00 12.7 C 8.91 g/m*3 12.7 C 0 km/h
3208 17-06-2017 03:15:00 12.7 C 9.02 g/m*3 12.7 C 0 km/h
3209 17-06-2017 03:20:00 12.6 C 8.96 g/m*3 12.6 C 0 km/h
3210 17-06-2017 03:25:00 12.6 C